<?xml version="1.0" encoding="UTF-8" standalone="no" ?>
<gpx xmlns="http://www.topografix.com/GPX/1/1" xmlns:xsi="http://www.w3.org/2001/XMLSchema-instance" xsi:schemaLocation="http://www.topografix.com/GPX/1/1 http://www.topografix.com/GPX/1/1/gpx.xsd" version="1.1" creator="VisuGPX - https://www.visugpx.com">
  <metadata>
    <name>Claviers</name>
    <desc><![CDATA[Belle promenade dans la campagne autour de Claviers
]]></desc>
  </metadata>
  <trk>
    <name><![CDATA[Claviers_1]]></name>
    <trkseg>
      <trkpt lat="43.60154" lon="6.56254">
        <ele>411.9</ele>
        <time>2019-11-26T13:35:50Z</time>
      </trkpt>
      <trkpt lat="43.60149" lon="6.56252">
        <ele>411.4</ele>
        <time>2019-11-26T13:36:21Z</time>
      </trkpt>
      <trkpt lat="43.60145" lon="6.56253">
        <ele>412.2</ele>
        <time>2019-11-26T13:36:31Z</time>
      </trkpt>
      <trkpt lat="43.60142" lon="6.56258">
        <ele>410.5</ele>
        <time>2019-11-26T13:36:38Z</time>
      </trkpt>
      <trkpt lat="43.60137" lon="6.56261">
        <ele>408.9</ele>
        <time>2019-11-26T13:36:51Z</time>
      </trkpt>
      <trkpt lat="43.60132" lon="6.56263">
        <ele>410.2</ele>
        <time>2019-11-26T13:36:57Z</time>
      </trkpt>
      <trkpt lat="43.60127" lon="6.56262">
        <ele>411.4</ele>
        <time>2019-11-26T13:37:08Z</time>
      </trkpt>
      <trkpt lat="43.60112" lon="6.56233">
        <ele>411.1</ele>
        <time>2019-11-26T13:37:38Z</time>
      </trkpt>
      <trkpt lat="43.60107" lon="6.56232">
        <ele>410.6</ele>
        <time>2019-11-26T13:37:50Z</time>
      </trkpt>
      <trkpt lat="43.60103" lon="6.56229">
        <ele>408.1</ele>
        <time>2019-11-26T13:37:56Z</time>
      </trkpt>
      <trkpt lat="43.601" lon="6.56224">
        <ele>403.9</ele>
        <time>2019-11-26T13:38:02Z</time>
      </trkpt>
      <trkpt lat="43.60098" lon="6.56218">
        <ele>401.3</ele>
        <time>2019-11-26T13:38:08Z</time>
      </trkpt>
      <trkpt lat="43.60102" lon="6.56214">
        <ele>395.6</ele>
        <time>2019-11-26T13:38:24Z</time>
      </trkpt>
      <trkpt lat="43.60103" lon="6.5622">
        <ele>392.8</ele>
        <time>2019-11-26T13:38:37Z</time>
      </trkpt>
      <trkpt lat="43.60101" lon="6.56226">
        <ele>392.2</ele>
        <time>2019-11-26T13:38:42Z</time>
      </trkpt>
      <trkpt lat="43.601" lon="6.56233">
        <ele>392.6</ele>
        <time>2019-11-26T13:38:47Z</time>
      </trkpt>
      <trkpt lat="43.601" lon="6.5624">
        <ele>392.8</ele>
        <time>2019-11-26T13:38:52Z</time>
      </trkpt>
      <trkpt lat="43.601" lon="6.56246">
        <ele>392.3</ele>
        <time>2019-11-26T13:38:58Z</time>
      </trkpt>
      <trkpt lat="43.60099" lon="6.56254">
        <ele>391.1</ele>
        <time>2019-11-26T13:39:05Z</time>
      </trkpt>
      <trkpt lat="43.60102" lon="6.5626">
        <ele>388.6</ele>
        <time>2019-11-26T13:39:12Z</time>
      </trkpt>
      <trkpt lat="43.601" lon="6.56267">
        <ele>385.3</ele>
        <time>2019-11-26T13:39:26Z</time>
      </trkpt>
      <trkpt lat="43.60099" lon="6.56273">
        <ele>384.5</ele>
        <time>2019-11-26T13:39:30Z</time>
      </trkpt>
      <trkpt lat="43.60095" lon="6.56278">
        <ele>384.3</ele>
        <time>2019-11-26T13:39:34Z</time>
      </trkpt>
      <trkpt lat="43.60092" lon="6.56284">
        <ele>384.7</ele>
        <time>2019-11-26T13:39:39Z</time>
      </trkpt>
      <trkpt lat="43.6009" lon="6.5629">
        <ele>385.3</ele>
        <time>2019-11-26T13:39:44Z</time>
      </trkpt>
      <trkpt lat="43.60086" lon="6.56295">
        <ele>386.1</ele>
        <time>2019-11-26T13:39:52Z</time>
      </trkpt>
      <trkpt lat="43.60084" lon="6.56308">
        <ele>386.3</ele>
        <time>2019-11-26T13:40:04Z</time>
      </trkpt>
      <trkpt lat="43.60082" lon="6.56314">
        <ele>385.2</ele>
        <time>2019-11-26T13:40:09Z</time>
      </trkpt>
      <trkpt lat="43.6008" lon="6.56321">
        <ele>383.4</ele>
        <time>2019-11-26T13:40:15Z</time>
      </trkpt>
      <trkpt lat="43.6008" lon="6.56328">
        <ele>381</ele>
        <time>2019-11-26T13:40:21Z</time>
      </trkpt>
      <trkpt lat="43.60079" lon="6.56334">
        <ele>379.5</ele>
        <time>2019-11-26T13:40:27Z</time>
      </trkpt>
      <trkpt lat="43.60078" lon="6.56342">
        <ele>377.3</ele>
        <time>2019-11-26T13:40:34Z</time>
      </trkpt>
      <trkpt lat="43.60076" lon="6.56348">
        <ele>375.8</ele>
        <time>2019-11-26T13:40:41Z</time>
      </trkpt>
      <trkpt lat="43.60075" lon="6.56355">
        <ele>375.3</ele>
        <time>2019-11-26T13:40:47Z</time>
      </trkpt>
      <trkpt lat="43.60074" lon="6.56361">
        <ele>375</ele>
        <time>2019-11-26T13:40:53Z</time>
      </trkpt>
      <trkpt lat="43.60072" lon="6.56367">
        <ele>374.7</ele>
        <time>2019-11-26T13:40:58Z</time>
      </trkpt>
      <trkpt lat="43.60071" lon="6.56374">
        <ele>373.6</ele>
        <time>2019-11-26T13:41:04Z</time>
      </trkpt>
      <trkpt lat="43.6007" lon="6.56381">
        <ele>372.9</ele>
        <time>2019-11-26T13:41:09Z</time>
      </trkpt>
      <trkpt lat="43.6007" lon="6.56387">
        <ele>370.4</ele>
        <time>2019-11-26T13:41:15Z</time>
      </trkpt>
      <trkpt lat="43.60069" lon="6.56394">
        <ele>366</ele>
        <time>2019-11-26T13:41:23Z</time>
      </trkpt>
      <trkpt lat="43.60066" lon="6.56399">
        <ele>365.1</ele>
        <time>2019-11-26T13:41:27Z</time>
      </trkpt>
      <trkpt lat="43.60064" lon="6.56405">
        <ele>364.7</ele>
        <time>2019-11-26T13:41:32Z</time>
      </trkpt>
      <trkpt lat="43.60062" lon="6.56411">
        <ele>364.2</ele>
        <time>2019-11-26T13:41:38Z</time>
      </trkpt>
      <trkpt lat="43.60061" lon="6.56417">
        <ele>362.9</ele>
        <time>2019-11-26T13:41:44Z</time>
      </trkpt>
      <trkpt lat="43.60058" lon="6.56423">
        <ele>360.4</ele>
        <time>2019-11-26T13:41:50Z</time>
      </trkpt>
      <trkpt lat="43.60056" lon="6.56429">
        <ele>359.5</ele>
        <time>2019-11-26T13:41:56Z</time>
      </trkpt>
      <trkpt lat="43.60056" lon="6.56435">
        <ele>359.8</ele>
        <time>2019-11-26T13:42:05Z</time>
      </trkpt>
      <trkpt lat="43.60052" lon="6.56439">
        <ele>358.7</ele>
        <time>2019-11-26T13:42:10Z</time>
      </trkpt>
      <trkpt lat="43.60053" lon="6.56446">
        <ele>356</ele>
        <time>2019-11-26T13:42:23Z</time>
      </trkpt>
      <trkpt lat="43.60057" lon="6.56452">
        <ele>354.2</ele>
        <time>2019-11-26T13:42:27Z</time>
      </trkpt>
      <trkpt lat="43.60053" lon="6.56456">
        <ele>352.5</ele>
        <time>2019-11-26T13:42:34Z</time>
      </trkpt>
      <trkpt lat="43.60048" lon="6.56459">
        <ele>352.2</ele>
        <time>2019-11-26T13:42:40Z</time>
      </trkpt>
      <trkpt lat="43.6005" lon="6.56465">
        <ele>348.5</ele>
        <time>2019-11-26T13:42:56Z</time>
      </trkpt>
      <trkpt lat="43.60046" lon="6.5647">
        <ele>348.3</ele>
        <time>2019-11-26T13:43:01Z</time>
      </trkpt>
      <trkpt lat="43.60045" lon="6.56476">
        <ele>348.7</ele>
        <time>2019-11-26T13:43:06Z</time>
      </trkpt>
      <trkpt lat="43.60045" lon="6.56483">
        <ele>349.4</ele>
        <time>2019-11-26T13:43:11Z</time>
      </trkpt>
      <trkpt lat="43.60044" lon="6.56489">
        <ele>350.8</ele>
        <time>2019-11-26T13:43:17Z</time>
      </trkpt>
      <trkpt lat="43.60045" lon="6.56496">
        <ele>349.7</ele>
        <time>2019-11-26T13:43:21Z</time>
      </trkpt>
      <trkpt lat="43.60047" lon="6.56503">
        <ele>348.9</ele>
        <time>2019-11-26T13:43:25Z</time>
      </trkpt>
      <trkpt lat="43.60052" lon="6.56508">
        <ele>347.3</ele>
        <time>2019-11-26T13:43:28Z</time>
      </trkpt>
      <trkpt lat="43.6005" lon="6.56514">
        <ele>346.7</ele>
        <time>2019-11-26T13:43:33Z</time>
      </trkpt>
      <trkpt lat="43.60048" lon="6.5652">
        <ele>346.5</ele>
        <time>2019-11-26T13:43:38Z</time>
      </trkpt>
      <trkpt lat="43.60047" lon="6.56527">
        <ele>347.5</ele>
        <time>2019-11-26T13:43:44Z</time>
      </trkpt>
      <trkpt lat="43.60047" lon="6.56533">
        <ele>348.9</ele>
        <time>2019-11-26T13:43:49Z</time>
      </trkpt>
      <trkpt lat="43.60047" lon="6.5654">
        <ele>350.7</ele>
        <time>2019-11-26T13:43:54Z</time>
      </trkpt>
      <trkpt lat="43.60047" lon="6.56547">
        <ele>352.7</ele>
        <time>2019-11-26T13:44:00Z</time>
      </trkpt>
      <trkpt lat="43.60044" lon="6.56551">
        <ele>352.6</ele>
        <time>2019-11-26T13:44:04Z</time>
      </trkpt>
      <trkpt lat="43.60041" lon="6.56557">
        <ele>353.4</ele>
        <time>2019-11-26T13:44:10Z</time>
      </trkpt>
      <trkpt lat="43.60041" lon="6.56564">
        <ele>352.1</ele>
        <time>2019-11-26T13:44:15Z</time>
      </trkpt>
      <trkpt lat="43.60039" lon="6.56571">
        <ele>351.9</ele>
        <time>2019-11-26T13:44:21Z</time>
      </trkpt>
      <trkpt lat="43.60035" lon="6.56575">
        <ele>352.8</ele>
        <time>2019-11-26T13:44:26Z</time>
      </trkpt>
      <trkpt lat="43.60031" lon="6.56578">
        <ele>352.7</ele>
        <time>2019-11-26T13:44:33Z</time>
      </trkpt>
      <trkpt lat="43.60027" lon="6.56582">
        <ele>352.4</ele>
        <time>2019-11-26T13:44:37Z</time>
      </trkpt>
      <trkpt lat="43.60024" lon="6.56588">
        <ele>352.1</ele>
        <time>2019-11-26T13:44:40Z</time>
      </trkpt>
      <trkpt lat="43.60023" lon="6.56595">
        <ele>351.3</ele>
        <time>2019-11-26T13:44:43Z</time>
      </trkpt>
      <trkpt lat="43.60023" lon="6.56602">
        <ele>351</ele>
        <time>2019-11-26T13:44:48Z</time>
      </trkpt>
      <trkpt lat="43.60022" lon="6.5661">
        <ele>351.4</ele>
        <time>2019-11-26T13:44:53Z</time>
      </trkpt>
      <trkpt lat="43.60021" lon="6.56616">
        <ele>351.9</ele>
        <time>2019-11-26T13:44:57Z</time>
      </trkpt>
      <trkpt lat="43.60019" lon="6.56623">
        <ele>352.7</ele>
        <time>2019-11-26T13:45:02Z</time>
      </trkpt>
      <trkpt lat="43.60018" lon="6.56631">
        <ele>351.9</ele>
        <time>2019-11-26T13:45:05Z</time>
      </trkpt>
      <trkpt lat="43.60018" lon="6.56637">
        <ele>351.6</ele>
        <time>2019-11-26T13:45:09Z</time>
      </trkpt>
      <trkpt lat="43.6002" lon="6.56644">
        <ele>351.2</ele>
        <time>2019-11-26T13:45:14Z</time>
      </trkpt>
      <trkpt lat="43.60021" lon="6.5665">
        <ele>350.9</ele>
        <time>2019-11-26T13:45:18Z</time>
      </trkpt>
      <trkpt lat="43.60019" lon="6.56656">
        <ele>351.4</ele>
        <time>2019-11-26T13:45:23Z</time>
      </trkpt>
      <trkpt lat="43.60017" lon="6.56662">
        <ele>353</ele>
        <time>2019-11-26T13:45:28Z</time>
      </trkpt>
      <trkpt lat="43.60016" lon="6.56668">
        <ele>353.9</ele>
        <time>2019-11-26T13:45:33Z</time>
      </trkpt>
      <trkpt lat="43.60014" lon="6.56675">
        <ele>353.9</ele>
        <time>2019-11-26T13:45:37Z</time>
      </trkpt>
      <trkpt lat="43.60011" lon="6.5668">
        <ele>353.5</ele>
        <time>2019-11-26T13:45:43Z</time>
      </trkpt>
      <trkpt lat="43.60007" lon="6.56684">
        <ele>353.7</ele>
        <time>2019-11-26T13:45:48Z</time>
      </trkpt>
      <trkpt lat="43.60004" lon="6.56689">
        <ele>354.5</ele>
        <time>2019-11-26T13:46:04Z</time>
      </trkpt>
      <trkpt lat="43.60005" lon="6.56696">
        <ele>354.8</ele>
        <time>2019-11-26T13:46:11Z</time>
      </trkpt>
      <trkpt lat="43.60001" lon="6.56702">
        <ele>354.9</ele>
        <time>2019-11-26T13:46:16Z</time>
      </trkpt>
      <trkpt lat="43.59998" lon="6.56707">
        <ele>354.1</ele>
        <time>2019-11-26T13:46:19Z</time>
      </trkpt>
      <trkpt lat="43.59994" lon="6.5671">
        <ele>353</ele>
        <time>2019-11-26T13:46:25Z</time>
      </trkpt>
      <trkpt lat="43.59991" lon="6.56715">
        <ele>352.8</ele>
        <time>2019-11-26T13:46:29Z</time>
      </trkpt>
      <trkpt lat="43.59988" lon="6.56721">
        <ele>352.7</ele>
        <time>2019-11-26T13:46:34Z</time>
      </trkpt>
      <trkpt lat="43.59984" lon="6.56726">
        <ele>353.4</ele>
        <time>2019-11-26T13:46:40Z</time>
      </trkpt>
      <trkpt lat="43.59981" lon="6.56731">
        <ele>354.3</ele>
        <time>2019-11-26T13:46:45Z</time>
      </trkpt>
      <trkpt lat="43.59977" lon="6.56736">
        <ele>354.9</ele>
        <time>2019-11-26T13:46:50Z</time>
      </trkpt>
      <trkpt lat="43.59973" lon="6.56741">
        <ele>355.3</ele>
        <time>2019-11-26T13:46:54Z</time>
      </trkpt>
      <trkpt lat="43.59972" lon="6.56747">
        <ele>355.2</ele>
        <time>2019-11-26T13:46:59Z</time>
      </trkpt>
      <trkpt lat="43.59969" lon="6.56753">
        <ele>355.6</ele>
        <time>2019-11-26T13:47:03Z</time>
      </trkpt>
      <trkpt lat="43.59965" lon="6.56757">
        <ele>356.3</ele>
        <time>2019-11-26T13:47:07Z</time>
      </trkpt>
      <trkpt lat="43.59962" lon="6.56764">
        <ele>355.7</ele>
        <time>2019-11-26T13:47:11Z</time>
      </trkpt>
      <trkpt lat="43.59957" lon="6.56768">
        <ele>355</ele>
        <time>2019-11-26T13:47:14Z</time>
      </trkpt>
      <trkpt lat="43.59955" lon="6.56774">
        <ele>354.5</ele>
        <time>2019-11-26T13:47:19Z</time>
      </trkpt>
      <trkpt lat="43.59956" lon="6.56781">
        <ele>354</ele>
        <time>2019-11-26T13:47:23Z</time>
      </trkpt>
      <trkpt lat="43.59955" lon="6.56787">
        <ele>353.5</ele>
        <time>2019-11-26T13:47:27Z</time>
      </trkpt>
      <trkpt lat="43.59953" lon="6.56793">
        <ele>353.2</ele>
        <time>2019-11-26T13:47:31Z</time>
      </trkpt>
      <trkpt lat="43.59949" lon="6.56797">
        <ele>354.4</ele>
        <time>2019-11-26T13:47:36Z</time>
      </trkpt>
      <trkpt lat="43.59945" lon="6.56803">
        <ele>354.7</ele>
        <time>2019-11-26T13:47:41Z</time>
      </trkpt>
      <trkpt lat="43.59942" lon="6.56808">
        <ele>354.4</ele>
        <time>2019-11-26T13:47:44Z</time>
      </trkpt>
      <trkpt lat="43.5994" lon="6.56813">
        <ele>352.9</ele>
        <time>2019-11-26T13:47:46Z</time>
      </trkpt>
      <trkpt lat="43.59937" lon="6.56819">
        <ele>351.8</ele>
        <time>2019-11-26T13:47:48Z</time>
      </trkpt>
      <trkpt lat="43.59933" lon="6.56825">
        <ele>349.4</ele>
        <time>2019-11-26T13:47:53Z</time>
      </trkpt>
      <trkpt lat="43.59934" lon="6.56832">
        <ele>348.6</ele>
        <time>2019-11-26T13:48:00Z</time>
      </trkpt>
      <trkpt lat="43.59936" lon="6.56838">
        <ele>349.4</ele>
        <time>2019-11-26T13:48:06Z</time>
      </trkpt>
      <trkpt lat="43.5994" lon="6.5684">
        <ele>350.4</ele>
        <time>2019-11-26T13:48:12Z</time>
      </trkpt>
      <trkpt lat="43.59945" lon="6.5684">
        <ele>350.5</ele>
        <time>2019-11-26T13:48:16Z</time>
      </trkpt>
      <trkpt lat="43.5995" lon="6.56843">
        <ele>351</ele>
        <time>2019-11-26T13:48:20Z</time>
      </trkpt>
      <trkpt lat="43.59954" lon="6.56847">
        <ele>352.5</ele>
        <time>2019-11-26T13:48:24Z</time>
      </trkpt>
      <trkpt lat="43.59959" lon="6.56849">
        <ele>353.9</ele>
        <time>2019-11-26T13:48:28Z</time>
      </trkpt>
      <trkpt lat="43.59963" lon="6.56852">
        <ele>356</ele>
        <time>2019-11-26T13:48:34Z</time>
      </trkpt>
      <trkpt lat="43.59967" lon="6.56857">
        <ele>357.5</ele>
        <time>2019-11-26T13:48:39Z</time>
      </trkpt>
      <trkpt lat="43.59971" lon="6.56863">
        <ele>359</ele>
        <time>2019-11-26T13:48:44Z</time>
      </trkpt>
      <trkpt lat="43.59974" lon="6.56868">
        <ele>360.4</ele>
        <time>2019-11-26T13:48:50Z</time>
      </trkpt>
      <trkpt lat="43.59979" lon="6.56871">
        <ele>360.8</ele>
        <time>2019-11-26T13:48:55Z</time>
      </trkpt>
      <trkpt lat="43.59982" lon="6.56877">
        <ele>360.7</ele>
        <time>2019-11-26T13:48:59Z</time>
      </trkpt>
      <trkpt lat="43.59985" lon="6.56881">
        <ele>360.8</ele>
        <time>2019-11-26T13:49:02Z</time>
      </trkpt>
      <trkpt lat="43.59988" lon="6.56887">
        <ele>360.8</ele>
        <time>2019-11-26T13:49:06Z</time>
      </trkpt>
      <trkpt lat="43.59992" lon="6.56892">
        <ele>361.9</ele>
        <time>2019-11-26T13:49:12Z</time>
      </trkpt>
      <trkpt lat="43.59995" lon="6.56898">
        <ele>361.1</ele>
        <time>2019-11-26T13:49:17Z</time>
      </trkpt>
      <trkpt lat="43.59994" lon="6.56905">
        <ele>362.1</ele>
        <time>2019-11-26T13:49:25Z</time>
      </trkpt>
      <trkpt lat="43.59991" lon="6.5691">
        <ele>362.4</ele>
        <time>2019-11-26T13:49:30Z</time>
      </trkpt>
      <trkpt lat="43.59987" lon="6.56916">
        <ele>363.1</ele>
        <time>2019-11-26T13:49:35Z</time>
      </trkpt>
      <trkpt lat="43.59983" lon="6.56919">
        <ele>363.4</ele>
        <time>2019-11-26T13:49:39Z</time>
      </trkpt>
      <trkpt lat="43.59977" lon="6.56921">
        <ele>364.5</ele>
        <time>2019-11-26T13:49:44Z</time>
      </trkpt>
      <trkpt lat="43.59974" lon="6.56926">
        <ele>364.4</ele>
        <time>2019-11-26T13:49:48Z</time>
      </trkpt>
      <trkpt lat="43.59969" lon="6.56928">
        <ele>364.5</ele>
        <time>2019-11-26T13:49:52Z</time>
      </trkpt>
      <trkpt lat="43.59963" lon="6.56931">
        <ele>363.8</ele>
        <time>2019-11-26T13:49:54Z</time>
      </trkpt>
      <trkpt lat="43.59959" lon="6.56932">
        <ele>363.4</ele>
        <time>2019-11-26T13:49:56Z</time>
      </trkpt>
      <trkpt lat="43.59954" lon="6.56935">
        <ele>362.6</ele>
        <time>2019-11-26T13:50:00Z</time>
      </trkpt>
      <trkpt lat="43.5995" lon="6.56938">
        <ele>362.1</ele>
        <time>2019-11-26T13:50:05Z</time>
      </trkpt>
      <trkpt lat="43.59946" lon="6.56941">
        <ele>362.2</ele>
        <time>2019-11-26T13:50:10Z</time>
      </trkpt>
      <trkpt lat="43.59941" lon="6.56944">
        <ele>362.7</ele>
        <time>2019-11-26T13:50:15Z</time>
      </trkpt>
      <trkpt lat="43.59938" lon="6.56949">
        <ele>362.8</ele>
        <time>2019-11-26T13:50:21Z</time>
      </trkpt>
      <trkpt lat="43.59934" lon="6.56952">
        <ele>363</ele>
        <time>2019-11-26T13:50:26Z</time>
      </trkpt>
      <trkpt lat="43.5993" lon="6.56955">
        <ele>363.4</ele>
        <time>2019-11-26T13:50:31Z</time>
      </trkpt>
      <trkpt lat="43.59925" lon="6.5696">
        <ele>364.1</ele>
        <time>2019-11-26T13:50:36Z</time>
      </trkpt>
      <trkpt lat="43.59922" lon="6.56964">
        <ele>365.1</ele>
        <time>2019-11-26T13:50:40Z</time>
      </trkpt>
      <trkpt lat="43.59918" lon="6.56967">
        <ele>366.2</ele>
        <time>2019-11-26T13:50:43Z</time>
      </trkpt>
      <trkpt lat="43.59913" lon="6.5697">
        <ele>367.1</ele>
        <time>2019-11-26T13:50:46Z</time>
      </trkpt>
      <trkpt lat="43.59909" lon="6.56974">
        <ele>367.9</ele>
        <time>2019-11-26T13:50:50Z</time>
      </trkpt>
      <trkpt lat="43.59904" lon="6.56977">
        <ele>369.2</ele>
        <time>2019-11-26T13:50:55Z</time>
      </trkpt>
      <trkpt lat="43.599" lon="6.56982">
        <ele>369.8</ele>
        <time>2019-11-26T13:51:00Z</time>
      </trkpt>
      <trkpt lat="43.59895" lon="6.56984">
        <ele>370.9</ele>
        <time>2019-11-26T13:51:07Z</time>
      </trkpt>
      <trkpt lat="43.5989" lon="6.56983">
        <ele>371.3</ele>
        <time>2019-11-26T13:51:12Z</time>
      </trkpt>
      <trkpt lat="43.59885" lon="6.56985">
        <ele>371.4</ele>
        <time>2019-11-26T13:51:16Z</time>
      </trkpt>
      <trkpt lat="43.5988" lon="6.56986">
        <ele>371.1</ele>
        <time>2019-11-26T13:51:19Z</time>
      </trkpt>
      <trkpt lat="43.59874" lon="6.56987">
        <ele>370.3</ele>
        <time>2019-11-26T13:51:22Z</time>
      </trkpt>
      <trkpt lat="43.5987" lon="6.56987">
        <ele>368.9</ele>
        <time>2019-11-26T13:51:27Z</time>
      </trkpt>
      <trkpt lat="43.59865" lon="6.56989">
        <ele>367.8</ele>
        <time>2019-11-26T13:51:31Z</time>
      </trkpt>
      <trkpt lat="43.5986" lon="6.56994">
        <ele>364.7</ele>
        <time>2019-11-26T13:51:39Z</time>
      </trkpt>
      <trkpt lat="43.59856" lon="6.56998">
        <ele>363.7</ele>
        <time>2019-11-26T13:51:43Z</time>
      </trkpt>
      <trkpt lat="43.59851" lon="6.57001">
        <ele>363.3</ele>
        <time>2019-11-26T13:51:47Z</time>
      </trkpt>
      <trkpt lat="43.59848" lon="6.57007">
        <ele>362.4</ele>
        <time>2019-11-26T13:51:51Z</time>
      </trkpt>
      <trkpt lat="43.59847" lon="6.57013">
        <ele>359.7</ele>
        <time>2019-11-26T13:51:55Z</time>
      </trkpt>
      <trkpt lat="43.59843" lon="6.57019">
        <ele>359.5</ele>
        <time>2019-11-26T13:52:00Z</time>
      </trkpt>
      <trkpt lat="43.5984" lon="6.57025">
        <ele>360.2</ele>
        <time>2019-11-26T13:52:04Z</time>
      </trkpt>
      <trkpt lat="43.59838" lon="6.57031">
        <ele>360.9</ele>
        <time>2019-11-26T13:52:08Z</time>
      </trkpt>
      <trkpt lat="43.59836" lon="6.57037">
        <ele>362.1</ele>
        <time>2019-11-26T13:52:14Z</time>
      </trkpt>
      <trkpt lat="43.59837" lon="6.57044">
        <ele>363.6</ele>
        <time>2019-11-26T13:52:20Z</time>
      </trkpt>
      <trkpt lat="43.59841" lon="6.57048">
        <ele>363.7</ele>
        <time>2019-11-26T13:52:26Z</time>
      </trkpt>
      <trkpt lat="43.59845" lon="6.57052">
        <ele>363.5</ele>
        <time>2019-11-26T13:52:30Z</time>
      </trkpt>
      <trkpt lat="43.59846" lon="6.57059">
        <ele>363.9</ele>
        <time>2019-11-26T13:52:36Z</time>
      </trkpt>
      <trkpt lat="43.59846" lon="6.57065">
        <ele>364.1</ele>
        <time>2019-11-26T13:52:41Z</time>
      </trkpt>
      <trkpt lat="43.59848" lon="6.57072">
        <ele>363.4</ele>
        <time>2019-11-26T13:52:48Z</time>
      </trkpt>
      <trkpt lat="43.59851" lon="6.57077">
        <ele>363.1</ele>
        <time>2019-11-26T13:52:52Z</time>
      </trkpt>
      <trkpt lat="43.59855" lon="6.57083">
        <ele>362.8</ele>
        <time>2019-11-26T13:52:58Z</time>
      </trkpt>
      <trkpt lat="43.59859" lon="6.57088">
        <ele>362.8</ele>
        <time>2019-11-26T13:53:01Z</time>
      </trkpt>
      <trkpt lat="43.59862" lon="6.57094">
        <ele>362.3</ele>
        <time>2019-11-26T13:53:05Z</time>
      </trkpt>
      <trkpt lat="43.59867" lon="6.57099">
        <ele>361.6</ele>
        <time>2019-11-26T13:53:08Z</time>
      </trkpt>
      <trkpt lat="43.59871" lon="6.57105">
        <ele>361.7</ele>
        <time>2019-11-26T13:53:12Z</time>
      </trkpt>
      <trkpt lat="43.59874" lon="6.57111">
        <ele>362</ele>
        <time>2019-11-26T13:53:17Z</time>
      </trkpt>
      <trkpt lat="43.59878" lon="6.57115">
        <ele>362.4</ele>
        <time>2019-11-26T13:53:21Z</time>
      </trkpt>
      <trkpt lat="43.59881" lon="6.5712">
        <ele>361.1</ele>
        <time>2019-11-26T13:53:26Z</time>
      </trkpt>
      <trkpt lat="43.59885" lon="6.57125">
        <ele>360.5</ele>
        <time>2019-11-26T13:53:31Z</time>
      </trkpt>
      <trkpt lat="43.59887" lon="6.57131">
        <ele>360.7</ele>
        <time>2019-11-26T13:53:35Z</time>
      </trkpt>
      <trkpt lat="43.5989" lon="6.57137">
        <ele>361.1</ele>
        <time>2019-11-26T13:53:40Z</time>
      </trkpt>
      <trkpt lat="43.59892" lon="6.57144">
        <ele>361.9</ele>
        <time>2019-11-26T13:53:45Z</time>
      </trkpt>
      <trkpt lat="43.59894" lon="6.57151">
        <ele>362.8</ele>
        <time>2019-11-26T13:53:50Z</time>
      </trkpt>
      <trkpt lat="43.59895" lon="6.57157">
        <ele>362.6</ele>
        <time>2019-11-26T13:53:55Z</time>
      </trkpt>
      <trkpt lat="43.59897" lon="6.57164">
        <ele>362.9</ele>
        <time>2019-11-26T13:54:00Z</time>
      </trkpt>
      <trkpt lat="43.599" lon="6.57169">
        <ele>363.2</ele>
        <time>2019-11-26T13:54:04Z</time>
      </trkpt>
      <trkpt lat="43.59904" lon="6.57175">
        <ele>363.2</ele>
        <time>2019-11-26T13:54:09Z</time>
      </trkpt>
      <trkpt lat="43.59907" lon="6.57181">
        <ele>363.6</ele>
        <time>2019-11-26T13:54:14Z</time>
      </trkpt>
      <trkpt lat="43.59909" lon="6.57186">
        <ele>364</ele>
        <time>2019-11-26T13:54:18Z</time>
      </trkpt>
      <trkpt lat="43.59913" lon="6.57191">
        <ele>364.3</ele>
        <time>2019-11-26T13:54:23Z</time>
      </trkpt>
      <trkpt lat="43.59918" lon="6.5719">
        <ele>364.2</ele>
        <time>2019-11-26T13:54:27Z</time>
      </trkpt>
      <trkpt lat="43.59922" lon="6.57194">
        <ele>364.3</ele>
        <time>2019-11-26T13:54:32Z</time>
      </trkpt>
      <trkpt lat="43.59925" lon="6.572">
        <ele>364.8</ele>
        <time>2019-11-26T13:54:35Z</time>
      </trkpt>
      <trkpt lat="43.5993" lon="6.57206">
        <ele>364</ele>
        <time>2019-11-26T13:54:39Z</time>
      </trkpt>
      <trkpt lat="43.59932" lon="6.57213">
        <ele>362.7</ele>
        <time>2019-11-26T13:54:43Z</time>
      </trkpt>
      <trkpt lat="43.59928" lon="6.5722">
        <ele>362.7</ele>
        <time>2019-11-26T13:54:47Z</time>
      </trkpt>
      <trkpt lat="43.59924" lon="6.57224">
        <ele>362.9</ele>
        <time>2019-11-26T13:54:50Z</time>
      </trkpt>
      <trkpt lat="43.5992" lon="6.5723">
        <ele>362.8</ele>
        <time>2019-11-26T13:54:58Z</time>
      </trkpt>
      <trkpt lat="43.59915" lon="6.57232">
        <ele>363.5</ele>
        <time>2019-11-26T13:55:01Z</time>
      </trkpt>
      <trkpt lat="43.5991" lon="6.57236">
        <ele>363.8</ele>
        <time>2019-11-26T13:55:04Z</time>
      </trkpt>
      <trkpt lat="43.59905" lon="6.57239">
        <ele>364.1</ele>
        <time>2019-11-26T13:55:07Z</time>
      </trkpt>
      <trkpt lat="43.599" lon="6.57239">
        <ele>364.2</ele>
        <time>2019-11-26T13:55:10Z</time>
      </trkpt>
      <trkpt lat="43.59894" lon="6.5724">
        <ele>364</ele>
        <time>2019-11-26T13:55:14Z</time>
      </trkpt>
      <trkpt lat="43.59889" lon="6.57243">
        <ele>363.7</ele>
        <time>2019-11-26T13:55:19Z</time>
      </trkpt>
      <trkpt lat="43.59886" lon="6.57248">
        <ele>363</ele>
        <time>2019-11-26T13:55:23Z</time>
      </trkpt>
      <trkpt lat="43.59882" lon="6.57251">
        <ele>362.4</ele>
        <time>2019-11-26T13:55:27Z</time>
      </trkpt>
      <trkpt lat="43.59877" lon="6.57255">
        <ele>361.8</ele>
        <time>2019-11-26T13:55:34Z</time>
      </trkpt>
      <trkpt lat="43.59873" lon="6.57259">
        <ele>360.6</ele>
        <time>2019-11-26T13:55:38Z</time>
      </trkpt>
      <trkpt lat="43.59869" lon="6.57262">
        <ele>358.8</ele>
        <time>2019-11-26T13:55:41Z</time>
      </trkpt>
      <trkpt lat="43.59865" lon="6.57266">
        <ele>356.9</ele>
        <time>2019-11-26T13:55:48Z</time>
      </trkpt>
      <trkpt lat="43.5986" lon="6.57264">
        <ele>355.9</ele>
        <time>2019-11-26T13:55:54Z</time>
      </trkpt>
      <trkpt lat="43.59855" lon="6.57263">
        <ele>354.7</ele>
        <time>2019-11-26T13:56:01Z</time>
      </trkpt>
      <trkpt lat="43.5985" lon="6.5726">
        <ele>354.2</ele>
        <time>2019-11-26T13:56:07Z</time>
      </trkpt>
      <trkpt lat="43.59845" lon="6.57262">
        <ele>353.2</ele>
        <time>2019-11-26T13:56:11Z</time>
      </trkpt>
      <trkpt lat="43.5984" lon="6.5726">
        <ele>352</ele>
        <time>2019-11-26T13:56:16Z</time>
      </trkpt>
      <trkpt lat="43.59836" lon="6.5726">
        <ele>352.3</ele>
        <time>2019-11-26T13:56:19Z</time>
      </trkpt>
      <trkpt lat="43.5983" lon="6.57259">
        <ele>352.9</ele>
        <time>2019-11-26T13:56:23Z</time>
      </trkpt>
      <trkpt lat="43.59825" lon="6.5726">
        <ele>353.4</ele>
        <time>2019-11-26T13:56:27Z</time>
      </trkpt>
      <trkpt lat="43.59821" lon="6.57264">
        <ele>353.7</ele>
        <time>2019-11-26T13:56:33Z</time>
      </trkpt>
      <trkpt lat="43.59816" lon="6.57266">
        <ele>351.8</ele>
        <time>2019-11-26T13:56:36Z</time>
      </trkpt>
      <trkpt lat="43.59812" lon="6.57269">
        <ele>350.2</ele>
        <time>2019-11-26T13:56:40Z</time>
      </trkpt>
      <trkpt lat="43.59806" lon="6.5727">
        <ele>349.6</ele>
        <time>2019-11-26T13:56:43Z</time>
      </trkpt>
      <trkpt lat="43.59801" lon="6.57272">
        <ele>350.1</ele>
        <time>2019-11-26T13:56:48Z</time>
      </trkpt>
      <trkpt lat="43.59799" lon="6.57278">
        <ele>352.1</ele>
        <time>2019-11-26T13:56:56Z</time>
      </trkpt>
      <trkpt lat="43.59801" lon="6.57285">
        <ele>353.9</ele>
        <time>2019-11-26T13:57:02Z</time>
      </trkpt>
      <trkpt lat="43.59803" lon="6.57291">
        <ele>354.8</ele>
        <time>2019-11-26T13:57:08Z</time>
      </trkpt>
      <trkpt lat="43.59808" lon="6.57294">
        <ele>355.1</ele>
        <time>2019-11-26T13:57:13Z</time>
      </trkpt>
      <trkpt lat="43.59812" lon="6.57299">
        <ele>356.3</ele>
        <time>2019-11-26T13:57:19Z</time>
      </trkpt>
      <trkpt lat="43.59809" lon="6.57304">
        <ele>356.5</ele>
        <time>2019-11-26T13:57:25Z</time>
      </trkpt>
      <trkpt lat="43.5981" lon="6.57312">
        <ele>357.2</ele>
        <time>2019-11-26T13:57:30Z</time>
      </trkpt>
      <trkpt lat="43.59811" lon="6.57318">
        <ele>358.6</ele>
        <time>2019-11-26T13:57:35Z</time>
      </trkpt>
      <trkpt lat="43.59813" lon="6.57324">
        <ele>359.9</ele>
        <time>2019-11-26T13:57:41Z</time>
      </trkpt>
      <trkpt lat="43.59812" lon="6.57331">
        <ele>361.9</ele>
        <time>2019-11-26T13:57:47Z</time>
      </trkpt>
      <trkpt lat="43.59814" lon="6.57337">
        <ele>362.6</ele>
        <time>2019-11-26T13:57:53Z</time>
      </trkpt>
      <trkpt lat="43.59817" lon="6.57342">
        <ele>362.2</ele>
        <time>2019-11-26T13:57:58Z</time>
      </trkpt>
      <trkpt lat="43.59822" lon="6.57346">
        <ele>362.1</ele>
        <time>2019-11-26T13:58:02Z</time>
      </trkpt>
      <trkpt lat="43.59826" lon="6.57349">
        <ele>361.8</ele>
        <time>2019-11-26T13:58:07Z</time>
      </trkpt>
      <trkpt lat="43.59831" lon="6.57351">
        <ele>361.9</ele>
        <time>2019-11-26T13:58:13Z</time>
      </trkpt>
      <trkpt lat="43.59835" lon="6.57352">
        <ele>362.3</ele>
        <time>2019-11-26T13:58:19Z</time>
      </trkpt>
      <trkpt lat="43.5984" lon="6.57353">
        <ele>362.7</ele>
        <time>2019-11-26T13:58:24Z</time>
      </trkpt>
      <trkpt lat="43.59846" lon="6.57355">
        <ele>362.8</ele>
        <time>2019-11-26T13:58:29Z</time>
      </trkpt>
      <trkpt lat="43.5985" lon="6.57356">
        <ele>361.3</ele>
        <time>2019-11-26T13:58:34Z</time>
      </trkpt>
      <trkpt lat="43.59854" lon="6.5735">
        <ele>359.9</ele>
        <time>2019-11-26T13:58:38Z</time>
      </trkpt>
      <trkpt lat="43.59859" lon="6.57349">
        <ele>360.3</ele>
        <time>2019-11-26T13:58:43Z</time>
      </trkpt>
      <trkpt lat="43.59863" lon="6.57353">
        <ele>362.6</ele>
        <time>2019-11-26T13:58:49Z</time>
      </trkpt>
      <trkpt lat="43.59867" lon="6.57354">
        <ele>365.2</ele>
        <time>2019-11-26T13:58:55Z</time>
      </trkpt>
      <trkpt lat="43.59872" lon="6.57352">
        <ele>367</ele>
        <time>2019-11-26T13:59:00Z</time>
      </trkpt>
      <trkpt lat="43.59876" lon="6.57348">
        <ele>368.3</ele>
        <time>2019-11-26T13:59:05Z</time>
      </trkpt>
      <trkpt lat="43.5988" lon="6.57344">
        <ele>369.8</ele>
        <time>2019-11-26T13:59:10Z</time>
      </trkpt>
      <trkpt lat="43.59884" lon="6.57342">
        <ele>371.1</ele>
        <time>2019-11-26T13:59:15Z</time>
      </trkpt>
      <trkpt lat="43.5989" lon="6.5734">
        <ele>371.7</ele>
        <time>2019-11-26T13:59:19Z</time>
      </trkpt>
      <trkpt lat="43.59895" lon="6.57339">
        <ele>372.2</ele>
        <time>2019-11-26T13:59:24Z</time>
      </trkpt>
      <trkpt lat="43.599" lon="6.5734">
        <ele>372.8</ele>
        <time>2019-11-26T13:59:29Z</time>
      </trkpt>
      <trkpt lat="43.59905" lon="6.57342">
        <ele>373.3</ele>
        <time>2019-11-26T13:59:34Z</time>
      </trkpt>
      <trkpt lat="43.59909" lon="6.57345">
        <ele>373.4</ele>
        <time>2019-11-26T13:59:40Z</time>
      </trkpt>
      <trkpt lat="43.59913" lon="6.57349">
        <ele>372.5</ele>
        <time>2019-11-26T13:59:43Z</time>
      </trkpt>
      <trkpt lat="43.59917" lon="6.57353">
        <ele>371.6</ele>
        <time>2019-11-26T13:59:50Z</time>
      </trkpt>
      <trkpt lat="43.59921" lon="6.57354">
        <ele>373.5</ele>
        <time>2019-11-26T13:59:58Z</time>
      </trkpt>
      <trkpt lat="43.59926" lon="6.57356">
        <ele>375.1</ele>
        <time>2019-11-26T14:00:05Z</time>
      </trkpt>
      <trkpt lat="43.59932" lon="6.57354">
        <ele>375</ele>
        <time>2019-11-26T14:00:09Z</time>
      </trkpt>
      <trkpt lat="43.59936" lon="6.57355">
        <ele>374.7</ele>
        <time>2019-11-26T14:00:13Z</time>
      </trkpt>
      <trkpt lat="43.59941" lon="6.57355">
        <ele>374.6</ele>
        <time>2019-11-26T14:00:16Z</time>
      </trkpt>
      <trkpt lat="43.59945" lon="6.57351">
        <ele>374.3</ele>
        <time>2019-11-26T14:00:20Z</time>
      </trkpt>
      <trkpt lat="43.59947" lon="6.57345">
        <ele>372.1</ele>
        <time>2019-11-26T14:00:22Z</time>
      </trkpt>
      <trkpt lat="43.5995" lon="6.57341">
        <ele>372.9</ele>
        <time>2019-11-26T14:00:34Z</time>
      </trkpt>
      <trkpt lat="43.59955" lon="6.57343">
        <ele>375.1</ele>
        <time>2019-11-26T14:00:41Z</time>
      </trkpt>
      <trkpt lat="43.5996" lon="6.57343">
        <ele>376.8</ele>
        <time>2019-11-26T14:00:48Z</time>
      </trkpt>
      <trkpt lat="43.59965" lon="6.57342">
        <ele>377.5</ele>
        <time>2019-11-26T14:00:54Z</time>
      </trkpt>
      <trkpt lat="43.59969" lon="6.57339">
        <ele>377.3</ele>
        <time>2019-11-26T14:01:01Z</time>
      </trkpt>
      <trkpt lat="43.59974" lon="6.57338">
        <ele>378.5</ele>
        <time>2019-11-26T14:01:08Z</time>
      </trkpt>
      <trkpt lat="43.59978" lon="6.57335">
        <ele>378.8</ele>
        <time>2019-11-26T14:01:12Z</time>
      </trkpt>
      <trkpt lat="43.59983" lon="6.57334">
        <ele>378.3</ele>
        <time>2019-11-26T14:01:16Z</time>
      </trkpt>
      <trkpt lat="43.59986" lon="6.57338">
        <ele>378.4</ele>
        <time>2019-11-26T14:01:21Z</time>
      </trkpt>
      <trkpt lat="43.59991" lon="6.57339">
        <ele>376.8</ele>
        <time>2019-11-26T14:01:27Z</time>
      </trkpt>
      <trkpt lat="43.59993" lon="6.57344">
        <ele>376.9</ele>
        <time>2019-11-26T14:01:35Z</time>
      </trkpt>
      <trkpt lat="43.59998" lon="6.57346">
        <ele>378.7</ele>
        <time>2019-11-26T14:01:42Z</time>
      </trkpt>
      <trkpt lat="43.60003" lon="6.57348">
        <ele>379.2</ele>
        <time>2019-11-26T14:01:47Z</time>
      </trkpt>
      <trkpt lat="43.60009" lon="6.57349">
        <ele>379</ele>
        <time>2019-11-26T14:01:49Z</time>
      </trkpt>
      <trkpt lat="43.60013" lon="6.57352">
        <ele>378.4</ele>
        <time>2019-11-26T14:01:53Z</time>
      </trkpt>
      <trkpt lat="43.60018" lon="6.57352">
        <ele>376.8</ele>
        <time>2019-11-26T14:01:59Z</time>
      </trkpt>
      <trkpt lat="43.60022" lon="6.5735">
        <ele>376.7</ele>
        <time>2019-11-26T14:02:06Z</time>
      </trkpt>
      <trkpt lat="43.60017" lon="6.57349">
        <ele>386.7</ele>
        <time>2019-11-26T14:02:28Z</time>
      </trkpt>
      <trkpt lat="43.60012" lon="6.5735">
        <ele>386</ele>
        <time>2019-11-26T14:02:30Z</time>
      </trkpt>
      <trkpt lat="43.60006" lon="6.57352">
        <ele>386.1</ele>
        <time>2019-11-26T14:02:32Z</time>
      </trkpt>
      <trkpt lat="43.60001" lon="6.57353">
        <ele>385.1</ele>
        <time>2019-11-26T14:02:36Z</time>
      </trkpt>
      <trkpt lat="43.60005" lon="6.57349">
        <ele>381.4</ele>
        <time>2019-11-26T14:02:52Z</time>
      </trkpt>
      <trkpt lat="43.6001" lon="6.5735">
        <ele>382</ele>
        <time>2019-11-26T14:03:10Z</time>
      </trkpt>
      <trkpt lat="43.60014" lon="6.57352">
        <ele>384.7</ele>
        <time>2019-11-26T14:03:19Z</time>
      </trkpt>
      <trkpt lat="43.60016" lon="6.57357">
        <ele>387.2</ele>
        <time>2019-11-26T14:03:41Z</time>
      </trkpt>
      <trkpt lat="43.60013" lon="6.57353">
        <ele>380.4</ele>
        <time>2019-11-26T14:04:15Z</time>
      </trkpt>
      <trkpt lat="43.60011" lon="6.57359">
        <ele>387.3</ele>
        <time>2019-11-26T14:06:04Z</time>
      </trkpt>
      <trkpt lat="43.60012" lon="6.57366">
        <ele>389.2</ele>
        <time>2019-11-26T14:06:09Z</time>
      </trkpt>
      <trkpt lat="43.60013" lon="6.57372">
        <ele>390.5</ele>
        <time>2019-11-26T14:06:13Z</time>
      </trkpt>
      <trkpt lat="43.60015" lon="6.57379">
        <ele>392.4</ele>
        <time>2019-11-26T14:06:18Z</time>
      </trkpt>
      <trkpt lat="43.60017" lon="6.57387">
        <ele>391.9</ele>
        <time>2019-11-26T14:06:20Z</time>
      </trkpt>
      <trkpt lat="43.60018" lon="6.57393">
        <ele>392.1</ele>
        <time>2019-11-26T14:06:27Z</time>
      </trkpt>
      <trkpt lat="43.60018" lon="6.574">
        <ele>392.9</ele>
        <time>2019-11-26T14:06:32Z</time>
      </trkpt>
      <trkpt lat="43.60019" lon="6.57407">
        <ele>393.6</ele>
        <time>2019-11-26T14:06:37Z</time>
      </trkpt>
      <trkpt lat="43.60018" lon="6.57414">
        <ele>394.2</ele>
        <time>2019-11-26T14:06:43Z</time>
      </trkpt>
      <trkpt lat="43.60016" lon="6.57421">
        <ele>394.2</ele>
        <time>2019-11-26T14:06:47Z</time>
      </trkpt>
      <trkpt lat="43.60017" lon="6.57428">
        <ele>393.3</ele>
        <time>2019-11-26T14:06:52Z</time>
      </trkpt>
      <trkpt lat="43.6002" lon="6.57434">
        <ele>393</ele>
        <time>2019-11-26T14:06:57Z</time>
      </trkpt>
      <trkpt lat="43.60021" lon="6.5744">
        <ele>393.3</ele>
        <time>2019-11-26T14:07:02Z</time>
      </trkpt>
      <trkpt lat="43.60021" lon="6.57447">
        <ele>394.1</ele>
        <time>2019-11-26T14:07:07Z</time>
      </trkpt>
      <trkpt lat="43.60022" lon="6.57454">
        <ele>395.4</ele>
        <time>2019-11-26T14:07:13Z</time>
      </trkpt>
      <trkpt lat="43.60022" lon="6.57461">
        <ele>396</ele>
        <time>2019-11-26T14:07:18Z</time>
      </trkpt>
      <trkpt lat="43.60019" lon="6.57466">
        <ele>395.7</ele>
        <time>2019-11-26T14:07:24Z</time>
      </trkpt>
      <trkpt lat="43.60018" lon="6.57474">
        <ele>395</ele>
        <time>2019-11-26T14:07:28Z</time>
      </trkpt>
      <trkpt lat="43.60018" lon="6.5748">
        <ele>395</ele>
        <time>2019-11-26T14:07:32Z</time>
      </trkpt>
      <trkpt lat="43.6002" lon="6.57487">
        <ele>395.4</ele>
        <time>2019-11-26T14:07:36Z</time>
      </trkpt>
      <trkpt lat="43.60022" lon="6.57493">
        <ele>395.9</ele>
        <time>2019-11-26T14:07:40Z</time>
      </trkpt>
      <trkpt lat="43.60023" lon="6.57499">
        <ele>396.5</ele>
        <time>2019-11-26T14:07:44Z</time>
      </trkpt>
      <trkpt lat="43.60021" lon="6.57506">
        <ele>396.8</ele>
        <time>2019-11-26T14:07:51Z</time>
      </trkpt>
      <trkpt lat="43.60022" lon="6.57512">
        <ele>396.8</ele>
        <time>2019-11-26T14:07:55Z</time>
      </trkpt>
      <trkpt lat="43.60024" lon="6.57518">
        <ele>395.4</ele>
        <time>2019-11-26T14:07:58Z</time>
      </trkpt>
      <trkpt lat="43.60025" lon="6.57525">
        <ele>394.7</ele>
        <time>2019-11-26T14:08:03Z</time>
      </trkpt>
      <trkpt lat="43.60026" lon="6.57532">
        <ele>395</ele>
        <time>2019-11-26T14:08:07Z</time>
      </trkpt>
      <trkpt lat="43.60026" lon="6.57539">
        <ele>395.8</ele>
        <time>2019-11-26T14:08:12Z</time>
      </trkpt>
      <trkpt lat="43.60026" lon="6.57546">
        <ele>396.5</ele>
        <time>2019-11-26T14:08:18Z</time>
      </trkpt>
      <trkpt lat="43.60025" lon="6.57552">
        <ele>396.1</ele>
        <time>2019-11-26T14:08:21Z</time>
      </trkpt>
      <trkpt lat="43.60022" lon="6.57558">
        <ele>395.8</ele>
        <time>2019-11-26T14:08:24Z</time>
      </trkpt>
      <trkpt lat="43.60023" lon="6.57564">
        <ele>396.1</ele>
        <time>2019-11-26T14:08:27Z</time>
      </trkpt>
      <trkpt lat="43.60022" lon="6.57571">
        <ele>396.6</ele>
        <time>2019-11-26T14:08:32Z</time>
      </trkpt>
      <trkpt lat="43.60025" lon="6.57578">
        <ele>397</ele>
        <time>2019-11-26T14:08:37Z</time>
      </trkpt>
      <trkpt lat="43.60027" lon="6.57584">
        <ele>397.6</ele>
        <time>2019-11-26T14:08:41Z</time>
      </trkpt>
      <trkpt lat="43.60029" lon="6.57591">
        <ele>398.3</ele>
        <time>2019-11-26T14:08:46Z</time>
      </trkpt>
      <trkpt lat="43.60031" lon="6.57597">
        <ele>398.8</ele>
        <time>2019-11-26T14:08:50Z</time>
      </trkpt>
      <trkpt lat="43.60031" lon="6.57605">
        <ele>398.5</ele>
        <time>2019-11-26T14:08:55Z</time>
      </trkpt>
      <trkpt lat="43.60033" lon="6.57612">
        <ele>398</ele>
        <time>2019-11-26T14:08:59Z</time>
      </trkpt>
      <trkpt lat="43.60035" lon="6.57619">
        <ele>397.5</ele>
        <time>2019-11-26T14:09:03Z</time>
      </trkpt>
      <trkpt lat="43.60036" lon="6.57626">
        <ele>397.5</ele>
        <time>2019-11-26T14:09:07Z</time>
      </trkpt>
      <trkpt lat="43.60037" lon="6.57633">
        <ele>397.9</ele>
        <time>2019-11-26T14:09:12Z</time>
      </trkpt>
      <trkpt lat="43.60038" lon="6.5764">
        <ele>398.5</ele>
        <time>2019-11-26T14:09:16Z</time>
      </trkpt>
      <trkpt lat="43.60036" lon="6.57645">
        <ele>398.4</ele>
        <time>2019-11-26T14:09:18Z</time>
      </trkpt>
      <trkpt lat="43.60033" lon="6.57651">
        <ele>398.6</ele>
        <time>2019-11-26T14:09:21Z</time>
      </trkpt>
      <trkpt lat="43.60035" lon="6.57657">
        <ele>398.9</ele>
        <time>2019-11-26T14:09:27Z</time>
      </trkpt>
      <trkpt lat="43.60038" lon="6.57663">
        <ele>399.3</ele>
        <time>2019-11-26T14:09:32Z</time>
      </trkpt>
      <trkpt lat="43.6004" lon="6.57669">
        <ele>399.6</ele>
        <time>2019-11-26T14:09:36Z</time>
      </trkpt>
      <trkpt lat="43.60042" lon="6.57676">
        <ele>400</ele>
        <time>2019-11-26T14:09:40Z</time>
      </trkpt>
      <trkpt lat="43.60043" lon="6.57683">
        <ele>400.3</ele>
        <time>2019-11-26T14:09:44Z</time>
      </trkpt>
      <trkpt lat="43.60045" lon="6.57689">
        <ele>400.6</ele>
        <time>2019-11-26T14:09:49Z</time>
      </trkpt>
      <trkpt lat="43.60047" lon="6.57695">
        <ele>400.8</ele>
        <time>2019-11-26T14:09:53Z</time>
      </trkpt>
      <trkpt lat="43.60048" lon="6.57702">
        <ele>400.7</ele>
        <time>2019-11-26T14:09:58Z</time>
      </trkpt>
      <trkpt lat="43.60049" lon="6.57709">
        <ele>400.6</ele>
        <time>2019-11-26T14:10:02Z</time>
      </trkpt>
      <trkpt lat="43.6005" lon="6.57717">
        <ele>400.8</ele>
        <time>2019-11-26T14:10:07Z</time>
      </trkpt>
      <trkpt lat="43.6005" lon="6.57723">
        <ele>400.7</ele>
        <time>2019-11-26T14:10:11Z</time>
      </trkpt>
      <trkpt lat="43.60051" lon="6.5773">
        <ele>400.6</ele>
        <time>2019-11-26T14:10:16Z</time>
      </trkpt>
      <trkpt lat="43.60049" lon="6.57737">
        <ele>401</ele>
        <time>2019-11-26T14:10:21Z</time>
      </trkpt>
      <trkpt lat="43.60048" lon="6.57744">
        <ele>401.5</ele>
        <time>2019-11-26T14:10:27Z</time>
      </trkpt>
      <trkpt lat="43.60049" lon="6.5775">
        <ele>402.1</ele>
        <time>2019-11-26T14:10:32Z</time>
      </trkpt>
      <trkpt lat="43.6005" lon="6.57757">
        <ele>402.5</ele>
        <time>2019-11-26T14:10:37Z</time>
      </trkpt>
      <trkpt lat="43.6005" lon="6.57763">
        <ele>403.3</ele>
        <time>2019-11-26T14:10:42Z</time>
      </trkpt>
      <trkpt lat="43.6005" lon="6.57771">
        <ele>403.8</ele>
        <time>2019-11-26T14:10:48Z</time>
      </trkpt>
      <trkpt lat="43.60051" lon="6.57778">
        <ele>404</ele>
        <time>2019-11-26T14:10:53Z</time>
      </trkpt>
      <trkpt lat="43.60053" lon="6.57784">
        <ele>404</ele>
        <time>2019-11-26T14:10:58Z</time>
      </trkpt>
      <trkpt lat="43.60054" lon="6.57791">
        <ele>404.3</ele>
        <time>2019-11-26T14:11:03Z</time>
      </trkpt>
      <trkpt lat="43.60054" lon="6.57799">
        <ele>404.9</ele>
        <time>2019-11-26T14:11:08Z</time>
      </trkpt>
      <trkpt lat="43.60055" lon="6.57805">
        <ele>405.1</ele>
        <time>2019-11-26T14:11:12Z</time>
      </trkpt>
      <trkpt lat="43.60056" lon="6.57811">
        <ele>405.7</ele>
        <time>2019-11-26T14:11:17Z</time>
      </trkpt>
      <trkpt lat="43.60058" lon="6.57818">
        <ele>405.9</ele>
        <time>2019-11-26T14:11:22Z</time>
      </trkpt>
      <trkpt lat="43.60059" lon="6.57825">
        <ele>407.1</ele>
        <time>2019-11-26T14:11:29Z</time>
      </trkpt>
      <trkpt lat="43.6006" lon="6.57832">
        <ele>408.2</ele>
        <time>2019-11-26T14:11:35Z</time>
      </trkpt>
      <trkpt lat="43.6006" lon="6.57839">
        <ele>408.2</ele>
        <time>2019-11-26T14:11:40Z</time>
      </trkpt>
      <trkpt lat="43.60065" lon="6.57845">
        <ele>405.8</ele>
        <time>2019-11-26T14:11:44Z</time>
      </trkpt>
      <trkpt lat="43.60067" lon="6.57852">
        <ele>404.1</ele>
        <time>2019-11-26T14:11:48Z</time>
      </trkpt>
      <trkpt lat="43.60066" lon="6.57859">
        <ele>403.3</ele>
        <time>2019-11-26T14:11:52Z</time>
      </trkpt>
      <trkpt lat="43.60066" lon="6.57866">
        <ele>402.6</ele>
        <time>2019-11-26T14:11:56Z</time>
      </trkpt>
      <trkpt lat="43.60067" lon="6.57873">
        <ele>401.8</ele>
        <time>2019-11-26T14:12:02Z</time>
      </trkpt>
      <trkpt lat="43.60066" lon="6.5788">
        <ele>399.9</ele>
        <time>2019-11-26T14:12:06Z</time>
      </trkpt>
      <trkpt lat="43.60067" lon="6.57887">
        <ele>399.4</ele>
        <time>2019-11-26T14:12:12Z</time>
      </trkpt>
      <trkpt lat="43.60067" lon="6.57895">
        <ele>399.5</ele>
        <time>2019-11-26T14:12:18Z</time>
      </trkpt>
      <trkpt lat="43.60066" lon="6.57902">
        <ele>400.3</ele>
        <time>2019-11-26T14:12:22Z</time>
      </trkpt>
      <trkpt lat="43.60066" lon="6.57909">
        <ele>401.2</ele>
        <time>2019-11-26T14:12:26Z</time>
      </trkpt>
      <trkpt lat="43.60065" lon="6.57917">
        <ele>402.5</ele>
        <time>2019-11-26T14:12:31Z</time>
      </trkpt>
      <trkpt lat="43.60062" lon="6.57922">
        <ele>402.4</ele>
        <time>2019-11-26T14:12:34Z</time>
      </trkpt>
      <trkpt lat="43.60059" lon="6.57927">
        <ele>402.3</ele>
        <time>2019-11-26T14:12:37Z</time>
      </trkpt>
      <trkpt lat="43.60057" lon="6.57934">
        <ele>400.4</ele>
        <time>2019-11-26T14:12:44Z</time>
      </trkpt>
      <trkpt lat="43.60056" lon="6.57941">
        <ele>400.5</ele>
        <time>2019-11-26T14:12:48Z</time>
      </trkpt>
      <trkpt lat="43.60055" lon="6.57947">
        <ele>401.8</ele>
        <time>2019-11-26T14:12:55Z</time>
      </trkpt>
      <trkpt lat="43.60056" lon="6.57955">
        <ele>400.5</ele>
        <time>2019-11-26T14:12:59Z</time>
      </trkpt>
      <trkpt lat="43.60056" lon="6.57961">
        <ele>398.4</ele>
        <time>2019-11-26T14:13:01Z</time>
      </trkpt>
      <trkpt lat="43.60054" lon="6.57967">
        <ele>396.9</ele>
        <time>2019-11-26T14:13:04Z</time>
      </trkpt>
      <trkpt lat="43.60054" lon="6.57975">
        <ele>396.5</ele>
        <time>2019-11-26T14:13:10Z</time>
      </trkpt>
      <trkpt lat="43.60054" lon="6.57981">
        <ele>397.2</ele>
        <time>2019-11-26T14:13:14Z</time>
      </trkpt>
      <trkpt lat="43.60054" lon="6.57988">
        <ele>398.3</ele>
        <time>2019-11-26T14:13:18Z</time>
      </trkpt>
      <trkpt lat="43.60054" lon="6.57995">
        <ele>398.4</ele>
        <time>2019-11-26T14:13:22Z</time>
      </trkpt>
      <trkpt lat="43.60054" lon="6.58002">
        <ele>399</ele>
        <time>2019-11-26T14:13:26Z</time>
      </trkpt>
      <trkpt lat="43.60053" lon="6.58009">
        <ele>398.4</ele>
        <time>2019-11-26T14:13:30Z</time>
      </trkpt>
      <trkpt lat="43.60056" lon="6.58015">
        <ele>398.7</ele>
        <time>2019-11-26T14:13:35Z</time>
      </trkpt>
      <trkpt lat="43.60058" lon="6.58022">
        <ele>399.4</ele>
        <time>2019-11-26T14:13:39Z</time>
      </trkpt>
      <trkpt lat="43.60055" lon="6.58029">
        <ele>400.1</ele>
        <time>2019-11-26T14:13:43Z</time>
      </trkpt>
      <trkpt lat="43.60054" lon="6.58035">
        <ele>400.5</ele>
        <time>2019-11-26T14:13:47Z</time>
      </trkpt>
      <trkpt lat="43.60053" lon="6.58042">
        <ele>400.4</ele>
        <time>2019-11-26T14:13:52Z</time>
      </trkpt>
      <trkpt lat="43.60051" lon="6.58049">
        <ele>400.5</ele>
        <time>2019-11-26T14:13:57Z</time>
      </trkpt>
      <trkpt lat="43.60052" lon="6.58056">
        <ele>398.8</ele>
        <time>2019-11-26T14:13:59Z</time>
      </trkpt>
      <trkpt lat="43.60055" lon="6.58063">
        <ele>398</ele>
        <time>2019-11-26T14:14:02Z</time>
      </trkpt>
      <trkpt lat="43.60054" lon="6.58069">
        <ele>396.8</ele>
        <time>2019-11-26T14:14:05Z</time>
      </trkpt>
      <trkpt lat="43.60049" lon="6.5807">
        <ele>396.3</ele>
        <time>2019-11-26T14:14:08Z</time>
      </trkpt>
      <trkpt lat="43.60053" lon="6.58076">
        <ele>394.1</ele>
        <time>2019-11-26T14:14:13Z</time>
      </trkpt>
      <trkpt lat="43.60051" lon="6.58082">
        <ele>393.2</ele>
        <time>2019-11-26T14:14:18Z</time>
      </trkpt>
      <trkpt lat="43.60048" lon="6.58089">
        <ele>393.6</ele>
        <time>2019-11-26T14:14:21Z</time>
      </trkpt>
      <trkpt lat="43.60045" lon="6.58094">
        <ele>394.2</ele>
        <time>2019-11-26T14:14:24Z</time>
      </trkpt>
      <trkpt lat="43.60042" lon="6.58099">
        <ele>395.6</ele>
        <time>2019-11-26T14:14:28Z</time>
      </trkpt>
      <trkpt lat="43.60039" lon="6.58103">
        <ele>395.9</ele>
        <time>2019-11-26T14:14:32Z</time>
      </trkpt>
      <trkpt lat="43.60037" lon="6.5811">
        <ele>395.9</ele>
        <time>2019-11-26T14:14:35Z</time>
      </trkpt>
      <trkpt lat="43.60034" lon="6.58116">
        <ele>394.9</ele>
        <time>2019-11-26T14:14:38Z</time>
      </trkpt>
      <trkpt lat="43.60031" lon="6.58121">
        <ele>393.9</ele>
        <time>2019-11-26T14:14:42Z</time>
      </trkpt>
      <trkpt lat="43.60028" lon="6.58127">
        <ele>393.3</ele>
        <time>2019-11-26T14:14:47Z</time>
      </trkpt>
      <trkpt lat="43.60024" lon="6.58129">
        <ele>391</ele>
        <time>2019-11-26T14:14:53Z</time>
      </trkpt>
      <trkpt lat="43.60022" lon="6.58136">
        <ele>391.1</ele>
        <time>2019-11-26T14:14:59Z</time>
      </trkpt>
      <trkpt lat="43.60018" lon="6.58141">
        <ele>392.2</ele>
        <time>2019-11-26T14:15:03Z</time>
      </trkpt>
      <trkpt lat="43.60014" lon="6.58145">
        <ele>393.9</ele>
        <time>2019-11-26T14:15:07Z</time>
      </trkpt>
      <trkpt lat="43.60013" lon="6.58152">
        <ele>394.9</ele>
        <time>2019-11-26T14:15:12Z</time>
      </trkpt>
      <trkpt lat="43.60009" lon="6.58156">
        <ele>396.2</ele>
        <time>2019-11-26T14:15:16Z</time>
      </trkpt>
      <trkpt lat="43.60004" lon="6.5816">
        <ele>397.6</ele>
        <time>2019-11-26T14:15:20Z</time>
      </trkpt>
      <trkpt lat="43.6" lon="6.58162">
        <ele>397.7</ele>
        <time>2019-11-26T14:15:24Z</time>
      </trkpt>
      <trkpt lat="43.59996" lon="6.58167">
        <ele>397.5</ele>
        <time>2019-11-26T14:15:28Z</time>
      </trkpt>
      <trkpt lat="43.59993" lon="6.58172">
        <ele>397.6</ele>
        <time>2019-11-26T14:15:32Z</time>
      </trkpt>
      <trkpt lat="43.59989" lon="6.58176">
        <ele>398.1</ele>
        <time>2019-11-26T14:15:37Z</time>
      </trkpt>
      <trkpt lat="43.59987" lon="6.58183">
        <ele>398.3</ele>
        <time>2019-11-26T14:15:44Z</time>
      </trkpt>
      <trkpt lat="43.59986" lon="6.58191">
        <ele>397.9</ele>
        <time>2019-11-26T14:15:48Z</time>
      </trkpt>
      <trkpt lat="43.59983" lon="6.58196">
        <ele>396.7</ele>
        <time>2019-11-26T14:15:55Z</time>
      </trkpt>
      <trkpt lat="43.59978" lon="6.582">
        <ele>396.7</ele>
        <time>2019-11-26T14:15:59Z</time>
      </trkpt>
      <trkpt lat="43.59975" lon="6.58205">
        <ele>396.8</ele>
        <time>2019-11-26T14:16:03Z</time>
      </trkpt>
      <trkpt lat="43.59971" lon="6.5821">
        <ele>397.1</ele>
        <time>2019-11-26T14:16:09Z</time>
      </trkpt>
      <trkpt lat="43.59968" lon="6.58215">
        <ele>397.8</ele>
        <time>2019-11-26T14:16:13Z</time>
      </trkpt>
      <trkpt lat="43.59964" lon="6.5822">
        <ele>398.3</ele>
        <time>2019-11-26T14:16:16Z</time>
      </trkpt>
      <trkpt lat="43.5996" lon="6.58226">
        <ele>398.3</ele>
        <time>2019-11-26T14:16:19Z</time>
      </trkpt>
      <trkpt lat="43.59957" lon="6.58231">
        <ele>398.2</ele>
        <time>2019-11-26T14:16:22Z</time>
      </trkpt>
      <trkpt lat="43.59954" lon="6.58236">
        <ele>398</ele>
        <time>2019-11-26T14:16:27Z</time>
      </trkpt>
      <trkpt lat="43.59952" lon="6.58243">
        <ele>398.5</ele>
        <time>2019-11-26T14:16:33Z</time>
      </trkpt>
      <trkpt lat="43.5995" lon="6.5825">
        <ele>399.2</ele>
        <time>2019-11-26T14:16:38Z</time>
      </trkpt>
      <trkpt lat="43.59949" lon="6.58257">
        <ele>400</ele>
        <time>2019-11-26T14:16:42Z</time>
      </trkpt>
      <trkpt lat="43.59947" lon="6.58263">
        <ele>400.7</ele>
        <time>2019-11-26T14:16:46Z</time>
      </trkpt>
      <trkpt lat="43.59946" lon="6.5827">
        <ele>401.6</ele>
        <time>2019-11-26T14:16:51Z</time>
      </trkpt>
      <trkpt lat="43.59944" lon="6.58277">
        <ele>402</ele>
        <time>2019-11-26T14:16:55Z</time>
      </trkpt>
      <trkpt lat="43.59944" lon="6.58284">
        <ele>402.2</ele>
        <time>2019-11-26T14:17:00Z</time>
      </trkpt>
      <trkpt lat="43.59945" lon="6.5829">
        <ele>402.2</ele>
        <time>2019-11-26T14:17:04Z</time>
      </trkpt>
      <trkpt lat="43.59943" lon="6.58296">
        <ele>402.7</ele>
        <time>2019-11-26T14:17:09Z</time>
      </trkpt>
      <trkpt lat="43.59942" lon="6.58304">
        <ele>402.9</ele>
        <time>2019-11-26T14:17:13Z</time>
      </trkpt>
      <trkpt lat="43.59942" lon="6.58311">
        <ele>403.1</ele>
        <time>2019-11-26T14:17:16Z</time>
      </trkpt>
      <trkpt lat="43.59941" lon="6.58318">
        <ele>403.1</ele>
        <time>2019-11-26T14:17:20Z</time>
      </trkpt>
      <trkpt lat="43.59943" lon="6.58324">
        <ele>402.8</ele>
        <time>2019-11-26T14:17:25Z</time>
      </trkpt>
      <trkpt lat="43.59949" lon="6.58327">
        <ele>402.4</ele>
        <time>2019-11-26T14:17:28Z</time>
      </trkpt>
      <trkpt lat="43.59947" lon="6.58335">
        <ele>402.1</ele>
        <time>2019-11-26T14:17:32Z</time>
      </trkpt>
      <trkpt lat="43.59946" lon="6.58342">
        <ele>402.3</ele>
        <time>2019-11-26T14:17:35Z</time>
      </trkpt>
      <trkpt lat="43.59944" lon="6.58349">
        <ele>402.6</ele>
        <time>2019-11-26T14:17:39Z</time>
      </trkpt>
      <trkpt lat="43.59942" lon="6.58355">
        <ele>402.6</ele>
        <time>2019-11-26T14:17:44Z</time>
      </trkpt>
      <trkpt lat="43.59938" lon="6.58361">
        <ele>402.3</ele>
        <time>2019-11-26T14:17:48Z</time>
      </trkpt>
      <trkpt lat="43.59936" lon="6.58369">
        <ele>402.3</ele>
        <time>2019-11-26T14:17:52Z</time>
      </trkpt>
      <trkpt lat="43.59936" lon="6.58376">
        <ele>402.7</ele>
        <time>2019-11-26T14:17:56Z</time>
      </trkpt>
      <trkpt lat="43.59936" lon="6.58382">
        <ele>402.7</ele>
        <time>2019-11-26T14:18:00Z</time>
      </trkpt>
      <trkpt lat="43.59936" lon="6.5839">
        <ele>403.1</ele>
        <time>2019-11-26T14:18:04Z</time>
      </trkpt>
      <trkpt lat="43.59936" lon="6.58396">
        <ele>403.5</ele>
        <time>2019-11-26T14:18:08Z</time>
      </trkpt>
      <trkpt lat="43.59936" lon="6.58404">
        <ele>403.4</ele>
        <time>2019-11-26T14:18:12Z</time>
      </trkpt>
      <trkpt lat="43.59936" lon="6.5841">
        <ele>403.4</ele>
        <time>2019-11-26T14:18:17Z</time>
      </trkpt>
      <trkpt lat="43.59934" lon="6.58417">
        <ele>403.4</ele>
        <time>2019-11-26T14:18:22Z</time>
      </trkpt>
      <trkpt lat="43.59933" lon="6.58424">
        <ele>403.4</ele>
        <time>2019-11-26T14:18:26Z</time>
      </trkpt>
      <trkpt lat="43.59932" lon="6.5843">
        <ele>403.6</ele>
        <time>2019-11-26T14:18:30Z</time>
      </trkpt>
      <trkpt lat="43.59927" lon="6.58433">
        <ele>403.7</ele>
        <time>2019-11-26T14:18:34Z</time>
      </trkpt>
      <trkpt lat="43.59925" lon="6.5844">
        <ele>403.7</ele>
        <time>2019-11-26T14:18:39Z</time>
      </trkpt>
      <trkpt lat="43.59924" lon="6.58446">
        <ele>404</ele>
        <time>2019-11-26T14:18:43Z</time>
      </trkpt>
      <trkpt lat="43.59925" lon="6.58455">
        <ele>403.9</ele>
        <time>2019-11-26T14:18:47Z</time>
      </trkpt>
      <trkpt lat="43.59925" lon="6.58462">
        <ele>404.2</ele>
        <time>2019-11-26T14:18:50Z</time>
      </trkpt>
      <trkpt lat="43.59925" lon="6.58468">
        <ele>403.7</ele>
        <time>2019-11-26T14:18:53Z</time>
      </trkpt>
      <trkpt lat="43.59925" lon="6.58476">
        <ele>403.2</ele>
        <time>2019-11-26T14:18:58Z</time>
      </trkpt>
      <trkpt lat="43.59927" lon="6.58482">
        <ele>402.1</ele>
        <time>2019-11-26T14:19:02Z</time>
      </trkpt>
      <trkpt lat="43.5993" lon="6.58488">
        <ele>401.8</ele>
        <time>2019-11-26T14:19:05Z</time>
      </trkpt>
      <trkpt lat="43.59929" lon="6.58495">
        <ele>402.2</ele>
        <time>2019-11-26T14:19:13Z</time>
      </trkpt>
      <trkpt lat="43.59924" lon="6.58506">
        <ele>402</ele>
        <time>2019-11-26T14:19:22Z</time>
      </trkpt>
      <trkpt lat="43.59924" lon="6.58513">
        <ele>401</ele>
        <time>2019-11-26T14:19:26Z</time>
      </trkpt>
      <trkpt lat="43.59925" lon="6.5852">
        <ele>400.8</ele>
        <time>2019-11-26T14:19:29Z</time>
      </trkpt>
      <trkpt lat="43.59924" lon="6.58526">
        <ele>400.8</ele>
        <time>2019-11-26T14:19:34Z</time>
      </trkpt>
      <trkpt lat="43.59923" lon="6.58533">
        <ele>401.1</ele>
        <time>2019-11-26T14:19:39Z</time>
      </trkpt>
      <trkpt lat="43.59922" lon="6.58539">
        <ele>401.6</ele>
        <time>2019-11-26T14:19:43Z</time>
      </trkpt>
      <trkpt lat="43.59921" lon="6.58546">
        <ele>401.9</ele>
        <time>2019-11-26T14:19:47Z</time>
      </trkpt>
      <trkpt lat="43.5992" lon="6.58553">
        <ele>402.5</ele>
        <time>2019-11-26T14:19:51Z</time>
      </trkpt>
      <trkpt lat="43.59918" lon="6.58559">
        <ele>401.8</ele>
        <time>2019-11-26T14:19:54Z</time>
      </trkpt>
      <trkpt lat="43.59916" lon="6.58566">
        <ele>402</ele>
        <time>2019-11-26T14:19:58Z</time>
      </trkpt>
      <trkpt lat="43.59914" lon="6.58572">
        <ele>402.7</ele>
        <time>2019-11-26T14:20:02Z</time>
      </trkpt>
      <trkpt lat="43.59914" lon="6.58579">
        <ele>402.7</ele>
        <time>2019-11-26T14:20:06Z</time>
      </trkpt>
      <trkpt lat="43.59912" lon="6.58585">
        <ele>403.2</ele>
        <time>2019-11-26T14:20:11Z</time>
      </trkpt>
      <trkpt lat="43.5991" lon="6.58591">
        <ele>403.5</ele>
        <time>2019-11-26T14:20:16Z</time>
      </trkpt>
      <trkpt lat="43.59908" lon="6.58597">
        <ele>403.6</ele>
        <time>2019-11-26T14:20:20Z</time>
      </trkpt>
      <trkpt lat="43.59905" lon="6.58603">
        <ele>404</ele>
        <time>2019-11-26T14:20:25Z</time>
      </trkpt>
      <trkpt lat="43.59904" lon="6.5861">
        <ele>404.6</ele>
        <time>2019-11-26T14:20:29Z</time>
      </trkpt>
      <trkpt lat="43.59902" lon="6.58616">
        <ele>405.1</ele>
        <time>2019-11-26T14:20:33Z</time>
      </trkpt>
      <trkpt lat="43.59901" lon="6.58622">
        <ele>405.4</ele>
        <time>2019-11-26T14:20:37Z</time>
      </trkpt>
      <trkpt lat="43.59898" lon="6.58629">
        <ele>405.9</ele>
        <time>2019-11-26T14:20:42Z</time>
      </trkpt>
      <trkpt lat="43.59897" lon="6.58636">
        <ele>406.3</ele>
        <time>2019-11-26T14:20:46Z</time>
      </trkpt>
      <trkpt lat="43.59894" lon="6.58642">
        <ele>406.5</ele>
        <time>2019-11-26T14:20:50Z</time>
      </trkpt>
      <trkpt lat="43.5989" lon="6.58648">
        <ele>407</ele>
        <time>2019-11-26T14:20:55Z</time>
      </trkpt>
      <trkpt lat="43.59888" lon="6.58654">
        <ele>407.2</ele>
        <time>2019-11-26T14:20:58Z</time>
      </trkpt>
      <trkpt lat="43.59886" lon="6.5866">
        <ele>407.5</ele>
        <time>2019-11-26T14:21:03Z</time>
      </trkpt>
      <trkpt lat="43.59884" lon="6.58666">
        <ele>407.3</ele>
        <time>2019-11-26T14:21:08Z</time>
      </trkpt>
      <trkpt lat="43.59882" lon="6.58673">
        <ele>406.7</ele>
        <time>2019-11-26T14:21:12Z</time>
      </trkpt>
      <trkpt lat="43.59881" lon="6.5868">
        <ele>406.7</ele>
        <time>2019-11-26T14:21:16Z</time>
      </trkpt>
      <trkpt lat="43.59879" lon="6.58687">
        <ele>406.3</ele>
        <time>2019-11-26T14:21:21Z</time>
      </trkpt>
      <trkpt lat="43.59876" lon="6.58693">
        <ele>406.3</ele>
        <time>2019-11-26T14:21:26Z</time>
      </trkpt>
      <trkpt lat="43.59871" lon="6.58697">
        <ele>405.1</ele>
        <time>2019-11-26T14:21:29Z</time>
      </trkpt>
      <trkpt lat="43.59869" lon="6.58704">
        <ele>403.8</ele>
        <time>2019-11-26T14:21:32Z</time>
      </trkpt>
      <trkpt lat="43.59867" lon="6.5871">
        <ele>403.3</ele>
        <time>2019-11-26T14:21:38Z</time>
      </trkpt>
      <trkpt lat="43.59865" lon="6.58717">
        <ele>403</ele>
        <time>2019-11-26T14:21:43Z</time>
      </trkpt>
      <trkpt lat="43.59866" lon="6.58724">
        <ele>402.6</ele>
        <time>2019-11-26T14:21:49Z</time>
      </trkpt>
      <trkpt lat="43.59864" lon="6.58731">
        <ele>402.3</ele>
        <time>2019-11-26T14:21:54Z</time>
      </trkpt>
      <trkpt lat="43.5986" lon="6.58734">
        <ele>401.7</ele>
        <time>2019-11-26T14:22:20Z</time>
      </trkpt>
      <trkpt lat="43.59856" lon="6.58731">
        <ele>398.1</ele>
        <time>2019-11-26T14:24:09Z</time>
      </trkpt>
      <trkpt lat="43.5986" lon="6.58734">
        <ele>397.8</ele>
        <time>2019-11-26T14:24:17Z</time>
      </trkpt>
      <trkpt lat="43.59855" lon="6.58732">
        <ele>396.6</ele>
        <time>2019-11-26T14:24:46Z</time>
      </trkpt>
      <trkpt lat="43.59857" lon="6.58739">
        <ele>395.3</ele>
        <time>2019-11-26T14:26:23Z</time>
      </trkpt>
      <trkpt lat="43.59861" lon="6.58743">
        <ele>392.4</ele>
        <time>2019-11-26T14:26:35Z</time>
      </trkpt>
      <trkpt lat="43.59856" lon="6.5874">
        <ele>391.4</ele>
        <time>2019-11-26T14:26:56Z</time>
      </trkpt>
      <trkpt lat="43.59862" lon="6.58741">
        <ele>391.8</ele>
        <time>2019-11-26T14:27:17Z</time>
      </trkpt>
      <trkpt lat="43.59866" lon="6.58742">
        <ele>391.6</ele>
        <time>2019-11-26T14:27:20Z</time>
      </trkpt>
      <trkpt lat="43.59863" lon="6.58738">
        <ele>392.8</ele>
        <time>2019-11-26T14:27:26Z</time>
      </trkpt>
      <trkpt lat="43.59859" lon="6.58735">
        <ele>396</ele>
        <time>2019-11-26T14:27:59Z</time>
      </trkpt>
      <trkpt lat="43.5986" lon="6.58742">
        <ele>397</ele>
        <time>2019-11-26T14:28:36Z</time>
      </trkpt>
      <trkpt lat="43.59856" lon="6.58737">
        <ele>392.1</ele>
        <time>2019-11-26T14:29:17Z</time>
      </trkpt>
      <trkpt lat="43.59851" lon="6.5874">
        <ele>391.1</ele>
        <time>2019-11-26T14:29:41Z</time>
      </trkpt>
      <trkpt lat="43.5985" lon="6.58746">
        <ele>393.6</ele>
        <time>2019-11-26T14:29:50Z</time>
      </trkpt>
      <trkpt lat="43.59851" lon="6.58754">
        <ele>396.1</ele>
        <time>2019-11-26T14:29:57Z</time>
      </trkpt>
      <trkpt lat="43.59849" lon="6.5876">
        <ele>399</ele>
        <time>2019-11-26T14:30:05Z</time>
      </trkpt>
      <trkpt lat="43.59848" lon="6.58767">
        <ele>401.6</ele>
        <time>2019-11-26T14:30:14Z</time>
      </trkpt>
      <trkpt lat="43.59846" lon="6.58772">
        <ele>402.7</ele>
        <time>2019-11-26T14:30:19Z</time>
      </trkpt>
      <trkpt lat="43.59845" lon="6.58779">
        <ele>403.5</ele>
        <time>2019-11-26T14:30:24Z</time>
      </trkpt>
      <trkpt lat="43.59844" lon="6.58786">
        <ele>403.6</ele>
        <time>2019-11-26T14:30:30Z</time>
      </trkpt>
      <trkpt lat="43.59845" lon="6.58793">
        <ele>403.9</ele>
        <time>2019-11-26T14:30:35Z</time>
      </trkpt>
      <trkpt lat="43.59844" lon="6.588">
        <ele>403.1</ele>
        <time>2019-11-26T14:30:40Z</time>
      </trkpt>
      <trkpt lat="43.59843" lon="6.58806">
        <ele>402.8</ele>
        <time>2019-11-26T14:30:45Z</time>
      </trkpt>
      <trkpt lat="43.59842" lon="6.58815">
        <ele>402.1</ele>
        <time>2019-11-26T14:30:48Z</time>
      </trkpt>
      <trkpt lat="43.59842" lon="6.58822">
        <ele>401.6</ele>
        <time>2019-11-26T14:30:53Z</time>
      </trkpt>
      <trkpt lat="43.59841" lon="6.58829">
        <ele>401.6</ele>
        <time>2019-11-26T14:30:59Z</time>
      </trkpt>
      <trkpt lat="43.59841" lon="6.58835">
        <ele>400.8</ele>
        <time>2019-11-26T14:31:05Z</time>
      </trkpt>
      <trkpt lat="43.59843" lon="6.58842">
        <ele>400.5</ele>
        <time>2019-11-26T14:31:09Z</time>
      </trkpt>
      <trkpt lat="43.59845" lon="6.58848">
        <ele>400.7</ele>
        <time>2019-11-26T14:31:13Z</time>
      </trkpt>
      <trkpt lat="43.59847" lon="6.58855">
        <ele>401.3</ele>
        <time>2019-11-26T14:31:18Z</time>
      </trkpt>
      <trkpt lat="43.59846" lon="6.58861">
        <ele>402</ele>
        <time>2019-11-26T14:31:21Z</time>
      </trkpt>
      <trkpt lat="43.59847" lon="6.58868">
        <ele>402</ele>
        <time>2019-11-26T14:31:25Z</time>
      </trkpt>
      <trkpt lat="43.5985" lon="6.58873">
        <ele>401.9</ele>
        <time>2019-11-26T14:31:31Z</time>
      </trkpt>
      <trkpt lat="43.59854" lon="6.58877">
        <ele>402.4</ele>
        <time>2019-11-26T14:31:38Z</time>
      </trkpt>
      <trkpt lat="43.59855" lon="6.58884">
        <ele>403.1</ele>
        <time>2019-11-26T14:31:45Z</time>
      </trkpt>
      <trkpt lat="43.59857" lon="6.5889">
        <ele>403.6</ele>
        <time>2019-11-26T14:31:50Z</time>
      </trkpt>
      <trkpt lat="43.5986" lon="6.58894">
        <ele>403.8</ele>
        <time>2019-11-26T14:31:53Z</time>
      </trkpt>
      <trkpt lat="43.59865" lon="6.58899">
        <ele>403.8</ele>
        <time>2019-11-26T14:32:00Z</time>
      </trkpt>
      <trkpt lat="43.59869" lon="6.58902">
        <ele>403.5</ele>
        <time>2019-11-26T14:32:04Z</time>
      </trkpt>
      <trkpt lat="43.59872" lon="6.58908">
        <ele>403.3</ele>
        <time>2019-11-26T14:32:09Z</time>
      </trkpt>
      <trkpt lat="43.59874" lon="6.58914">
        <ele>403.4</ele>
        <time>2019-11-26T14:32:14Z</time>
      </trkpt>
      <trkpt lat="43.59878" lon="6.5892">
        <ele>403</ele>
        <time>2019-11-26T14:32:18Z</time>
      </trkpt>
      <trkpt lat="43.5988" lon="6.58926">
        <ele>402.7</ele>
        <time>2019-11-26T14:32:22Z</time>
      </trkpt>
      <trkpt lat="43.59883" lon="6.58932">
        <ele>402.8</ele>
        <time>2019-11-26T14:32:26Z</time>
      </trkpt>
      <trkpt lat="43.59886" lon="6.58937">
        <ele>403.2</ele>
        <time>2019-11-26T14:32:31Z</time>
      </trkpt>
      <trkpt lat="43.59888" lon="6.58944">
        <ele>402.9</ele>
        <time>2019-11-26T14:32:36Z</time>
      </trkpt>
      <trkpt lat="43.59889" lon="6.58951">
        <ele>403</ele>
        <time>2019-11-26T14:32:40Z</time>
      </trkpt>
      <trkpt lat="43.59892" lon="6.58957">
        <ele>402.9</ele>
        <time>2019-11-26T14:32:46Z</time>
      </trkpt>
      <trkpt lat="43.59896" lon="6.58961">
        <ele>402.5</ele>
        <time>2019-11-26T14:32:52Z</time>
      </trkpt>
      <trkpt lat="43.599" lon="6.58964">
        <ele>403</ele>
        <time>2019-11-26T14:32:58Z</time>
      </trkpt>
      <trkpt lat="43.59904" lon="6.58969">
        <ele>403</ele>
        <time>2019-11-26T14:33:01Z</time>
      </trkpt>
      <trkpt lat="43.59906" lon="6.58975">
        <ele>403.6</ele>
        <time>2019-11-26T14:33:06Z</time>
      </trkpt>
      <trkpt lat="43.59908" lon="6.58981">
        <ele>403.3</ele>
        <time>2019-11-26T14:33:11Z</time>
      </trkpt>
      <trkpt lat="43.5991" lon="6.58988">
        <ele>403.2</ele>
        <time>2019-11-26T14:33:15Z</time>
      </trkpt>
      <trkpt lat="43.59915" lon="6.58992">
        <ele>403.1</ele>
        <time>2019-11-26T14:33:18Z</time>
      </trkpt>
      <trkpt lat="43.59918" lon="6.58998">
        <ele>403.6</ele>
        <time>2019-11-26T14:33:22Z</time>
      </trkpt>
      <trkpt lat="43.59919" lon="6.59006">
        <ele>404.2</ele>
        <time>2019-11-26T14:33:26Z</time>
      </trkpt>
      <trkpt lat="43.5992" lon="6.59013">
        <ele>404.9</ele>
        <time>2019-11-26T14:33:31Z</time>
      </trkpt>
      <trkpt lat="43.59923" lon="6.5902">
        <ele>401.5</ele>
        <time>2019-11-26T14:33:33Z</time>
      </trkpt>
      <trkpt lat="43.59927" lon="6.59021">
        <ele>396.5</ele>
        <time>2019-11-26T14:34:00Z</time>
      </trkpt>
      <trkpt lat="43.59929" lon="6.59014">
        <ele>397.9</ele>
        <time>2019-11-26T14:34:07Z</time>
      </trkpt>
      <trkpt lat="43.5993" lon="6.59007">
        <ele>398.9</ele>
        <time>2019-11-26T14:34:11Z</time>
      </trkpt>
      <trkpt lat="43.59932" lon="6.59">
        <ele>397.9</ele>
        <time>2019-11-26T14:34:13Z</time>
      </trkpt>
      <trkpt lat="43.59934" lon="6.58994">
        <ele>397.4</ele>
        <time>2019-11-26T14:34:18Z</time>
      </trkpt>
      <trkpt lat="43.59933" lon="6.58988">
        <ele>398.5</ele>
        <time>2019-11-26T14:34:25Z</time>
      </trkpt>
      <trkpt lat="43.59931" lon="6.58982">
        <ele>400.1</ele>
        <time>2019-11-26T14:34:34Z</time>
      </trkpt>
      <trkpt lat="43.59929" lon="6.58976">
        <ele>401.8</ele>
        <time>2019-11-26T14:34:40Z</time>
      </trkpt>
      <trkpt lat="43.59928" lon="6.58969">
        <ele>403.4</ele>
        <time>2019-11-26T14:34:46Z</time>
      </trkpt>
      <trkpt lat="43.59926" lon="6.58963">
        <ele>404.6</ele>
        <time>2019-11-26T14:34:52Z</time>
      </trkpt>
      <trkpt lat="43.59925" lon="6.58956">
        <ele>405.3</ele>
        <time>2019-11-26T14:34:56Z</time>
      </trkpt>
      <trkpt lat="43.59925" lon="6.58949">
        <ele>406.2</ele>
        <time>2019-11-26T14:35:03Z</time>
      </trkpt>
      <trkpt lat="43.59927" lon="6.58943">
        <ele>407.2</ele>
        <time>2019-11-26T14:35:12Z</time>
      </trkpt>
      <trkpt lat="43.5993" lon="6.58948">
        <ele>407.6</ele>
        <time>2019-11-26T14:35:27Z</time>
      </trkpt>
      <trkpt lat="43.59932" lon="6.58954">
        <ele>408.5</ele>
        <time>2019-11-26T14:35:32Z</time>
      </trkpt>
      <trkpt lat="43.59933" lon="6.58961">
        <ele>409.8</ele>
        <time>2019-11-26T14:35:39Z</time>
      </trkpt>
      <trkpt lat="43.59935" lon="6.58967">
        <ele>410.3</ele>
        <time>2019-11-26T14:35:47Z</time>
      </trkpt>
      <trkpt lat="43.59938" lon="6.58972">
        <ele>410.8</ele>
        <time>2019-11-26T14:35:57Z</time>
      </trkpt>
      <trkpt lat="43.59943" lon="6.58978">
        <ele>411</ele>
        <time>2019-11-26T14:36:00Z</time>
      </trkpt>
      <trkpt lat="43.59946" lon="6.58984">
        <ele>411.3</ele>
        <time>2019-11-26T14:36:04Z</time>
      </trkpt>
      <trkpt lat="43.59947" lon="6.58991">
        <ele>411.3</ele>
        <time>2019-11-26T14:36:08Z</time>
      </trkpt>
      <trkpt lat="43.59948" lon="6.58997">
        <ele>410.9</ele>
        <time>2019-11-26T14:36:12Z</time>
      </trkpt>
      <trkpt lat="43.59949" lon="6.59005">
        <ele>410.8</ele>
        <time>2019-11-26T14:36:19Z</time>
      </trkpt>
      <trkpt lat="43.59952" lon="6.59011">
        <ele>409.4</ele>
        <time>2019-11-26T14:36:21Z</time>
      </trkpt>
      <trkpt lat="43.59955" lon="6.59016">
        <ele>408.7</ele>
        <time>2019-11-26T14:36:26Z</time>
      </trkpt>
      <trkpt lat="43.59958" lon="6.59021">
        <ele>407.7</ele>
        <time>2019-11-26T14:36:30Z</time>
      </trkpt>
      <trkpt lat="43.59962" lon="6.59026">
        <ele>407.7</ele>
        <time>2019-11-26T14:36:35Z</time>
      </trkpt>
      <trkpt lat="43.59962" lon="6.59032">
        <ele>408.4</ele>
        <time>2019-11-26T14:36:42Z</time>
      </trkpt>
      <trkpt lat="43.59964" lon="6.59038">
        <ele>409.5</ele>
        <time>2019-11-26T14:36:49Z</time>
      </trkpt>
      <trkpt lat="43.59966" lon="6.59045">
        <ele>410.4</ele>
        <time>2019-11-26T14:36:55Z</time>
      </trkpt>
      <trkpt lat="43.5997" lon="6.59048">
        <ele>410.2</ele>
        <time>2019-11-26T14:36:59Z</time>
      </trkpt>
      <trkpt lat="43.59976" lon="6.59051">
        <ele>409.8</ele>
        <time>2019-11-26T14:37:02Z</time>
      </trkpt>
      <trkpt lat="43.59976" lon="6.59057">
        <ele>410.3</ele>
        <time>2019-11-26T14:37:06Z</time>
      </trkpt>
      <trkpt lat="43.59977" lon="6.59064">
        <ele>409.5</ele>
        <time>2019-11-26T14:37:08Z</time>
      </trkpt>
      <trkpt lat="43.59976" lon="6.5907">
        <ele>409.3</ele>
        <time>2019-11-26T14:37:12Z</time>
      </trkpt>
      <trkpt lat="43.59975" lon="6.59077">
        <ele>409.7</ele>
        <time>2019-11-26T14:37:17Z</time>
      </trkpt>
      <trkpt lat="43.59975" lon="6.59084">
        <ele>410.2</ele>
        <time>2019-11-26T14:37:25Z</time>
      </trkpt>
      <trkpt lat="43.59978" lon="6.5909">
        <ele>410.3</ele>
        <time>2019-11-26T14:37:29Z</time>
      </trkpt>
      <trkpt lat="43.59979" lon="6.59097">
        <ele>410.8</ele>
        <time>2019-11-26T14:37:35Z</time>
      </trkpt>
      <trkpt lat="43.59981" lon="6.59104">
        <ele>410.7</ele>
        <time>2019-11-26T14:37:39Z</time>
      </trkpt>
      <trkpt lat="43.59983" lon="6.5911">
        <ele>410.9</ele>
        <time>2019-11-26T14:37:43Z</time>
      </trkpt>
      <trkpt lat="43.59989" lon="6.59113">
        <ele>411.2</ele>
        <time>2019-11-26T14:37:48Z</time>
      </trkpt>
      <trkpt lat="43.59993" lon="6.59119">
        <ele>410.7</ele>
        <time>2019-11-26T14:37:54Z</time>
      </trkpt>
      <trkpt lat="43.59996" lon="6.59124">
        <ele>411.4</ele>
        <time>2019-11-26T14:37:58Z</time>
      </trkpt>
      <trkpt lat="43.60001" lon="6.59129">
        <ele>411.4</ele>
        <time>2019-11-26T14:38:02Z</time>
      </trkpt>
      <trkpt lat="43.60005" lon="6.5913">
        <ele>411.5</ele>
        <time>2019-11-26T14:38:08Z</time>
      </trkpt>
      <trkpt lat="43.6001" lon="6.59134">
        <ele>409.4</ele>
        <time>2019-11-26T14:38:16Z</time>
      </trkpt>
      <trkpt lat="43.60015" lon="6.59137">
        <ele>408.1</ele>
        <time>2019-11-26T14:38:20Z</time>
      </trkpt>
      <trkpt lat="43.60019" lon="6.5914">
        <ele>408.1</ele>
        <time>2019-11-26T14:38:25Z</time>
      </trkpt>
      <trkpt lat="43.60024" lon="6.59142">
        <ele>409.1</ele>
        <time>2019-11-26T14:38:30Z</time>
      </trkpt>
      <trkpt lat="43.60029" lon="6.59143">
        <ele>409.9</ele>
        <time>2019-11-26T14:38:34Z</time>
      </trkpt>
      <trkpt lat="43.60033" lon="6.59143">
        <ele>409.9</ele>
        <time>2019-11-26T14:38:37Z</time>
      </trkpt>
      <trkpt lat="43.60037" lon="6.59146">
        <ele>409.3</ele>
        <time>2019-11-26T14:38:44Z</time>
      </trkpt>
      <trkpt lat="43.60043" lon="6.59145">
        <ele>408.6</ele>
        <time>2019-11-26T14:38:48Z</time>
      </trkpt>
      <trkpt lat="43.60048" lon="6.59144">
        <ele>408.7</ele>
        <time>2019-11-26T14:38:52Z</time>
      </trkpt>
      <trkpt lat="43.60052" lon="6.59147">
        <ele>409.6</ele>
        <time>2019-11-26T14:38:57Z</time>
      </trkpt>
      <trkpt lat="43.60057" lon="6.59149">
        <ele>409.7</ele>
        <time>2019-11-26T14:39:02Z</time>
      </trkpt>
      <trkpt lat="43.6006" lon="6.59155">
        <ele>410.1</ele>
        <time>2019-11-26T14:39:06Z</time>
      </trkpt>
      <trkpt lat="43.60063" lon="6.5916">
        <ele>411.2</ele>
        <time>2019-11-26T14:39:12Z</time>
      </trkpt>
      <trkpt lat="43.60065" lon="6.59166">
        <ele>411.8</ele>
        <time>2019-11-26T14:39:16Z</time>
      </trkpt>
      <trkpt lat="43.60067" lon="6.59172">
        <ele>412.6</ele>
        <time>2019-11-26T14:39:23Z</time>
      </trkpt>
      <trkpt lat="43.60065" lon="6.59178">
        <ele>414.6</ele>
        <time>2019-11-26T14:39:29Z</time>
      </trkpt>
      <trkpt lat="43.60063" lon="6.59184">
        <ele>416.6</ele>
        <time>2019-11-26T14:39:34Z</time>
      </trkpt>
      <trkpt lat="43.60062" lon="6.5919">
        <ele>418.1</ele>
        <time>2019-11-26T14:39:39Z</time>
      </trkpt>
      <trkpt lat="43.60059" lon="6.59196">
        <ele>418.6</ele>
        <time>2019-11-26T14:39:44Z</time>
      </trkpt>
      <trkpt lat="43.60055" lon="6.59202">
        <ele>419</ele>
        <time>2019-11-26T14:39:48Z</time>
      </trkpt>
      <trkpt lat="43.60051" lon="6.59205">
        <ele>419.2</ele>
        <time>2019-11-26T14:39:54Z</time>
      </trkpt>
      <trkpt lat="43.60049" lon="6.59212">
        <ele>419.7</ele>
        <time>2019-11-26T14:39:59Z</time>
      </trkpt>
      <trkpt lat="43.60047" lon="6.59219">
        <ele>420.1</ele>
        <time>2019-11-26T14:40:04Z</time>
      </trkpt>
      <trkpt lat="43.60044" lon="6.59225">
        <ele>420.3</ele>
        <time>2019-11-26T14:40:11Z</time>
      </trkpt>
      <trkpt lat="43.60041" lon="6.59231">
        <ele>420.5</ele>
        <time>2019-11-26T14:40:16Z</time>
      </trkpt>
      <trkpt lat="43.6004" lon="6.59237">
        <ele>420.6</ele>
        <time>2019-11-26T14:40:21Z</time>
      </trkpt>
      <trkpt lat="43.60039" lon="6.59245">
        <ele>420.6</ele>
        <time>2019-11-26T14:40:26Z</time>
      </trkpt>
      <trkpt lat="43.60038" lon="6.59251">
        <ele>421.2</ele>
        <time>2019-11-26T14:40:30Z</time>
      </trkpt>
      <trkpt lat="43.60037" lon="6.59258">
        <ele>421.8</ele>
        <time>2019-11-26T14:40:34Z</time>
      </trkpt>
      <trkpt lat="43.60038" lon="6.59265">
        <ele>422.6</ele>
        <time>2019-11-26T14:40:39Z</time>
      </trkpt>
      <trkpt lat="43.60037" lon="6.59272">
        <ele>422.9</ele>
        <time>2019-11-26T14:40:44Z</time>
      </trkpt>
      <trkpt lat="43.60036" lon="6.59278">
        <ele>423.6</ele>
        <time>2019-11-26T14:40:48Z</time>
      </trkpt>
      <trkpt lat="43.60034" lon="6.59285">
        <ele>424.8</ele>
        <time>2019-11-26T14:40:53Z</time>
      </trkpt>
      <trkpt lat="43.60035" lon="6.59291">
        <ele>425</ele>
        <time>2019-11-26T14:40:57Z</time>
      </trkpt>
      <trkpt lat="43.60034" lon="6.59299">
        <ele>424.4</ele>
        <time>2019-11-26T14:41:03Z</time>
      </trkpt>
      <trkpt lat="43.60031" lon="6.59305">
        <ele>424.5</ele>
        <time>2019-11-26T14:41:09Z</time>
      </trkpt>
      <trkpt lat="43.60031" lon="6.59312">
        <ele>424.3</ele>
        <time>2019-11-26T14:41:13Z</time>
      </trkpt>
      <trkpt lat="43.60027" lon="6.59317">
        <ele>424.1</ele>
        <time>2019-11-26T14:41:18Z</time>
      </trkpt>
      <trkpt lat="43.60026" lon="6.59324">
        <ele>423.9</ele>
        <time>2019-11-26T14:41:25Z</time>
      </trkpt>
      <trkpt lat="43.60022" lon="6.59328">
        <ele>424.1</ele>
        <time>2019-11-26T14:41:31Z</time>
      </trkpt>
      <trkpt lat="43.60022" lon="6.59334">
        <ele>424.3</ele>
        <time>2019-11-26T14:41:38Z</time>
      </trkpt>
      <trkpt lat="43.60024" lon="6.5934">
        <ele>424.7</ele>
        <time>2019-11-26T14:41:42Z</time>
      </trkpt>
      <trkpt lat="43.60024" lon="6.59347">
        <ele>425.2</ele>
        <time>2019-11-26T14:41:47Z</time>
      </trkpt>
      <trkpt lat="43.60024" lon="6.59354">
        <ele>425.3</ele>
        <time>2019-11-26T14:41:51Z</time>
      </trkpt>
      <trkpt lat="43.60023" lon="6.59361">
        <ele>425</ele>
        <time>2019-11-26T14:41:58Z</time>
      </trkpt>
      <trkpt lat="43.6002" lon="6.59366">
        <ele>424.3</ele>
        <time>2019-11-26T14:42:04Z</time>
      </trkpt>
      <trkpt lat="43.60018" lon="6.59372">
        <ele>424</ele>
        <time>2019-11-26T14:42:09Z</time>
      </trkpt>
      <trkpt lat="43.60017" lon="6.59379">
        <ele>423.8</ele>
        <time>2019-11-26T14:42:14Z</time>
      </trkpt>
      <trkpt lat="43.60015" lon="6.59385">
        <ele>423.1</ele>
        <time>2019-11-26T14:42:19Z</time>
      </trkpt>
      <trkpt lat="43.60012" lon="6.59392">
        <ele>422.6</ele>
        <time>2019-11-26T14:42:23Z</time>
      </trkpt>
      <trkpt lat="43.60009" lon="6.59397">
        <ele>422.3</ele>
        <time>2019-11-26T14:42:27Z</time>
      </trkpt>
      <trkpt lat="43.60007" lon="6.59403">
        <ele>422</ele>
        <time>2019-11-26T14:42:32Z</time>
      </trkpt>
      <trkpt lat="43.60004" lon="6.59408">
        <ele>421.7</ele>
        <time>2019-11-26T14:42:39Z</time>
      </trkpt>
      <trkpt lat="43.60002" lon="6.59416">
        <ele>421.3</ele>
        <time>2019-11-26T14:42:45Z</time>
      </trkpt>
      <trkpt lat="43.59998" lon="6.59421">
        <ele>420.9</ele>
        <time>2019-11-26T14:42:49Z</time>
      </trkpt>
      <trkpt lat="43.59993" lon="6.59424">
        <ele>420.7</ele>
        <time>2019-11-26T14:42:54Z</time>
      </trkpt>
      <trkpt lat="43.5999" lon="6.59429">
        <ele>420.9</ele>
        <time>2019-11-26T14:42:58Z</time>
      </trkpt>
      <trkpt lat="43.59985" lon="6.59431">
        <ele>421.4</ele>
        <time>2019-11-26T14:43:02Z</time>
      </trkpt>
      <trkpt lat="43.59981" lon="6.59433">
        <ele>422.2</ele>
        <time>2019-11-26T14:43:07Z</time>
      </trkpt>
      <trkpt lat="43.59977" lon="6.59433">
        <ele>421.2</ele>
        <time>2019-11-26T14:43:12Z</time>
      </trkpt>
      <trkpt lat="43.59972" lon="6.59434">
        <ele>420.3</ele>
        <time>2019-11-26T14:43:17Z</time>
      </trkpt>
      <trkpt lat="43.59969" lon="6.59439">
        <ele>420.1</ele>
        <time>2019-11-26T14:43:20Z</time>
      </trkpt>
      <trkpt lat="43.59967" lon="6.59446">
        <ele>420</ele>
        <time>2019-11-26T14:43:23Z</time>
      </trkpt>
      <trkpt lat="43.59965" lon="6.59454">
        <ele>420.3</ele>
        <time>2019-11-26T14:43:27Z</time>
      </trkpt>
      <trkpt lat="43.59962" lon="6.5946">
        <ele>420.2</ele>
        <time>2019-11-26T14:43:30Z</time>
      </trkpt>
      <trkpt lat="43.59957" lon="6.59465">
        <ele>419.6</ele>
        <time>2019-11-26T14:43:33Z</time>
      </trkpt>
      <trkpt lat="43.59954" lon="6.5947">
        <ele>418.8</ele>
        <time>2019-11-26T14:43:39Z</time>
      </trkpt>
      <trkpt lat="43.59953" lon="6.59477">
        <ele>418.2</ele>
        <time>2019-11-26T14:43:45Z</time>
      </trkpt>
      <trkpt lat="43.59949" lon="6.59481">
        <ele>418.8</ele>
        <time>2019-11-26T14:43:52Z</time>
      </trkpt>
      <trkpt lat="43.59945" lon="6.59484">
        <ele>420</ele>
        <time>2019-11-26T14:43:58Z</time>
      </trkpt>
      <trkpt lat="43.59942" lon="6.59489">
        <ele>419.7</ele>
        <time>2019-11-26T14:44:02Z</time>
      </trkpt>
      <trkpt lat="43.59939" lon="6.59494">
        <ele>419.3</ele>
        <time>2019-11-26T14:44:05Z</time>
      </trkpt>
      <trkpt lat="43.59937" lon="6.595">
        <ele>419.5</ele>
        <time>2019-11-26T14:44:11Z</time>
      </trkpt>
      <trkpt lat="43.59933" lon="6.59505">
        <ele>419.5</ele>
        <time>2019-11-26T14:44:18Z</time>
      </trkpt>
      <trkpt lat="43.5993" lon="6.59508">
        <ele>418.8</ele>
        <time>2019-11-26T14:44:23Z</time>
      </trkpt>
      <trkpt lat="43.59929" lon="6.59515">
        <ele>417.1</ele>
        <time>2019-11-26T14:44:29Z</time>
      </trkpt>
      <trkpt lat="43.59926" lon="6.59521">
        <ele>417.5</ele>
        <time>2019-11-26T14:44:33Z</time>
      </trkpt>
      <trkpt lat="43.59923" lon="6.59527">
        <ele>418.6</ele>
        <time>2019-11-26T14:44:37Z</time>
      </trkpt>
      <trkpt lat="43.59921" lon="6.59533">
        <ele>419.8</ele>
        <time>2019-11-26T14:44:42Z</time>
      </trkpt>
      <trkpt lat="43.59921" lon="6.5954">
        <ele>420.9</ele>
        <time>2019-11-26T14:44:46Z</time>
      </trkpt>
      <trkpt lat="43.59919" lon="6.59546">
        <ele>422.1</ele>
        <time>2019-11-26T14:44:51Z</time>
      </trkpt>
      <trkpt lat="43.59918" lon="6.59552">
        <ele>421.9</ele>
        <time>2019-11-26T14:44:57Z</time>
      </trkpt>
      <trkpt lat="43.59917" lon="6.59559">
        <ele>421.4</ele>
        <time>2019-11-26T14:45:04Z</time>
      </trkpt>
      <trkpt lat="43.59917" lon="6.59566">
        <ele>422.2</ele>
        <time>2019-11-26T14:45:09Z</time>
      </trkpt>
      <trkpt lat="43.59917" lon="6.59572">
        <ele>422.6</ele>
        <time>2019-11-26T14:45:13Z</time>
      </trkpt>
      <trkpt lat="43.59918" lon="6.59578">
        <ele>422.7</ele>
        <time>2019-11-26T14:45:19Z</time>
      </trkpt>
      <trkpt lat="43.59919" lon="6.59585">
        <ele>422.5</ele>
        <time>2019-11-26T14:45:26Z</time>
      </trkpt>
      <trkpt lat="43.59922" lon="6.59591">
        <ele>421.6</ele>
        <time>2019-11-26T14:45:29Z</time>
      </trkpt>
      <trkpt lat="43.59924" lon="6.59597">
        <ele>420.8</ele>
        <time>2019-11-26T14:45:36Z</time>
      </trkpt>
      <trkpt lat="43.59927" lon="6.59604">
        <ele>419.3</ele>
        <time>2019-11-26T14:45:43Z</time>
      </trkpt>
      <trkpt lat="43.59928" lon="6.5961">
        <ele>418.9</ele>
        <time>2019-11-26T14:45:48Z</time>
      </trkpt>
      <trkpt lat="43.59929" lon="6.59616">
        <ele>419.3</ele>
        <time>2019-11-26T14:45:54Z</time>
      </trkpt>
      <trkpt lat="43.5993" lon="6.59623">
        <ele>420.2</ele>
        <time>2019-11-26T14:45:59Z</time>
      </trkpt>
      <trkpt lat="43.59931" lon="6.5963">
        <ele>418</ele>
        <time>2019-11-26T14:46:04Z</time>
      </trkpt>
      <trkpt lat="43.59934" lon="6.59636">
        <ele>416.1</ele>
        <time>2019-11-26T14:46:08Z</time>
      </trkpt>
      <trkpt lat="43.59937" lon="6.59642">
        <ele>414.2</ele>
        <time>2019-11-26T14:46:15Z</time>
      </trkpt>
      <trkpt lat="43.59939" lon="6.59649">
        <ele>414.1</ele>
        <time>2019-11-26T14:46:19Z</time>
      </trkpt>
      <trkpt lat="43.59941" lon="6.59656">
        <ele>414.8</ele>
        <time>2019-11-26T14:46:24Z</time>
      </trkpt>
      <trkpt lat="43.59944" lon="6.5966">
        <ele>413.2</ele>
        <time>2019-11-26T14:46:32Z</time>
      </trkpt>
      <trkpt lat="43.59949" lon="6.59665">
        <ele>413.1</ele>
        <time>2019-11-26T14:46:37Z</time>
      </trkpt>
      <trkpt lat="43.59954" lon="6.59668">
        <ele>413.4</ele>
        <time>2019-11-26T14:46:43Z</time>
      </trkpt>
      <trkpt lat="43.59958" lon="6.59669">
        <ele>413.7</ele>
        <time>2019-11-26T14:46:47Z</time>
      </trkpt>
      <trkpt lat="43.59963" lon="6.5967">
        <ele>414.2</ele>
        <time>2019-11-26T14:46:52Z</time>
      </trkpt>
      <trkpt lat="43.59968" lon="6.59673">
        <ele>414.9</ele>
        <time>2019-11-26T14:46:58Z</time>
      </trkpt>
      <trkpt lat="43.59973" lon="6.59675">
        <ele>415.4</ele>
        <time>2019-11-26T14:47:04Z</time>
      </trkpt>
      <trkpt lat="43.59978" lon="6.59678">
        <ele>415.4</ele>
        <time>2019-11-26T14:47:08Z</time>
      </trkpt>
      <trkpt lat="43.59982" lon="6.59683">
        <ele>415.4</ele>
        <time>2019-11-26T14:47:12Z</time>
      </trkpt>
      <trkpt lat="43.59987" lon="6.59685">
        <ele>414.9</ele>
        <time>2019-11-26T14:47:14Z</time>
      </trkpt>
      <trkpt lat="43.59989" lon="6.5969">
        <ele>413.2</ele>
        <time>2019-11-26T14:47:27Z</time>
      </trkpt>
      <trkpt lat="43.59991" lon="6.59696">
        <ele>413.4</ele>
        <time>2019-11-26T14:47:31Z</time>
      </trkpt>
      <trkpt lat="43.59996" lon="6.59697">
        <ele>415.1</ele>
        <time>2019-11-26T14:47:49Z</time>
      </trkpt>
      <trkpt lat="43.59994" lon="6.5969">
        <ele>416.9</ele>
        <time>2019-11-26T14:47:55Z</time>
      </trkpt>
      <trkpt lat="43.59992" lon="6.59683">
        <ele>417.9</ele>
        <time>2019-11-26T14:48:00Z</time>
      </trkpt>
      <trkpt lat="43.59989" lon="6.59678">
        <ele>418.3</ele>
        <time>2019-11-26T14:48:05Z</time>
      </trkpt>
      <trkpt lat="43.59988" lon="6.59669">
        <ele>417.9</ele>
        <time>2019-11-26T14:48:09Z</time>
      </trkpt>
      <trkpt lat="43.59986" lon="6.59656">
        <ele>419.8</ele>
        <time>2019-11-26T14:48:23Z</time>
      </trkpt>
      <trkpt lat="43.59982" lon="6.59654">
        <ele>420.5</ele>
        <time>2019-11-26T14:48:30Z</time>
      </trkpt>
      <trkpt lat="43.59977" lon="6.59652">
        <ele>420.5</ele>
        <time>2019-11-26T14:48:37Z</time>
      </trkpt>
      <trkpt lat="43.59972" lon="6.5965">
        <ele>421.4</ele>
        <time>2019-11-26T14:48:42Z</time>
      </trkpt>
      <trkpt lat="43.59967" lon="6.59649">
        <ele>421.1</ele>
        <time>2019-11-26T14:48:47Z</time>
      </trkpt>
      <trkpt lat="43.59964" lon="6.59644">
        <ele>421.1</ele>
        <time>2019-11-26T14:48:51Z</time>
      </trkpt>
      <trkpt lat="43.59965" lon="6.59638">
        <ele>422.6</ele>
        <time>2019-11-26T14:49:00Z</time>
      </trkpt>
      <trkpt lat="43.59969" lon="6.59633">
        <ele>422.8</ele>
        <time>2019-11-26T14:49:04Z</time>
      </trkpt>
      <trkpt lat="43.59973" lon="6.59636">
        <ele>422.2</ele>
        <time>2019-11-26T14:49:13Z</time>
      </trkpt>
      <trkpt lat="43.59979" lon="6.59636">
        <ele>421.1</ele>
        <time>2019-11-26T14:49:21Z</time>
      </trkpt>
      <trkpt lat="43.59982" lon="6.5964">
        <ele>421</ele>
        <time>2019-11-26T14:49:25Z</time>
      </trkpt>
      <trkpt lat="43.59986" lon="6.59643">
        <ele>421.4</ele>
        <time>2019-11-26T14:49:31Z</time>
      </trkpt>
      <trkpt lat="43.5999" lon="6.59646">
        <ele>420.5</ele>
        <time>2019-11-26T14:49:46Z</time>
      </trkpt>
      <trkpt lat="43.59996" lon="6.59647">
        <ele>420.4</ele>
        <time>2019-11-26T14:49:51Z</time>
      </trkpt>
      <trkpt lat="43.60002" lon="6.59646">
        <ele>420.2</ele>
        <time>2019-11-26T14:49:54Z</time>
      </trkpt>
      <trkpt lat="43.60004" lon="6.59652">
        <ele>420</ele>
        <time>2019-11-26T14:49:59Z</time>
      </trkpt>
      <trkpt lat="43.60007" lon="6.59657">
        <ele>420.6</ele>
        <time>2019-11-26T14:50:06Z</time>
      </trkpt>
      <trkpt lat="43.60011" lon="6.59662">
        <ele>421.4</ele>
        <time>2019-11-26T14:50:10Z</time>
      </trkpt>
      <trkpt lat="43.60014" lon="6.59667">
        <ele>423.5</ele>
        <time>2019-11-26T14:50:25Z</time>
      </trkpt>
      <trkpt lat="43.60017" lon="6.59671">
        <ele>425.1</ele>
        <time>2019-11-26T14:50:30Z</time>
      </trkpt>
      <trkpt lat="43.60019" lon="6.59677">
        <ele>426.6</ele>
        <time>2019-11-26T14:50:38Z</time>
      </trkpt>
      <trkpt lat="43.60022" lon="6.59682">
        <ele>428</ele>
        <time>2019-11-26T14:50:44Z</time>
      </trkpt>
      <trkpt lat="43.60025" lon="6.59687">
        <ele>429.9</ele>
        <time>2019-11-26T14:50:55Z</time>
      </trkpt>
      <trkpt lat="43.6003" lon="6.59687">
        <ele>429.9</ele>
        <time>2019-11-26T14:51:01Z</time>
      </trkpt>
      <trkpt lat="43.60034" lon="6.59692">
        <ele>431.7</ele>
        <time>2019-11-26T14:51:12Z</time>
      </trkpt>
      <trkpt lat="43.60036" lon="6.59698">
        <ele>432.9</ele>
        <time>2019-11-26T14:51:19Z</time>
      </trkpt>
      <trkpt lat="43.6004" lon="6.59702">
        <ele>432.9</ele>
        <time>2019-11-26T14:51:23Z</time>
      </trkpt>
      <trkpt lat="43.60044" lon="6.59706">
        <ele>433.2</ele>
        <time>2019-11-26T14:51:28Z</time>
      </trkpt>
      <trkpt lat="43.60047" lon="6.59713">
        <ele>432.4</ele>
        <time>2019-11-26T14:51:34Z</time>
      </trkpt>
      <trkpt lat="43.60047" lon="6.59719">
        <ele>428.7</ele>
        <time>2019-11-26T14:51:39Z</time>
      </trkpt>
      <trkpt lat="43.60052" lon="6.59718">
        <ele>427.4</ele>
        <time>2019-11-26T14:51:46Z</time>
      </trkpt>
      <trkpt lat="43.60056" lon="6.59722">
        <ele>429.3</ele>
        <time>2019-11-26T14:51:56Z</time>
      </trkpt>
      <trkpt lat="43.60061" lon="6.59723">
        <ele>430.1</ele>
        <time>2019-11-26T14:52:00Z</time>
      </trkpt>
      <trkpt lat="43.60065" lon="6.59725">
        <ele>432.1</ele>
        <time>2019-11-26T14:52:07Z</time>
      </trkpt>
      <trkpt lat="43.6007" lon="6.59728">
        <ele>434.6</ele>
        <time>2019-11-26T14:52:14Z</time>
      </trkpt>
      <trkpt lat="43.60074" lon="6.59731">
        <ele>435.8</ele>
        <time>2019-11-26T14:52:18Z</time>
      </trkpt>
      <trkpt lat="43.60079" lon="6.59733">
        <ele>437</ele>
        <time>2019-11-26T14:52:23Z</time>
      </trkpt>
      <trkpt lat="43.60082" lon="6.59738">
        <ele>439</ele>
        <time>2019-11-26T14:52:32Z</time>
      </trkpt>
      <trkpt lat="43.60084" lon="6.59746">
        <ele>439.4</ele>
        <time>2019-11-26T14:52:37Z</time>
      </trkpt>
      <trkpt lat="43.60087" lon="6.59753">
        <ele>439.4</ele>
        <time>2019-11-26T14:52:42Z</time>
      </trkpt>
      <trkpt lat="43.60087" lon="6.59759">
        <ele>439.9</ele>
        <time>2019-11-26T14:52:49Z</time>
      </trkpt>
      <trkpt lat="43.60087" lon="6.59765">
        <ele>439.8</ele>
        <time>2019-11-26T14:52:55Z</time>
      </trkpt>
      <trkpt lat="43.60087" lon="6.59772">
        <ele>439.9</ele>
        <time>2019-11-26T14:53:01Z</time>
      </trkpt>
      <trkpt lat="43.60086" lon="6.59779">
        <ele>439.2</ele>
        <time>2019-11-26T14:53:09Z</time>
      </trkpt>
      <trkpt lat="43.60087" lon="6.59786">
        <ele>439.2</ele>
        <time>2019-11-26T14:53:13Z</time>
      </trkpt>
      <trkpt lat="43.60088" lon="6.59793">
        <ele>439.2</ele>
        <time>2019-11-26T14:53:17Z</time>
      </trkpt>
      <trkpt lat="43.60089" lon="6.598">
        <ele>439.5</ele>
        <time>2019-11-26T14:53:21Z</time>
      </trkpt>
      <trkpt lat="43.60089" lon="6.59807">
        <ele>439.9</ele>
        <time>2019-11-26T14:53:27Z</time>
      </trkpt>
      <trkpt lat="43.60089" lon="6.59813">
        <ele>440.5</ele>
        <time>2019-11-26T14:53:32Z</time>
      </trkpt>
      <trkpt lat="43.60091" lon="6.5982">
        <ele>440.5</ele>
        <time>2019-11-26T14:53:37Z</time>
      </trkpt>
      <trkpt lat="43.60091" lon="6.59827">
        <ele>440.1</ele>
        <time>2019-11-26T14:53:42Z</time>
      </trkpt>
      <trkpt lat="43.60092" lon="6.59833">
        <ele>440.1</ele>
        <time>2019-11-26T14:53:48Z</time>
      </trkpt>
      <trkpt lat="43.60096" lon="6.59838">
        <ele>440.4</ele>
        <time>2019-11-26T14:53:53Z</time>
      </trkpt>
      <trkpt lat="43.60099" lon="6.59844">
        <ele>440</ele>
        <time>2019-11-26T14:54:00Z</time>
      </trkpt>
      <trkpt lat="43.60104" lon="6.59847">
        <ele>440.1</ele>
        <time>2019-11-26T14:54:05Z</time>
      </trkpt>
      <trkpt lat="43.60107" lon="6.59851">
        <ele>440.3</ele>
        <time>2019-11-26T14:54:10Z</time>
      </trkpt>
      <trkpt lat="43.60111" lon="6.59856">
        <ele>441.3</ele>
        <time>2019-11-26T14:54:18Z</time>
      </trkpt>
      <trkpt lat="43.60114" lon="6.59862">
        <ele>442.2</ele>
        <time>2019-11-26T14:54:23Z</time>
      </trkpt>
      <trkpt lat="43.60118" lon="6.59867">
        <ele>443.1</ele>
        <time>2019-11-26T14:54:28Z</time>
      </trkpt>
      <trkpt lat="43.60123" lon="6.5987">
        <ele>444.6</ele>
        <time>2019-11-26T14:54:37Z</time>
      </trkpt>
      <trkpt lat="43.60125" lon="6.59876">
        <ele>444.7</ele>
        <time>2019-11-26T14:54:45Z</time>
      </trkpt>
      <trkpt lat="43.6013" lon="6.5988">
        <ele>445.1</ele>
        <time>2019-11-26T14:54:50Z</time>
      </trkpt>
      <trkpt lat="43.60135" lon="6.59881">
        <ele>445</ele>
        <time>2019-11-26T14:54:54Z</time>
      </trkpt>
      <trkpt lat="43.6014" lon="6.59885">
        <ele>444.5</ele>
        <time>2019-11-26T14:54:58Z</time>
      </trkpt>
      <trkpt lat="43.60144" lon="6.59889">
        <ele>443.9</ele>
        <time>2019-11-26T14:55:01Z</time>
      </trkpt>
      <trkpt lat="43.60148" lon="6.59896">
        <ele>443.3</ele>
        <time>2019-11-26T14:55:07Z</time>
      </trkpt>
      <trkpt lat="43.60152" lon="6.59899">
        <ele>442.3</ele>
        <time>2019-11-26T14:55:15Z</time>
      </trkpt>
      <trkpt lat="43.60157" lon="6.59902">
        <ele>442.5</ele>
        <time>2019-11-26T14:55:24Z</time>
      </trkpt>
      <trkpt lat="43.60157" lon="6.59908">
        <ele>442.5</ele>
        <time>2019-11-26T14:55:38Z</time>
      </trkpt>
      <trkpt lat="43.60161" lon="6.59914">
        <ele>439.3</ele>
        <time>2019-11-26T14:55:50Z</time>
      </trkpt>
      <trkpt lat="43.60163" lon="6.59921">
        <ele>439.4</ele>
        <time>2019-11-26T14:55:55Z</time>
      </trkpt>
      <trkpt lat="43.60159" lon="6.59925">
        <ele>436.8</ele>
        <time>2019-11-26T14:56:06Z</time>
      </trkpt>
      <trkpt lat="43.60164" lon="6.59927">
        <ele>437.2</ele>
        <time>2019-11-26T14:56:31Z</time>
      </trkpt>
      <trkpt lat="43.60168" lon="6.59931">
        <ele>438.5</ele>
        <time>2019-11-26T14:56:36Z</time>
      </trkpt>
      <trkpt lat="43.60172" lon="6.59936">
        <ele>439.4</ele>
        <time>2019-11-26T14:56:41Z</time>
      </trkpt>
      <trkpt lat="43.60173" lon="6.59942">
        <ele>442.2</ele>
        <time>2019-11-26T14:56:50Z</time>
      </trkpt>
      <trkpt lat="43.60174" lon="6.59949">
        <ele>444</ele>
        <time>2019-11-26T14:57:04Z</time>
      </trkpt>
      <trkpt lat="43.60178" lon="6.59951">
        <ele>444.2</ele>
        <time>2019-11-26T14:57:15Z</time>
      </trkpt>
      <trkpt lat="43.60183" lon="6.59948">
        <ele>441.9</ele>
        <time>2019-11-26T14:57:29Z</time>
      </trkpt>
      <trkpt lat="43.60186" lon="6.59943">
        <ele>442.2</ele>
        <time>2019-11-26T14:58:02Z</time>
      </trkpt>
      <trkpt lat="43.60188" lon="6.59936">
        <ele>441.6</ele>
        <time>2019-11-26T14:58:06Z</time>
      </trkpt>
      <trkpt lat="43.60189" lon="6.5993">
        <ele>441.9</ele>
        <time>2019-11-26T14:58:14Z</time>
      </trkpt>
      <trkpt lat="43.60193" lon="6.59927">
        <ele>443</ele>
        <time>2019-11-26T14:58:22Z</time>
      </trkpt>
      <trkpt lat="43.60198" lon="6.59926">
        <ele>443.3</ele>
        <time>2019-11-26T14:58:29Z</time>
      </trkpt>
      <trkpt lat="43.60203" lon="6.59925">
        <ele>443.5</ele>
        <time>2019-11-26T14:58:37Z</time>
      </trkpt>
      <trkpt lat="43.60207" lon="6.59924">
        <ele>443.9</ele>
        <time>2019-11-26T14:58:41Z</time>
      </trkpt>
      <trkpt lat="43.60212" lon="6.59921">
        <ele>444.2</ele>
        <time>2019-11-26T14:58:45Z</time>
      </trkpt>
      <trkpt lat="43.60215" lon="6.59916">
        <ele>442.6</ele>
        <time>2019-11-26T14:58:52Z</time>
      </trkpt>
      <trkpt lat="43.60219" lon="6.59911">
        <ele>441.8</ele>
        <time>2019-11-26T14:58:55Z</time>
      </trkpt>
      <trkpt lat="43.60223" lon="6.59908">
        <ele>441.6</ele>
        <time>2019-11-26T14:58:59Z</time>
      </trkpt>
      <trkpt lat="43.60222" lon="6.59902">
        <ele>441.9</ele>
        <time>2019-11-26T14:59:03Z</time>
      </trkpt>
      <trkpt lat="43.60219" lon="6.59895">
        <ele>442.7</ele>
        <time>2019-11-26T14:59:07Z</time>
      </trkpt>
      <trkpt lat="43.60215" lon="6.59891">
        <ele>443.8</ele>
        <time>2019-11-26T14:59:10Z</time>
      </trkpt>
      <trkpt lat="43.60208" lon="6.59888">
        <ele>444.1</ele>
        <time>2019-11-26T14:59:13Z</time>
      </trkpt>
      <trkpt lat="43.60204" lon="6.59887">
        <ele>444.5</ele>
        <time>2019-11-26T14:59:16Z</time>
      </trkpt>
      <trkpt lat="43.60201" lon="6.5988">
        <ele>445</ele>
        <time>2019-11-26T14:59:22Z</time>
      </trkpt>
      <trkpt lat="43.60202" lon="6.59873">
        <ele>444.6</ele>
        <time>2019-11-26T14:59:25Z</time>
      </trkpt>
      <trkpt lat="43.60202" lon="6.59866">
        <ele>443.9</ele>
        <time>2019-11-26T14:59:30Z</time>
      </trkpt>
      <trkpt lat="43.60198" lon="6.59863">
        <ele>444.6</ele>
        <time>2019-11-26T14:59:42Z</time>
      </trkpt>
      <trkpt lat="43.60195" lon="6.59859">
        <ele>445.7</ele>
        <time>2019-11-26T14:59:47Z</time>
      </trkpt>
      <trkpt lat="43.60191" lon="6.59856">
        <ele>447</ele>
        <time>2019-11-26T14:59:51Z</time>
      </trkpt>
      <trkpt lat="43.60186" lon="6.59852">
        <ele>447.8</ele>
        <time>2019-11-26T14:59:57Z</time>
      </trkpt>
      <trkpt lat="43.60183" lon="6.59848">
        <ele>447.7</ele>
        <time>2019-11-26T15:00:01Z</time>
      </trkpt>
      <trkpt lat="43.60179" lon="6.59843">
        <ele>447.5</ele>
        <time>2019-11-26T15:00:05Z</time>
      </trkpt>
      <trkpt lat="43.60178" lon="6.59837">
        <ele>448.5</ele>
        <time>2019-11-26T15:00:16Z</time>
      </trkpt>
      <trkpt lat="43.60182" lon="6.59831">
        <ele>448.6</ele>
        <time>2019-11-26T15:00:29Z</time>
      </trkpt>
      <trkpt lat="43.60187" lon="6.59828">
        <ele>448.5</ele>
        <time>2019-11-26T15:00:35Z</time>
      </trkpt>
      <trkpt lat="43.60192" lon="6.59826">
        <ele>448.9</ele>
        <time>2019-11-26T15:00:40Z</time>
      </trkpt>
      <trkpt lat="43.60196" lon="6.59821">
        <ele>449.5</ele>
        <time>2019-11-26T15:00:52Z</time>
      </trkpt>
      <trkpt lat="43.602" lon="6.59817">
        <ele>449.7</ele>
        <time>2019-11-26T15:00:56Z</time>
      </trkpt>
      <trkpt lat="43.60206" lon="6.59814">
        <ele>450.1</ele>
        <time>2019-11-26T15:00:59Z</time>
      </trkpt>
      <trkpt lat="43.60209" lon="6.59809">
        <ele>450.1</ele>
        <time>2019-11-26T15:01:04Z</time>
      </trkpt>
      <trkpt lat="43.60212" lon="6.59805">
        <ele>450</ele>
        <time>2019-11-26T15:01:05Z</time>
      </trkpt>
      <trkpt lat="43.60216" lon="6.59799">
        <ele>450.2</ele>
        <time>2019-11-26T15:01:09Z</time>
      </trkpt>
      <trkpt lat="43.60219" lon="6.59795">
        <ele>449.7</ele>
        <time>2019-11-26T15:01:16Z</time>
      </trkpt>
      <trkpt lat="43.6022" lon="6.59787">
        <ele>449.7</ele>
        <time>2019-11-26T15:01:20Z</time>
      </trkpt>
      <trkpt lat="43.6022" lon="6.59781">
        <ele>449.9</ele>
        <time>2019-11-26T15:01:25Z</time>
      </trkpt>
      <trkpt lat="43.6022" lon="6.59773">
        <ele>451.1</ele>
        <time>2019-11-26T15:01:35Z</time>
      </trkpt>
      <trkpt lat="43.60219" lon="6.59767">
        <ele>451.1</ele>
        <time>2019-11-26T15:01:38Z</time>
      </trkpt>
      <trkpt lat="43.60223" lon="6.59762">
        <ele>452.5</ele>
        <time>2019-11-26T15:01:43Z</time>
      </trkpt>
      <trkpt lat="43.60226" lon="6.59757">
        <ele>455.3</ele>
        <time>2019-11-26T15:01:55Z</time>
      </trkpt>
      <trkpt lat="43.60225" lon="6.5975">
        <ele>457.8</ele>
        <time>2019-11-26T15:02:06Z</time>
      </trkpt>
      <trkpt lat="43.60225" lon="6.59744">
        <ele>459.5</ele>
        <time>2019-11-26T15:02:11Z</time>
      </trkpt>
      <trkpt lat="43.60224" lon="6.59735">
        <ele>459.8</ele>
        <time>2019-11-26T15:02:17Z</time>
      </trkpt>
      <trkpt lat="43.60224" lon="6.59728">
        <ele>460.1</ele>
        <time>2019-11-26T15:02:22Z</time>
      </trkpt>
      <trkpt lat="43.60222" lon="6.59722">
        <ele>460.8</ele>
        <time>2019-11-26T15:02:31Z</time>
      </trkpt>
      <trkpt lat="43.60222" lon="6.59716">
        <ele>462.3</ele>
        <time>2019-11-26T15:02:36Z</time>
      </trkpt>
      <trkpt lat="43.60223" lon="6.59709">
        <ele>464.5</ele>
        <time>2019-11-26T15:02:46Z</time>
      </trkpt>
      <trkpt lat="43.60223" lon="6.59701">
        <ele>465.7</ele>
        <time>2019-11-26T15:02:52Z</time>
      </trkpt>
      <trkpt lat="43.60224" lon="6.59695">
        <ele>466.6</ele>
        <time>2019-11-26T15:02:57Z</time>
      </trkpt>
      <trkpt lat="43.60225" lon="6.59689">
        <ele>468.8</ele>
        <time>2019-11-26T15:03:11Z</time>
      </trkpt>
      <trkpt lat="43.60225" lon="6.5968">
        <ele>470.1</ele>
        <time>2019-11-26T15:03:16Z</time>
      </trkpt>
      <trkpt lat="43.60225" lon="6.59672">
        <ele>469.4</ele>
        <time>2019-11-26T15:03:20Z</time>
      </trkpt>
      <trkpt lat="43.60224" lon="6.59666">
        <ele>466.6</ele>
        <time>2019-11-26T15:03:22Z</time>
      </trkpt>
      <trkpt lat="43.60225" lon="6.59659">
        <ele>465.5</ele>
        <time>2019-11-26T15:03:30Z</time>
      </trkpt>
      <trkpt lat="43.60226" lon="6.59651">
        <ele>467</ele>
        <time>2019-11-26T15:03:34Z</time>
      </trkpt>
      <trkpt lat="43.60227" lon="6.59645">
        <ele>469.3</ele>
        <time>2019-11-26T15:03:43Z</time>
      </trkpt>
      <trkpt lat="43.60229" lon="6.59638">
        <ele>470.1</ele>
        <time>2019-11-26T15:03:50Z</time>
      </trkpt>
      <trkpt lat="43.60228" lon="6.59631">
        <ele>468.1</ele>
        <time>2019-11-26T15:03:54Z</time>
      </trkpt>
      <trkpt lat="43.60226" lon="6.59625">
        <ele>466.6</ele>
        <time>2019-11-26T15:03:57Z</time>
      </trkpt>
      <trkpt lat="43.60225" lon="6.59618">
        <ele>466.6</ele>
        <time>2019-11-26T15:04:01Z</time>
      </trkpt>
      <trkpt lat="43.60224" lon="6.59611">
        <ele>464.7</ele>
        <time>2019-11-26T15:04:05Z</time>
      </trkpt>
      <trkpt lat="43.60222" lon="6.59604">
        <ele>465.8</ele>
        <time>2019-11-26T15:04:13Z</time>
      </trkpt>
      <trkpt lat="43.60222" lon="6.59597">
        <ele>467.7</ele>
        <time>2019-11-26T15:04:17Z</time>
      </trkpt>
      <trkpt lat="43.60221" lon="6.5959">
        <ele>468.6</ele>
        <time>2019-11-26T15:04:22Z</time>
      </trkpt>
      <trkpt lat="43.60222" lon="6.59584">
        <ele>469.8</ele>
        <time>2019-11-26T15:04:27Z</time>
      </trkpt>
      <trkpt lat="43.60222" lon="6.59568">
        <ele>472.4</ele>
        <time>2019-11-26T15:04:37Z</time>
      </trkpt>
      <trkpt lat="43.60222" lon="6.59562">
        <ele>472.9</ele>
        <time>2019-11-26T15:04:41Z</time>
      </trkpt>
      <trkpt lat="43.60222" lon="6.59554">
        <ele>474.2</ele>
        <time>2019-11-26T15:04:47Z</time>
      </trkpt>
      <trkpt lat="43.6022" lon="6.59548">
        <ele>474.8</ele>
        <time>2019-11-26T15:04:54Z</time>
      </trkpt>
      <trkpt lat="43.60219" lon="6.59541">
        <ele>474.4</ele>
        <time>2019-11-26T15:05:00Z</time>
      </trkpt>
      <trkpt lat="43.60217" lon="6.59535">
        <ele>473.9</ele>
        <time>2019-11-26T15:05:05Z</time>
      </trkpt>
      <trkpt lat="43.60218" lon="6.59527">
        <ele>475</ele>
        <time>2019-11-26T15:05:12Z</time>
      </trkpt>
      <trkpt lat="43.60218" lon="6.59521">
        <ele>477</ele>
        <time>2019-11-26T15:05:21Z</time>
      </trkpt>
      <trkpt lat="43.60218" lon="6.59513">
        <ele>478.7</ele>
        <time>2019-11-26T15:05:28Z</time>
      </trkpt>
      <trkpt lat="43.60216" lon="6.59506">
        <ele>479.2</ele>
        <time>2019-11-26T15:05:31Z</time>
      </trkpt>
      <trkpt lat="43.60219" lon="6.595">
        <ele>479.4</ele>
        <time>2019-11-26T15:05:35Z</time>
      </trkpt>
      <trkpt lat="43.60221" lon="6.59492">
        <ele>479</ele>
        <time>2019-11-26T15:05:37Z</time>
      </trkpt>
      <trkpt lat="43.60222" lon="6.59486">
        <ele>478.9</ele>
        <time>2019-11-26T15:05:42Z</time>
      </trkpt>
      <trkpt lat="43.60222" lon="6.5948">
        <ele>479.4</ele>
        <time>2019-11-26T15:05:51Z</time>
      </trkpt>
      <trkpt lat="43.60216" lon="6.59464">
        <ele>482.1</ele>
        <time>2019-11-26T15:06:07Z</time>
      </trkpt>
      <trkpt lat="43.60217" lon="6.59456">
        <ele>481.9</ele>
        <time>2019-11-26T15:06:11Z</time>
      </trkpt>
      <trkpt lat="43.60218" lon="6.59448">
        <ele>482.3</ele>
        <time>2019-11-26T15:06:13Z</time>
      </trkpt>
      <trkpt lat="43.60215" lon="6.59444">
        <ele>482.5</ele>
        <time>2019-11-26T15:06:19Z</time>
      </trkpt>
      <trkpt lat="43.60213" lon="6.59438">
        <ele>482.9</ele>
        <time>2019-11-26T15:06:26Z</time>
      </trkpt>
      <trkpt lat="43.60211" lon="6.59428">
        <ele>484</ele>
        <time>2019-11-26T15:06:38Z</time>
      </trkpt>
      <trkpt lat="43.60211" lon="6.59421">
        <ele>484</ele>
        <time>2019-11-26T15:06:47Z</time>
      </trkpt>
      <trkpt lat="43.60209" lon="6.59413">
        <ele>484.4</ele>
        <time>2019-11-26T15:06:53Z</time>
      </trkpt>
      <trkpt lat="43.60208" lon="6.59407">
        <ele>484.7</ele>
        <time>2019-11-26T15:07:03Z</time>
      </trkpt>
      <trkpt lat="43.60207" lon="6.594">
        <ele>484.6</ele>
        <time>2019-11-26T15:07:08Z</time>
      </trkpt>
      <trkpt lat="43.60206" lon="6.59393">
        <ele>484.5</ele>
        <time>2019-11-26T15:07:12Z</time>
      </trkpt>
      <trkpt lat="43.60205" lon="6.59386">
        <ele>484.8</ele>
        <time>2019-11-26T15:07:21Z</time>
      </trkpt>
      <trkpt lat="43.60203" lon="6.59378">
        <ele>485.3</ele>
        <time>2019-11-26T15:07:25Z</time>
      </trkpt>
      <trkpt lat="43.60203" lon="6.5937">
        <ele>486.1</ele>
        <time>2019-11-26T15:07:30Z</time>
      </trkpt>
      <trkpt lat="43.60203" lon="6.59363">
        <ele>486.1</ele>
        <time>2019-11-26T15:07:33Z</time>
      </trkpt>
      <trkpt lat="43.60202" lon="6.59356">
        <ele>486</ele>
        <time>2019-11-26T15:07:37Z</time>
      </trkpt>
      <trkpt lat="43.60205" lon="6.59346">
        <ele>485.3</ele>
        <time>2019-11-26T15:07:39Z</time>
      </trkpt>
      <trkpt lat="43.60204" lon="6.59339">
        <ele>484.9</ele>
        <time>2019-11-26T15:07:44Z</time>
      </trkpt>
      <trkpt lat="43.60201" lon="6.59334">
        <ele>484.3</ele>
        <time>2019-11-26T15:07:50Z</time>
      </trkpt>
      <trkpt lat="43.60199" lon="6.59326">
        <ele>484.3</ele>
        <time>2019-11-26T15:07:54Z</time>
      </trkpt>
      <trkpt lat="43.60203" lon="6.59321">
        <ele>485.8</ele>
        <time>2019-11-26T15:08:12Z</time>
      </trkpt>
      <trkpt lat="43.60204" lon="6.59315">
        <ele>484.1</ele>
        <time>2019-11-26T15:08:29Z</time>
      </trkpt>
      <trkpt lat="43.60205" lon="6.59308">
        <ele>483</ele>
        <time>2019-11-26T15:08:35Z</time>
      </trkpt>
      <trkpt lat="43.60208" lon="6.59303">
        <ele>483.6</ele>
        <time>2019-11-26T15:08:43Z</time>
      </trkpt>
      <trkpt lat="43.60212" lon="6.59298">
        <ele>484</ele>
        <time>2019-11-26T15:08:49Z</time>
      </trkpt>
      <trkpt lat="43.60214" lon="6.59292">
        <ele>484.4</ele>
        <time>2019-11-26T15:08:55Z</time>
      </trkpt>
      <trkpt lat="43.60214" lon="6.59285">
        <ele>484.9</ele>
        <time>2019-11-26T15:09:01Z</time>
      </trkpt>
      <trkpt lat="43.60219" lon="6.59281">
        <ele>484.9</ele>
        <time>2019-11-26T15:09:07Z</time>
      </trkpt>
      <trkpt lat="43.60225" lon="6.59261">
        <ele>495.1</ele>
        <time>2019-11-26T15:09:31Z</time>
      </trkpt>
      <trkpt lat="43.60224" lon="6.59253">
        <ele>497.4</ele>
        <time>2019-11-26T15:09:37Z</time>
      </trkpt>
      <trkpt lat="43.60225" lon="6.59247">
        <ele>501</ele>
        <time>2019-11-26T15:09:45Z</time>
      </trkpt>
      <trkpt lat="43.60227" lon="6.59241">
        <ele>501.3</ele>
        <time>2019-11-26T15:09:51Z</time>
      </trkpt>
      <trkpt lat="43.60228" lon="6.59234">
        <ele>501.3</ele>
        <time>2019-11-26T15:10:02Z</time>
      </trkpt>
      <trkpt lat="43.60229" lon="6.59226">
        <ele>500.4</ele>
        <time>2019-11-26T15:10:07Z</time>
      </trkpt>
      <trkpt lat="43.60228" lon="6.59218">
        <ele>500.7</ele>
        <time>2019-11-26T15:10:11Z</time>
      </trkpt>
      <trkpt lat="43.60228" lon="6.59212">
        <ele>500.5</ele>
        <time>2019-11-26T15:10:14Z</time>
      </trkpt>
      <trkpt lat="43.60228" lon="6.59204">
        <ele>500.8</ele>
        <time>2019-11-26T15:10:18Z</time>
      </trkpt>
      <trkpt lat="43.6023" lon="6.59198">
        <ele>501</ele>
        <time>2019-11-26T15:10:24Z</time>
      </trkpt>
      <trkpt lat="43.6023" lon="6.59192">
        <ele>501.6</ele>
        <time>2019-11-26T15:10:33Z</time>
      </trkpt>
      <trkpt lat="43.60231" lon="6.59185">
        <ele>501.5</ele>
        <time>2019-11-26T15:10:37Z</time>
      </trkpt>
      <trkpt lat="43.60232" lon="6.59178">
        <ele>501.1</ele>
        <time>2019-11-26T15:10:40Z</time>
      </trkpt>
      <trkpt lat="43.60233" lon="6.59171">
        <ele>500.3</ele>
        <time>2019-11-26T15:10:42Z</time>
      </trkpt>
      <trkpt lat="43.60236" lon="6.59166">
        <ele>500.2</ele>
        <time>2019-11-26T15:10:46Z</time>
      </trkpt>
      <trkpt lat="43.60239" lon="6.59158">
        <ele>499.4</ele>
        <time>2019-11-26T15:10:49Z</time>
      </trkpt>
      <trkpt lat="43.60241" lon="6.59153">
        <ele>498.5</ele>
        <time>2019-11-26T15:10:54Z</time>
      </trkpt>
      <trkpt lat="43.60244" lon="6.59146">
        <ele>497.5</ele>
        <time>2019-11-26T15:11:04Z</time>
      </trkpt>
      <trkpt lat="43.60247" lon="6.5914">
        <ele>497</ele>
        <time>2019-11-26T15:11:10Z</time>
      </trkpt>
      <trkpt lat="43.60253" lon="6.59136">
        <ele>496.1</ele>
        <time>2019-11-26T15:11:13Z</time>
      </trkpt>
      <trkpt lat="43.60254" lon="6.5913">
        <ele>493.9</ele>
        <time>2019-11-26T15:11:18Z</time>
      </trkpt>
      <trkpt lat="43.60256" lon="6.59124">
        <ele>492.9</ele>
        <time>2019-11-26T15:11:26Z</time>
      </trkpt>
      <trkpt lat="43.6026" lon="6.5912">
        <ele>492.9</ele>
        <time>2019-11-26T15:11:32Z</time>
      </trkpt>
      <trkpt lat="43.60263" lon="6.59116">
        <ele>492.6</ele>
        <time>2019-11-26T15:11:39Z</time>
      </trkpt>
      <trkpt lat="43.60268" lon="6.59112">
        <ele>492</ele>
        <time>2019-11-26T15:11:44Z</time>
      </trkpt>
      <trkpt lat="43.60269" lon="6.59105">
        <ele>491.9</ele>
        <time>2019-11-26T15:11:50Z</time>
      </trkpt>
      <trkpt lat="43.60272" lon="6.591">
        <ele>491.9</ele>
        <time>2019-11-26T15:11:54Z</time>
      </trkpt>
      <trkpt lat="43.60276" lon="6.59095">
        <ele>492</ele>
        <time>2019-11-26T15:11:57Z</time>
      </trkpt>
      <trkpt lat="43.6028" lon="6.59091">
        <ele>492.3</ele>
        <time>2019-11-26T15:12:01Z</time>
      </trkpt>
      <trkpt lat="43.60284" lon="6.59088">
        <ele>492.9</ele>
        <time>2019-11-26T15:12:07Z</time>
      </trkpt>
      <trkpt lat="43.60285" lon="6.59082">
        <ele>493.6</ele>
        <time>2019-11-26T15:12:13Z</time>
      </trkpt>
      <trkpt lat="43.60287" lon="6.59075">
        <ele>493.7</ele>
        <time>2019-11-26T15:12:18Z</time>
      </trkpt>
      <trkpt lat="43.60286" lon="6.59069">
        <ele>493.6</ele>
        <time>2019-11-26T15:12:24Z</time>
      </trkpt>
      <trkpt lat="43.60285" lon="6.59063">
        <ele>494</ele>
        <time>2019-11-26T15:12:29Z</time>
      </trkpt>
      <trkpt lat="43.60285" lon="6.59055">
        <ele>494.6</ele>
        <time>2019-11-26T15:12:32Z</time>
      </trkpt>
      <trkpt lat="43.60282" lon="6.5905">
        <ele>495.3</ele>
        <time>2019-11-26T15:12:36Z</time>
      </trkpt>
      <trkpt lat="43.60277" lon="6.59045">
        <ele>496</ele>
        <time>2019-11-26T15:12:40Z</time>
      </trkpt>
      <trkpt lat="43.60275" lon="6.5904">
        <ele>495.8</ele>
        <time>2019-11-26T15:12:43Z</time>
      </trkpt>
      <trkpt lat="43.60275" lon="6.59034">
        <ele>495.6</ele>
        <time>2019-11-26T15:12:46Z</time>
      </trkpt>
      <trkpt lat="43.60276" lon="6.59027">
        <ele>495.9</ele>
        <time>2019-11-26T15:12:50Z</time>
      </trkpt>
      <trkpt lat="43.60276" lon="6.5902">
        <ele>497.2</ele>
        <time>2019-11-26T15:12:56Z</time>
      </trkpt>
      <trkpt lat="43.60273" lon="6.59015">
        <ele>498.3</ele>
        <time>2019-11-26T15:13:07Z</time>
      </trkpt>
      <trkpt lat="43.60269" lon="6.59009">
        <ele>499.1</ele>
        <time>2019-11-26T15:13:11Z</time>
      </trkpt>
      <trkpt lat="43.60266" lon="6.59004">
        <ele>500.4</ele>
        <time>2019-11-26T15:13:17Z</time>
      </trkpt>
      <trkpt lat="43.60263" lon="6.58999">
        <ele>501.3</ele>
        <time>2019-11-26T15:13:25Z</time>
      </trkpt>
      <trkpt lat="43.6026" lon="6.58993">
        <ele>502</ele>
        <time>2019-11-26T15:13:29Z</time>
      </trkpt>
      <trkpt lat="43.60257" lon="6.58987">
        <ele>503</ele>
        <time>2019-11-26T15:13:35Z</time>
      </trkpt>
      <trkpt lat="43.60256" lon="6.5898">
        <ele>500.4</ele>
        <time>2019-11-26T15:13:41Z</time>
      </trkpt>
      <trkpt lat="43.60252" lon="6.58976">
        <ele>500.1</ele>
        <time>2019-11-26T15:13:44Z</time>
      </trkpt>
      <trkpt lat="43.60247" lon="6.58974">
        <ele>500.2</ele>
        <time>2019-11-26T15:13:48Z</time>
      </trkpt>
      <trkpt lat="43.60244" lon="6.58969">
        <ele>500.6</ele>
        <time>2019-11-26T15:13:52Z</time>
      </trkpt>
      <trkpt lat="43.60241" lon="6.58963">
        <ele>501.5</ele>
        <time>2019-11-26T15:13:57Z</time>
      </trkpt>
      <trkpt lat="43.60238" lon="6.58958">
        <ele>502.7</ele>
        <time>2019-11-26T15:14:04Z</time>
      </trkpt>
      <trkpt lat="43.60236" lon="6.58951">
        <ele>504.1</ele>
        <time>2019-11-26T15:14:25Z</time>
      </trkpt>
      <trkpt lat="43.60235" lon="6.58944">
        <ele>503.1</ele>
        <time>2019-11-26T15:14:29Z</time>
      </trkpt>
      <trkpt lat="43.60233" lon="6.58939">
        <ele>501.1</ele>
        <time>2019-11-26T15:15:08Z</time>
      </trkpt>
      <trkpt lat="43.60236" lon="6.58933">
        <ele>497.4</ele>
        <time>2019-11-26T15:15:31Z</time>
      </trkpt>
      <trkpt lat="43.60234" lon="6.58927">
        <ele>496.8</ele>
        <time>2019-11-26T15:15:34Z</time>
      </trkpt>
      <trkpt lat="43.60232" lon="6.58922">
        <ele>496.4</ele>
        <time>2019-11-26T15:15:36Z</time>
      </trkpt>
      <trkpt lat="43.60229" lon="6.58916">
        <ele>496.7</ele>
        <time>2019-11-26T15:15:40Z</time>
      </trkpt>
      <trkpt lat="43.60226" lon="6.58909">
        <ele>497.6</ele>
        <time>2019-11-26T15:15:47Z</time>
      </trkpt>
      <trkpt lat="43.60226" lon="6.589">
        <ele>498.3</ele>
        <time>2019-11-26T15:15:52Z</time>
      </trkpt>
      <trkpt lat="43.60227" lon="6.58892">
        <ele>498.5</ele>
        <time>2019-11-26T15:15:55Z</time>
      </trkpt>
      <trkpt lat="43.60225" lon="6.58886">
        <ele>499.1</ele>
        <time>2019-11-26T15:15:59Z</time>
      </trkpt>
      <trkpt lat="43.60222" lon="6.58877">
        <ele>498.8</ele>
        <time>2019-11-26T15:16:03Z</time>
      </trkpt>
      <trkpt lat="43.60222" lon="6.58869">
        <ele>498.8</ele>
        <time>2019-11-26T15:16:06Z</time>
      </trkpt>
      <trkpt lat="43.60223" lon="6.58862">
        <ele>501.2</ele>
        <time>2019-11-26T15:16:33Z</time>
      </trkpt>
      <trkpt lat="43.60223" lon="6.58855">
        <ele>499.5</ele>
        <time>2019-11-26T15:16:40Z</time>
      </trkpt>
      <trkpt lat="43.60225" lon="6.58849">
        <ele>499.8</ele>
        <time>2019-11-26T15:16:46Z</time>
      </trkpt>
      <trkpt lat="43.60228" lon="6.58842">
        <ele>500.1</ele>
        <time>2019-11-26T15:16:57Z</time>
      </trkpt>
      <trkpt lat="43.60229" lon="6.58836">
        <ele>500.2</ele>
        <time>2019-11-26T15:17:00Z</time>
      </trkpt>
      <trkpt lat="43.60231" lon="6.58831">
        <ele>500.2</ele>
        <time>2019-11-26T15:17:02Z</time>
      </trkpt>
      <trkpt lat="43.60232" lon="6.58822">
        <ele>500</ele>
        <time>2019-11-26T15:17:05Z</time>
      </trkpt>
      <trkpt lat="43.60236" lon="6.58816">
        <ele>500</ele>
        <time>2019-11-26T15:17:10Z</time>
      </trkpt>
      <trkpt lat="43.60239" lon="6.58809">
        <ele>499.5</ele>
        <time>2019-11-26T15:17:13Z</time>
      </trkpt>
      <trkpt lat="43.6024" lon="6.58803">
        <ele>499.2</ele>
        <time>2019-11-26T15:17:19Z</time>
      </trkpt>
      <trkpt lat="43.60241" lon="6.58796">
        <ele>499.2</ele>
        <time>2019-11-26T15:17:26Z</time>
      </trkpt>
      <trkpt lat="43.60244" lon="6.58789">
        <ele>498.5</ele>
        <time>2019-11-26T15:17:33Z</time>
      </trkpt>
      <trkpt lat="43.60246" lon="6.58781">
        <ele>497.5</ele>
        <time>2019-11-26T15:17:36Z</time>
      </trkpt>
      <trkpt lat="43.60247" lon="6.58773">
        <ele>497</ele>
        <time>2019-11-26T15:17:40Z</time>
      </trkpt>
      <trkpt lat="43.60247" lon="6.58765">
        <ele>497.6</ele>
        <time>2019-11-26T15:17:43Z</time>
      </trkpt>
      <trkpt lat="43.60246" lon="6.58758">
        <ele>497.6</ele>
        <time>2019-11-26T15:17:48Z</time>
      </trkpt>
      <trkpt lat="43.60246" lon="6.58751">
        <ele>497.7</ele>
        <time>2019-11-26T15:17:55Z</time>
      </trkpt>
      <trkpt lat="43.60246" lon="6.58744">
        <ele>497.9</ele>
        <time>2019-11-26T15:18:01Z</time>
      </trkpt>
      <trkpt lat="43.60246" lon="6.58737">
        <ele>498.3</ele>
        <time>2019-11-26T15:18:12Z</time>
      </trkpt>
      <trkpt lat="43.60247" lon="6.5873">
        <ele>498.3</ele>
        <time>2019-11-26T15:18:16Z</time>
      </trkpt>
      <trkpt lat="43.60247" lon="6.58722">
        <ele>498.4</ele>
        <time>2019-11-26T15:18:29Z</time>
      </trkpt>
      <trkpt lat="43.60246" lon="6.58716">
        <ele>498.6</ele>
        <time>2019-11-26T15:18:32Z</time>
      </trkpt>
      <trkpt lat="43.60245" lon="6.58709">
        <ele>498.1</ele>
        <time>2019-11-26T15:18:35Z</time>
      </trkpt>
      <trkpt lat="43.60244" lon="6.58702">
        <ele>498.1</ele>
        <time>2019-11-26T15:18:39Z</time>
      </trkpt>
      <trkpt lat="43.60244" lon="6.58695">
        <ele>498.4</ele>
        <time>2019-11-26T15:18:43Z</time>
      </trkpt>
      <trkpt lat="43.60245" lon="6.58689">
        <ele>498.5</ele>
        <time>2019-11-26T15:18:48Z</time>
      </trkpt>
      <trkpt lat="43.60246" lon="6.58682">
        <ele>498.3</ele>
        <time>2019-11-26T15:18:52Z</time>
      </trkpt>
      <trkpt lat="43.60246" lon="6.58673">
        <ele>497.8</ele>
        <time>2019-11-26T15:18:56Z</time>
      </trkpt>
      <trkpt lat="43.60245" lon="6.58666">
        <ele>497.6</ele>
        <time>2019-11-26T15:18:58Z</time>
      </trkpt>
      <trkpt lat="43.60246" lon="6.58659">
        <ele>497.6</ele>
        <time>2019-11-26T15:19:04Z</time>
      </trkpt>
      <trkpt lat="43.60246" lon="6.58652">
        <ele>497.8</ele>
        <time>2019-11-26T15:19:13Z</time>
      </trkpt>
      <trkpt lat="43.60245" lon="6.58646">
        <ele>497.7</ele>
        <time>2019-11-26T15:19:17Z</time>
      </trkpt>
      <trkpt lat="43.60246" lon="6.58638">
        <ele>497.5</ele>
        <time>2019-11-26T15:19:23Z</time>
      </trkpt>
      <trkpt lat="43.60244" lon="6.58631">
        <ele>497.2</ele>
        <time>2019-11-26T15:19:28Z</time>
      </trkpt>
      <trkpt lat="43.60243" lon="6.58625">
        <ele>496.3</ele>
        <time>2019-11-26T15:19:36Z</time>
      </trkpt>
      <trkpt lat="43.60241" lon="6.58618">
        <ele>495.5</ele>
        <time>2019-11-26T15:19:46Z</time>
      </trkpt>
      <trkpt lat="43.60242" lon="6.5861">
        <ele>494.9</ele>
        <time>2019-11-26T15:19:49Z</time>
      </trkpt>
      <trkpt lat="43.60244" lon="6.58602">
        <ele>494</ele>
        <time>2019-11-26T15:19:53Z</time>
      </trkpt>
      <trkpt lat="43.60244" lon="6.58595">
        <ele>493.2</ele>
        <time>2019-11-26T15:19:56Z</time>
      </trkpt>
      <trkpt lat="43.60243" lon="6.58589">
        <ele>492.7</ele>
        <time>2019-11-26T15:20:00Z</time>
      </trkpt>
      <trkpt lat="43.60244" lon="6.5858">
        <ele>491.6</ele>
        <time>2019-11-26T15:20:16Z</time>
      </trkpt>
      <trkpt lat="43.60246" lon="6.58574">
        <ele>490.4</ele>
        <time>2019-11-26T15:20:21Z</time>
      </trkpt>
      <trkpt lat="43.60245" lon="6.58561">
        <ele>484.4</ele>
        <time>2019-11-26T15:20:41Z</time>
      </trkpt>
      <trkpt lat="43.60244" lon="6.58555">
        <ele>486.8</ele>
        <time>2019-11-26T15:21:54Z</time>
      </trkpt>
      <trkpt lat="43.60244" lon="6.58548">
        <ele>484.4</ele>
        <time>2019-11-26T15:22:13Z</time>
      </trkpt>
      <trkpt lat="43.60245" lon="6.58542">
        <ele>481.5</ele>
        <time>2019-11-26T15:22:30Z</time>
      </trkpt>
      <trkpt lat="43.60247" lon="6.58535">
        <ele>481.9</ele>
        <time>2019-11-26T15:22:35Z</time>
      </trkpt>
      <trkpt lat="43.60248" lon="6.58528">
        <ele>482.4</ele>
        <time>2019-11-26T15:22:39Z</time>
      </trkpt>
      <trkpt lat="43.60248" lon="6.58521">
        <ele>483</ele>
        <time>2019-11-26T15:22:45Z</time>
      </trkpt>
      <trkpt lat="43.60249" lon="6.58513">
        <ele>483.3</ele>
        <time>2019-11-26T15:22:50Z</time>
      </trkpt>
      <trkpt lat="43.60249" lon="6.58507">
        <ele>483.6</ele>
        <time>2019-11-26T15:22:53Z</time>
      </trkpt>
      <trkpt lat="43.60249" lon="6.585">
        <ele>483</ele>
        <time>2019-11-26T15:22:58Z</time>
      </trkpt>
      <trkpt lat="43.60247" lon="6.58493">
        <ele>482.9</ele>
        <time>2019-11-26T15:23:04Z</time>
      </trkpt>
      <trkpt lat="43.60248" lon="6.58487">
        <ele>483</ele>
        <time>2019-11-26T15:23:10Z</time>
      </trkpt>
      <trkpt lat="43.60246" lon="6.5848">
        <ele>481</ele>
        <time>2019-11-26T15:23:16Z</time>
      </trkpt>
      <trkpt lat="43.60243" lon="6.58475">
        <ele>480.6</ele>
        <time>2019-11-26T15:23:18Z</time>
      </trkpt>
      <trkpt lat="43.60243" lon="6.58468">
        <ele>480.5</ele>
        <time>2019-11-26T15:23:22Z</time>
      </trkpt>
      <trkpt lat="43.60243" lon="6.58461">
        <ele>480.9</ele>
        <time>2019-11-26T15:23:31Z</time>
      </trkpt>
      <trkpt lat="43.60245" lon="6.58455">
        <ele>481</ele>
        <time>2019-11-26T15:23:34Z</time>
      </trkpt>
      <trkpt lat="43.60245" lon="6.58447">
        <ele>481</ele>
        <time>2019-11-26T15:23:38Z</time>
      </trkpt>
      <trkpt lat="43.60244" lon="6.58439">
        <ele>480.8</ele>
        <time>2019-11-26T15:23:43Z</time>
      </trkpt>
      <trkpt lat="43.60245" lon="6.58433">
        <ele>479.5</ele>
        <time>2019-11-26T15:23:48Z</time>
      </trkpt>
      <trkpt lat="43.60244" lon="6.58425">
        <ele>479.1</ele>
        <time>2019-11-26T15:23:54Z</time>
      </trkpt>
      <trkpt lat="43.60244" lon="6.58419">
        <ele>478.1</ele>
        <time>2019-11-26T15:23:58Z</time>
      </trkpt>
      <trkpt lat="43.60243" lon="6.58412">
        <ele>477.5</ele>
        <time>2019-11-26T15:23:59Z</time>
      </trkpt>
      <trkpt lat="43.60243" lon="6.58405">
        <ele>476.3</ele>
        <time>2019-11-26T15:24:04Z</time>
      </trkpt>
      <trkpt lat="43.60244" lon="6.58399">
        <ele>475.5</ele>
        <time>2019-11-26T15:24:14Z</time>
      </trkpt>
      <trkpt lat="43.60244" lon="6.58392">
        <ele>475.2</ele>
        <time>2019-11-26T15:24:19Z</time>
      </trkpt>
      <trkpt lat="43.60245" lon="6.58385">
        <ele>474.9</ele>
        <time>2019-11-26T15:24:22Z</time>
      </trkpt>
      <trkpt lat="43.60248" lon="6.58376">
        <ele>474.8</ele>
        <time>2019-11-26T15:24:25Z</time>
      </trkpt>
      <trkpt lat="43.60248" lon="6.58369">
        <ele>474.7</ele>
        <time>2019-11-26T15:24:30Z</time>
      </trkpt>
      <trkpt lat="43.60246" lon="6.58362">
        <ele>474.9</ele>
        <time>2019-11-26T15:24:35Z</time>
      </trkpt>
      <trkpt lat="43.60245" lon="6.58356">
        <ele>475.7</ele>
        <time>2019-11-26T15:24:41Z</time>
      </trkpt>
      <trkpt lat="43.60247" lon="6.58348">
        <ele>476.1</ele>
        <time>2019-11-26T15:24:49Z</time>
      </trkpt>
      <trkpt lat="43.60249" lon="6.58341">
        <ele>475.6</ele>
        <time>2019-11-26T15:24:54Z</time>
      </trkpt>
      <trkpt lat="43.60251" lon="6.58335">
        <ele>475.8</ele>
        <time>2019-11-26T15:24:57Z</time>
      </trkpt>
      <trkpt lat="43.60253" lon="6.58329">
        <ele>476.3</ele>
        <time>2019-11-26T15:25:01Z</time>
      </trkpt>
      <trkpt lat="43.60255" lon="6.58323">
        <ele>476.9</ele>
        <time>2019-11-26T15:25:06Z</time>
      </trkpt>
      <trkpt lat="43.60256" lon="6.58317">
        <ele>477.8</ele>
        <time>2019-11-26T15:25:18Z</time>
      </trkpt>
      <trkpt lat="43.60256" lon="6.58309">
        <ele>476.7</ele>
        <time>2019-11-26T15:25:24Z</time>
      </trkpt>
      <trkpt lat="43.60259" lon="6.58303">
        <ele>475.6</ele>
        <time>2019-11-26T15:25:28Z</time>
      </trkpt>
      <trkpt lat="43.60261" lon="6.58297">
        <ele>474.1</ele>
        <time>2019-11-26T15:25:30Z</time>
      </trkpt>
      <trkpt lat="43.60264" lon="6.5829">
        <ele>472.3</ele>
        <time>2019-11-26T15:25:35Z</time>
      </trkpt>
      <trkpt lat="43.60266" lon="6.58282">
        <ele>471.2</ele>
        <time>2019-11-26T15:25:40Z</time>
      </trkpt>
      <trkpt lat="43.60268" lon="6.58276">
        <ele>471.2</ele>
        <time>2019-11-26T15:25:44Z</time>
      </trkpt>
      <trkpt lat="43.60271" lon="6.5827">
        <ele>471.3</ele>
        <time>2019-11-26T15:25:51Z</time>
      </trkpt>
      <trkpt lat="43.60273" lon="6.58265">
        <ele>471.7</ele>
        <time>2019-11-26T15:25:55Z</time>
      </trkpt>
      <trkpt lat="43.60274" lon="6.58255">
        <ele>471.7</ele>
        <time>2019-11-26T15:25:58Z</time>
      </trkpt>
      <trkpt lat="43.60275" lon="6.58248">
        <ele>471.8</ele>
        <time>2019-11-26T15:26:00Z</time>
      </trkpt>
      <trkpt lat="43.60277" lon="6.58242">
        <ele>472.6</ele>
        <time>2019-11-26T15:26:06Z</time>
      </trkpt>
      <trkpt lat="43.60278" lon="6.58236">
        <ele>473.5</ele>
        <time>2019-11-26T15:26:13Z</time>
      </trkpt>
      <trkpt lat="43.60279" lon="6.58229">
        <ele>474.2</ele>
        <time>2019-11-26T15:26:18Z</time>
      </trkpt>
      <trkpt lat="43.6028" lon="6.58222">
        <ele>474.7</ele>
        <time>2019-11-26T15:26:22Z</time>
      </trkpt>
      <trkpt lat="43.60279" lon="6.58215">
        <ele>475.7</ele>
        <time>2019-11-26T15:26:27Z</time>
      </trkpt>
      <trkpt lat="43.60277" lon="6.58209">
        <ele>476.8</ele>
        <time>2019-11-26T15:26:33Z</time>
      </trkpt>
      <trkpt lat="43.60275" lon="6.58201">
        <ele>477.5</ele>
        <time>2019-11-26T15:26:41Z</time>
      </trkpt>
      <trkpt lat="43.60276" lon="6.58194">
        <ele>477.7</ele>
        <time>2019-11-26T15:26:44Z</time>
      </trkpt>
      <trkpt lat="43.60275" lon="6.58187">
        <ele>478.1</ele>
        <time>2019-11-26T15:26:48Z</time>
      </trkpt>
      <trkpt lat="43.60274" lon="6.58181">
        <ele>478.3</ele>
        <time>2019-11-26T15:26:50Z</time>
      </trkpt>
      <trkpt lat="43.60272" lon="6.58173">
        <ele>478.4</ele>
        <time>2019-11-26T15:26:52Z</time>
      </trkpt>
      <trkpt lat="43.60273" lon="6.58167">
        <ele>478.4</ele>
        <time>2019-11-26T15:26:55Z</time>
      </trkpt>
      <trkpt lat="43.60276" lon="6.5816">
        <ele>477.9</ele>
        <time>2019-11-26T15:26:58Z</time>
      </trkpt>
      <trkpt lat="43.60271" lon="6.58155">
        <ele>477.6</ele>
        <time>2019-11-26T15:27:03Z</time>
      </trkpt>
      <trkpt lat="43.60267" lon="6.58154">
        <ele>472.8</ele>
        <time>2019-11-26T15:27:20Z</time>
      </trkpt>
      <trkpt lat="43.60269" lon="6.58148">
        <ele>469.8</ele>
        <time>2019-11-26T15:27:28Z</time>
      </trkpt>
      <trkpt lat="43.6027" lon="6.58142">
        <ele>468.9</ele>
        <time>2019-11-26T15:27:39Z</time>
      </trkpt>
      <trkpt lat="43.60275" lon="6.58138">
        <ele>470</ele>
        <time>2019-11-26T15:27:59Z</time>
      </trkpt>
      <trkpt lat="43.60279" lon="6.58133">
        <ele>470.3</ele>
        <time>2019-11-26T15:28:01Z</time>
      </trkpt>
      <trkpt lat="43.60277" lon="6.58127">
        <ele>471.9</ele>
        <time>2019-11-26T15:28:12Z</time>
      </trkpt>
      <trkpt lat="43.60275" lon="6.58121">
        <ele>473.9</ele>
        <time>2019-11-26T15:28:28Z</time>
      </trkpt>
      <trkpt lat="43.60275" lon="6.58114">
        <ele>474.3</ele>
        <time>2019-11-26T15:28:33Z</time>
      </trkpt>
      <trkpt lat="43.60276" lon="6.58107">
        <ele>475.4</ele>
        <time>2019-11-26T15:28:38Z</time>
      </trkpt>
      <trkpt lat="43.60278" lon="6.58101">
        <ele>478.8</ele>
        <time>2019-11-26T15:29:45Z</time>
      </trkpt>
      <trkpt lat="43.60276" lon="6.58094">
        <ele>476.5</ele>
        <time>2019-11-26T15:30:38Z</time>
      </trkpt>
      <trkpt lat="43.60276" lon="6.58088">
        <ele>475.5</ele>
        <time>2019-11-26T15:30:44Z</time>
      </trkpt>
      <trkpt lat="43.60275" lon="6.58079">
        <ele>472.1</ele>
        <time>2019-11-26T15:30:50Z</time>
      </trkpt>
      <trkpt lat="43.60275" lon="6.58073">
        <ele>469.9</ele>
        <time>2019-11-26T15:30:54Z</time>
      </trkpt>
      <trkpt lat="43.60273" lon="6.58066">
        <ele>467.7</ele>
        <time>2019-11-26T15:31:02Z</time>
      </trkpt>
      <trkpt lat="43.60271" lon="6.58059">
        <ele>466.7</ele>
        <time>2019-11-26T15:31:04Z</time>
      </trkpt>
      <trkpt lat="43.60271" lon="6.58052">
        <ele>466.2</ele>
        <time>2019-11-26T15:31:06Z</time>
      </trkpt>
      <trkpt lat="43.6027" lon="6.58046">
        <ele>464.5</ele>
        <time>2019-11-26T15:31:10Z</time>
      </trkpt>
      <trkpt lat="43.60268" lon="6.5804">
        <ele>461.9</ele>
        <time>2019-11-26T15:31:18Z</time>
      </trkpt>
      <trkpt lat="43.60267" lon="6.58034">
        <ele>461.9</ele>
        <time>2019-11-26T15:31:26Z</time>
      </trkpt>
      <trkpt lat="43.60267" lon="6.58026">
        <ele>462.4</ele>
        <time>2019-11-26T15:31:33Z</time>
      </trkpt>
      <trkpt lat="43.60267" lon="6.5802">
        <ele>462.1</ele>
        <time>2019-11-26T15:31:38Z</time>
      </trkpt>
      <trkpt lat="43.60269" lon="6.58013">
        <ele>461.9</ele>
        <time>2019-11-26T15:31:45Z</time>
      </trkpt>
      <trkpt lat="43.60268" lon="6.58007">
        <ele>461.6</ele>
        <time>2019-11-26T15:31:50Z</time>
      </trkpt>
      <trkpt lat="43.60267" lon="6.58">
        <ele>461.6</ele>
        <time>2019-11-26T15:31:57Z</time>
      </trkpt>
      <trkpt lat="43.60266" lon="6.57994">
        <ele>461.1</ele>
        <time>2019-11-26T15:32:02Z</time>
      </trkpt>
      <trkpt lat="43.60265" lon="6.57988">
        <ele>460.5</ele>
        <time>2019-11-26T15:32:06Z</time>
      </trkpt>
      <trkpt lat="43.60261" lon="6.57983">
        <ele>459.5</ele>
        <time>2019-11-26T15:32:11Z</time>
      </trkpt>
      <trkpt lat="43.6026" lon="6.57977">
        <ele>459.3</ele>
        <time>2019-11-26T15:32:15Z</time>
      </trkpt>
      <trkpt lat="43.60258" lon="6.57971">
        <ele>459.4</ele>
        <time>2019-11-26T15:32:19Z</time>
      </trkpt>
      <trkpt lat="43.60256" lon="6.57964">
        <ele>459.8</ele>
        <time>2019-11-26T15:32:26Z</time>
      </trkpt>
      <trkpt lat="43.60255" lon="6.57957">
        <ele>460.3</ele>
        <time>2019-11-26T15:32:33Z</time>
      </trkpt>
      <trkpt lat="43.60256" lon="6.5795">
        <ele>459.8</ele>
        <time>2019-11-26T15:32:39Z</time>
      </trkpt>
      <trkpt lat="43.60255" lon="6.57943">
        <ele>458.9</ele>
        <time>2019-11-26T15:32:59Z</time>
      </trkpt>
      <trkpt lat="43.60254" lon="6.57936">
        <ele>458.9</ele>
        <time>2019-11-26T15:33:03Z</time>
      </trkpt>
      <trkpt lat="43.60253" lon="6.57929">
        <ele>458.8</ele>
        <time>2019-11-26T15:33:05Z</time>
      </trkpt>
      <trkpt lat="43.60253" lon="6.57921">
        <ele>459</ele>
        <time>2019-11-26T15:33:08Z</time>
      </trkpt>
      <trkpt lat="43.60254" lon="6.57912">
        <ele>459.4</ele>
        <time>2019-11-26T15:33:11Z</time>
      </trkpt>
      <trkpt lat="43.60255" lon="6.57905">
        <ele>458.8</ele>
        <time>2019-11-26T15:33:14Z</time>
      </trkpt>
      <trkpt lat="43.60256" lon="6.57898">
        <ele>458.4</ele>
        <time>2019-11-26T15:33:17Z</time>
      </trkpt>
      <trkpt lat="43.60257" lon="6.5789">
        <ele>458.1</ele>
        <time>2019-11-26T15:33:22Z</time>
      </trkpt>
      <trkpt lat="43.60258" lon="6.57883">
        <ele>457.7</ele>
        <time>2019-11-26T15:33:26Z</time>
      </trkpt>
      <trkpt lat="43.60258" lon="6.57876">
        <ele>457.5</ele>
        <time>2019-11-26T15:33:31Z</time>
      </trkpt>
      <trkpt lat="43.60257" lon="6.57869">
        <ele>457.6</ele>
        <time>2019-11-26T15:33:35Z</time>
      </trkpt>
      <trkpt lat="43.60256" lon="6.57861">
        <ele>457.5</ele>
        <time>2019-11-26T15:33:39Z</time>
      </trkpt>
      <trkpt lat="43.60255" lon="6.57854">
        <ele>457.3</ele>
        <time>2019-11-26T15:33:43Z</time>
      </trkpt>
      <trkpt lat="43.60254" lon="6.57848">
        <ele>457.4</ele>
        <time>2019-11-26T15:33:49Z</time>
      </trkpt>
      <trkpt lat="43.60252" lon="6.57842">
        <ele>457.6</ele>
        <time>2019-11-26T15:33:53Z</time>
      </trkpt>
      <trkpt lat="43.6025" lon="6.57835">
        <ele>457.6</ele>
        <time>2019-11-26T15:33:57Z</time>
      </trkpt>
      <trkpt lat="43.60247" lon="6.5783">
        <ele>457.6</ele>
        <time>2019-11-26T15:34:02Z</time>
      </trkpt>
      <trkpt lat="43.60245" lon="6.57825">
        <ele>457.2</ele>
        <time>2019-11-26T15:34:07Z</time>
      </trkpt>
      <trkpt lat="43.60243" lon="6.57818">
        <ele>456.6</ele>
        <time>2019-11-26T15:34:12Z</time>
      </trkpt>
      <trkpt lat="43.60243" lon="6.57811">
        <ele>455.8</ele>
        <time>2019-11-26T15:34:15Z</time>
      </trkpt>
      <trkpt lat="43.60242" lon="6.57805">
        <ele>455.2</ele>
        <time>2019-11-26T15:34:18Z</time>
      </trkpt>
      <trkpt lat="43.60243" lon="6.57798">
        <ele>454.2</ele>
        <time>2019-11-26T15:34:23Z</time>
      </trkpt>
      <trkpt lat="43.60246" lon="6.57792">
        <ele>453.4</ele>
        <time>2019-11-26T15:34:26Z</time>
      </trkpt>
      <trkpt lat="43.60247" lon="6.57785">
        <ele>452.3</ele>
        <time>2019-11-26T15:34:31Z</time>
      </trkpt>
      <trkpt lat="43.60246" lon="6.57778">
        <ele>451.6</ele>
        <time>2019-11-26T15:34:39Z</time>
      </trkpt>
      <trkpt lat="43.60247" lon="6.57772">
        <ele>451.4</ele>
        <time>2019-11-26T15:34:43Z</time>
      </trkpt>
      <trkpt lat="43.60246" lon="6.57765">
        <ele>451.4</ele>
        <time>2019-11-26T15:34:47Z</time>
      </trkpt>
      <trkpt lat="43.60245" lon="6.57758">
        <ele>451.4</ele>
        <time>2019-11-26T15:34:53Z</time>
      </trkpt>
      <trkpt lat="43.60245" lon="6.5775">
        <ele>451.2</ele>
        <time>2019-11-26T15:34:57Z</time>
      </trkpt>
      <trkpt lat="43.60244" lon="6.57742">
        <ele>451.5</ele>
        <time>2019-11-26T15:35:01Z</time>
      </trkpt>
      <trkpt lat="43.60243" lon="6.57735">
        <ele>451.7</ele>
        <time>2019-11-26T15:35:06Z</time>
      </trkpt>
      <trkpt lat="43.60242" lon="6.57728">
        <ele>452</ele>
        <time>2019-11-26T15:35:12Z</time>
      </trkpt>
      <trkpt lat="43.60242" lon="6.57721">
        <ele>452.6</ele>
        <time>2019-11-26T15:35:16Z</time>
      </trkpt>
      <trkpt lat="43.60241" lon="6.57715">
        <ele>451.8</ele>
        <time>2019-11-26T15:35:19Z</time>
      </trkpt>
      <trkpt lat="43.6024" lon="6.57708">
        <ele>450.2</ele>
        <time>2019-11-26T15:35:22Z</time>
      </trkpt>
      <trkpt lat="43.60241" lon="6.57701">
        <ele>448.6</ele>
        <time>2019-11-26T15:35:27Z</time>
      </trkpt>
      <trkpt lat="43.60239" lon="6.57695">
        <ele>447.8</ele>
        <time>2019-11-26T15:35:37Z</time>
      </trkpt>
      <trkpt lat="43.60239" lon="6.57688">
        <ele>447.9</ele>
        <time>2019-11-26T15:35:43Z</time>
      </trkpt>
      <trkpt lat="43.60239" lon="6.57681">
        <ele>447.1</ele>
        <time>2019-11-26T15:35:45Z</time>
      </trkpt>
      <trkpt lat="43.60239" lon="6.57673">
        <ele>447.1</ele>
        <time>2019-11-26T15:35:48Z</time>
      </trkpt>
      <trkpt lat="43.60239" lon="6.57666">
        <ele>446.1</ele>
        <time>2019-11-26T15:35:52Z</time>
      </trkpt>
      <trkpt lat="43.60236" lon="6.5766">
        <ele>443.6</ele>
        <time>2019-11-26T15:35:57Z</time>
      </trkpt>
      <trkpt lat="43.60235" lon="6.57653">
        <ele>442.2</ele>
        <time>2019-11-26T15:36:01Z</time>
      </trkpt>
      <trkpt lat="43.60233" lon="6.57647">
        <ele>442</ele>
        <time>2019-11-26T15:36:06Z</time>
      </trkpt>
      <trkpt lat="43.6023" lon="6.57642">
        <ele>441.7</ele>
        <time>2019-11-26T15:36:11Z</time>
      </trkpt>
      <trkpt lat="43.60228" lon="6.57635">
        <ele>440.9</ele>
        <time>2019-11-26T15:36:19Z</time>
      </trkpt>
      <trkpt lat="43.60227" lon="6.57627">
        <ele>440.7</ele>
        <time>2019-11-26T15:36:24Z</time>
      </trkpt>
      <trkpt lat="43.60226" lon="6.5762">
        <ele>441.2</ele>
        <time>2019-11-26T15:36:28Z</time>
      </trkpt>
      <trkpt lat="43.60224" lon="6.57614">
        <ele>441.8</ele>
        <time>2019-11-26T15:36:33Z</time>
      </trkpt>
      <trkpt lat="43.60222" lon="6.57607">
        <ele>441.4</ele>
        <time>2019-11-26T15:36:39Z</time>
      </trkpt>
      <trkpt lat="43.60219" lon="6.57601">
        <ele>440.2</ele>
        <time>2019-11-26T15:36:44Z</time>
      </trkpt>
      <trkpt lat="43.60218" lon="6.57595">
        <ele>439.7</ele>
        <time>2019-11-26T15:36:47Z</time>
      </trkpt>
      <trkpt lat="43.60216" lon="6.57587">
        <ele>439.8</ele>
        <time>2019-11-26T15:36:50Z</time>
      </trkpt>
      <trkpt lat="43.60212" lon="6.5758">
        <ele>439.1</ele>
        <time>2019-11-26T15:36:55Z</time>
      </trkpt>
      <trkpt lat="43.6021" lon="6.57573">
        <ele>437.7</ele>
        <time>2019-11-26T15:36:58Z</time>
      </trkpt>
      <trkpt lat="43.60208" lon="6.57568">
        <ele>437.3</ele>
        <time>2019-11-26T15:37:03Z</time>
      </trkpt>
      <trkpt lat="43.60205" lon="6.57563">
        <ele>438.4</ele>
        <time>2019-11-26T15:37:09Z</time>
      </trkpt>
      <trkpt lat="43.60201" lon="6.57557">
        <ele>438.2</ele>
        <time>2019-11-26T15:37:18Z</time>
      </trkpt>
      <trkpt lat="43.60198" lon="6.57549">
        <ele>438</ele>
        <time>2019-11-26T15:37:22Z</time>
      </trkpt>
      <trkpt lat="43.60196" lon="6.57544">
        <ele>438</ele>
        <time>2019-11-26T15:37:24Z</time>
      </trkpt>
      <trkpt lat="43.60193" lon="6.57538">
        <ele>438.4</ele>
        <time>2019-11-26T15:37:27Z</time>
      </trkpt>
      <trkpt lat="43.6019" lon="6.57531">
        <ele>438.8</ele>
        <time>2019-11-26T15:37:30Z</time>
      </trkpt>
      <trkpt lat="43.60189" lon="6.57524">
        <ele>439</ele>
        <time>2019-11-26T15:37:34Z</time>
      </trkpt>
      <trkpt lat="43.60188" lon="6.57517">
        <ele>438.9</ele>
        <time>2019-11-26T15:37:46Z</time>
      </trkpt>
      <trkpt lat="43.60185" lon="6.5751">
        <ele>437.8</ele>
        <time>2019-11-26T15:37:52Z</time>
      </trkpt>
      <trkpt lat="43.60184" lon="6.57499">
        <ele>437.5</ele>
        <time>2019-11-26T15:37:54Z</time>
      </trkpt>
      <trkpt lat="43.60185" lon="6.57492">
        <ele>437.1</ele>
        <time>2019-11-26T15:37:56Z</time>
      </trkpt>
      <trkpt lat="43.60185" lon="6.57484">
        <ele>437</ele>
        <time>2019-11-26T15:37:59Z</time>
      </trkpt>
      <trkpt lat="43.60185" lon="6.57478">
        <ele>436.5</ele>
        <time>2019-11-26T15:38:08Z</time>
      </trkpt>
      <trkpt lat="43.60182" lon="6.57474">
        <ele>437.7</ele>
        <time>2019-11-26T15:38:21Z</time>
      </trkpt>
      <trkpt lat="43.60184" lon="6.57466">
        <ele>437.4</ele>
        <time>2019-11-26T15:38:23Z</time>
      </trkpt>
      <trkpt lat="43.60187" lon="6.57458">
        <ele>437.5</ele>
        <time>2019-11-26T15:38:27Z</time>
      </trkpt>
      <trkpt lat="43.60185" lon="6.57451">
        <ele>437.9</ele>
        <time>2019-11-26T15:38:30Z</time>
      </trkpt>
      <trkpt lat="43.60184" lon="6.57445">
        <ele>438</ele>
        <time>2019-11-26T15:38:33Z</time>
      </trkpt>
      <trkpt lat="43.60184" lon="6.57438">
        <ele>438.7</ele>
        <time>2019-11-26T15:38:40Z</time>
      </trkpt>
      <trkpt lat="43.60182" lon="6.57432">
        <ele>439.7</ele>
        <time>2019-11-26T15:38:47Z</time>
      </trkpt>
      <trkpt lat="43.60178" lon="6.57427">
        <ele>440.3</ele>
        <time>2019-11-26T15:38:52Z</time>
      </trkpt>
      <trkpt lat="43.60176" lon="6.5742">
        <ele>440.9</ele>
        <time>2019-11-26T15:38:56Z</time>
      </trkpt>
      <trkpt lat="43.60179" lon="6.57415">
        <ele>440.9</ele>
        <time>2019-11-26T15:39:00Z</time>
      </trkpt>
      <trkpt lat="43.60178" lon="6.57408">
        <ele>440.8</ele>
        <time>2019-11-26T15:39:04Z</time>
      </trkpt>
      <trkpt lat="43.60176" lon="6.57403">
        <ele>440.8</ele>
        <time>2019-11-26T15:39:07Z</time>
      </trkpt>
      <trkpt lat="43.60172" lon="6.57399">
        <ele>440.7</ele>
        <time>2019-11-26T15:39:10Z</time>
      </trkpt>
      <trkpt lat="43.60168" lon="6.57395">
        <ele>441.2</ele>
        <time>2019-11-26T15:39:15Z</time>
      </trkpt>
      <trkpt lat="43.60163" lon="6.57392">
        <ele>441.7</ele>
        <time>2019-11-26T15:39:20Z</time>
      </trkpt>
      <trkpt lat="43.60159" lon="6.57387">
        <ele>441.6</ele>
        <time>2019-11-26T15:39:24Z</time>
      </trkpt>
      <trkpt lat="43.60158" lon="6.57379">
        <ele>440.9</ele>
        <time>2019-11-26T15:39:27Z</time>
      </trkpt>
      <trkpt lat="43.60154" lon="6.57375">
        <ele>440</ele>
        <time>2019-11-26T15:39:30Z</time>
      </trkpt>
      <trkpt lat="43.60151" lon="6.57369">
        <ele>438.9</ele>
        <time>2019-11-26T15:39:34Z</time>
      </trkpt>
      <trkpt lat="43.60148" lon="6.57363">
        <ele>438.2</ele>
        <time>2019-11-26T15:39:39Z</time>
      </trkpt>
      <trkpt lat="43.60143" lon="6.57361">
        <ele>438</ele>
        <time>2019-11-26T15:39:44Z</time>
      </trkpt>
      <trkpt lat="43.6014" lon="6.57356">
        <ele>438.5</ele>
        <time>2019-11-26T15:39:50Z</time>
      </trkpt>
      <trkpt lat="43.60135" lon="6.57356">
        <ele>438.5</ele>
        <time>2019-11-26T15:39:54Z</time>
      </trkpt>
      <trkpt lat="43.60131" lon="6.57352">
        <ele>438.2</ele>
        <time>2019-11-26T15:40:00Z</time>
      </trkpt>
      <trkpt lat="43.6013" lon="6.57345">
        <ele>437.9</ele>
        <time>2019-11-26T15:40:04Z</time>
      </trkpt>
      <trkpt lat="43.60128" lon="6.57339">
        <ele>437.6</ele>
        <time>2019-11-26T15:40:08Z</time>
      </trkpt>
      <trkpt lat="43.60126" lon="6.57333">
        <ele>437.4</ele>
        <time>2019-11-26T15:40:12Z</time>
      </trkpt>
      <trkpt lat="43.60126" lon="6.57326">
        <ele>436.9</ele>
        <time>2019-11-26T15:40:20Z</time>
      </trkpt>
      <trkpt lat="43.60127" lon="6.57319">
        <ele>436.6</ele>
        <time>2019-11-26T15:40:23Z</time>
      </trkpt>
      <trkpt lat="43.60125" lon="6.5731">
        <ele>436.3</ele>
        <time>2019-11-26T15:40:26Z</time>
      </trkpt>
      <trkpt lat="43.6012" lon="6.57306">
        <ele>436</ele>
        <time>2019-11-26T15:40:30Z</time>
      </trkpt>
      <trkpt lat="43.60118" lon="6.573">
        <ele>435</ele>
        <time>2019-11-26T15:40:35Z</time>
      </trkpt>
      <trkpt lat="43.60116" lon="6.57294">
        <ele>433.8</ele>
        <time>2019-11-26T15:40:43Z</time>
      </trkpt>
      <trkpt lat="43.60116" lon="6.57287">
        <ele>432.9</ele>
        <time>2019-11-26T15:40:49Z</time>
      </trkpt>
      <trkpt lat="43.60116" lon="6.5728">
        <ele>432.3</ele>
        <time>2019-11-26T15:40:53Z</time>
      </trkpt>
      <trkpt lat="43.60118" lon="6.57274">
        <ele>430.7</ele>
        <time>2019-11-26T15:40:57Z</time>
      </trkpt>
      <trkpt lat="43.60117" lon="6.57267">
        <ele>429.6</ele>
        <time>2019-11-26T15:41:02Z</time>
      </trkpt>
      <trkpt lat="43.60117" lon="6.57261">
        <ele>429.1</ele>
        <time>2019-11-26T15:41:05Z</time>
      </trkpt>
      <trkpt lat="43.60117" lon="6.57253">
        <ele>428.9</ele>
        <time>2019-11-26T15:41:09Z</time>
      </trkpt>
      <trkpt lat="43.60118" lon="6.57247">
        <ele>428.5</ele>
        <time>2019-11-26T15:41:14Z</time>
      </trkpt>
      <trkpt lat="43.60118" lon="6.57239">
        <ele>428.3</ele>
        <time>2019-11-26T15:41:20Z</time>
      </trkpt>
      <trkpt lat="43.60118" lon="6.57233">
        <ele>428.1</ele>
        <time>2019-11-26T15:41:24Z</time>
      </trkpt>
      <trkpt lat="43.60118" lon="6.57227">
        <ele>427.7</ele>
        <time>2019-11-26T15:41:28Z</time>
      </trkpt>
      <trkpt lat="43.60119" lon="6.5722">
        <ele>427.2</ele>
        <time>2019-11-26T15:41:36Z</time>
      </trkpt>
      <trkpt lat="43.60119" lon="6.57211">
        <ele>427.6</ele>
        <time>2019-11-26T15:41:40Z</time>
      </trkpt>
      <trkpt lat="43.60119" lon="6.57205">
        <ele>427.6</ele>
        <time>2019-11-26T15:41:43Z</time>
      </trkpt>
      <trkpt lat="43.6012" lon="6.57197">
        <ele>427.5</ele>
        <time>2019-11-26T15:41:47Z</time>
      </trkpt>
      <trkpt lat="43.60121" lon="6.57191">
        <ele>427.2</ele>
        <time>2019-11-26T15:41:52Z</time>
      </trkpt>
      <trkpt lat="43.60122" lon="6.57184">
        <ele>427.3</ele>
        <time>2019-11-26T15:41:56Z</time>
      </trkpt>
      <trkpt lat="43.60122" lon="6.57177">
        <ele>427.2</ele>
        <time>2019-11-26T15:42:00Z</time>
      </trkpt>
      <trkpt lat="43.60122" lon="6.5717">
        <ele>427.2</ele>
        <time>2019-11-26T15:42:02Z</time>
      </trkpt>
      <trkpt lat="43.60124" lon="6.57165">
        <ele>426.2</ele>
        <time>2019-11-26T15:42:05Z</time>
      </trkpt>
      <trkpt lat="43.60127" lon="6.57159">
        <ele>425.3</ele>
        <time>2019-11-26T15:42:09Z</time>
      </trkpt>
      <trkpt lat="43.60129" lon="6.57152">
        <ele>424.5</ele>
        <time>2019-11-26T15:42:22Z</time>
      </trkpt>
      <trkpt lat="43.6013" lon="6.57146">
        <ele>424.7</ele>
        <time>2019-11-26T15:42:25Z</time>
      </trkpt>
      <trkpt lat="43.6013" lon="6.5714">
        <ele>424.9</ele>
        <time>2019-11-26T15:42:28Z</time>
      </trkpt>
      <trkpt lat="43.60131" lon="6.57133">
        <ele>425.4</ele>
        <time>2019-11-26T15:42:34Z</time>
      </trkpt>
      <trkpt lat="43.60131" lon="6.57126">
        <ele>425.8</ele>
        <time>2019-11-26T15:42:41Z</time>
      </trkpt>
      <trkpt lat="43.60132" lon="6.57119">
        <ele>426.4</ele>
        <time>2019-11-26T15:42:49Z</time>
      </trkpt>
      <trkpt lat="43.60133" lon="6.57111">
        <ele>426.7</ele>
        <time>2019-11-26T15:42:53Z</time>
      </trkpt>
      <trkpt lat="43.60133" lon="6.57105">
        <ele>427</ele>
        <time>2019-11-26T15:42:56Z</time>
      </trkpt>
      <trkpt lat="43.60134" lon="6.57097">
        <ele>427.2</ele>
        <time>2019-11-26T15:43:00Z</time>
      </trkpt>
      <trkpt lat="43.60136" lon="6.5709">
        <ele>427.5</ele>
        <time>2019-11-26T15:43:05Z</time>
      </trkpt>
      <trkpt lat="43.60136" lon="6.57082">
        <ele>427.1</ele>
        <time>2019-11-26T15:43:07Z</time>
      </trkpt>
      <trkpt lat="43.60137" lon="6.57076">
        <ele>426.9</ele>
        <time>2019-11-26T15:43:12Z</time>
      </trkpt>
      <trkpt lat="43.60139" lon="6.5707">
        <ele>427.8</ele>
        <time>2019-11-26T15:43:18Z</time>
      </trkpt>
      <trkpt lat="43.6014" lon="6.57062">
        <ele>428.4</ele>
        <time>2019-11-26T15:43:21Z</time>
      </trkpt>
      <trkpt lat="43.60142" lon="6.57055">
        <ele>429.1</ele>
        <time>2019-11-26T15:43:24Z</time>
      </trkpt>
      <trkpt lat="43.60146" lon="6.57052">
        <ele>428.7</ele>
        <time>2019-11-26T15:43:28Z</time>
      </trkpt>
      <trkpt lat="43.60149" lon="6.57046">
        <ele>428.2</ele>
        <time>2019-11-26T15:43:34Z</time>
      </trkpt>
      <trkpt lat="43.60152" lon="6.5704">
        <ele>428.4</ele>
        <time>2019-11-26T15:43:38Z</time>
      </trkpt>
      <trkpt lat="43.60155" lon="6.57035">
        <ele>429.1</ele>
        <time>2019-11-26T15:43:44Z</time>
      </trkpt>
      <trkpt lat="43.60159" lon="6.57029">
        <ele>429.2</ele>
        <time>2019-11-26T15:43:49Z</time>
      </trkpt>
      <trkpt lat="43.60163" lon="6.57024">
        <ele>429.4</ele>
        <time>2019-11-26T15:43:54Z</time>
      </trkpt>
      <trkpt lat="43.60165" lon="6.57019">
        <ele>429.6</ele>
        <time>2019-11-26T15:43:58Z</time>
      </trkpt>
      <trkpt lat="43.6017" lon="6.57015">
        <ele>428.7</ele>
        <time>2019-11-26T15:44:01Z</time>
      </trkpt>
      <trkpt lat="43.60173" lon="6.57009">
        <ele>428.1</ele>
        <time>2019-11-26T15:44:07Z</time>
      </trkpt>
      <trkpt lat="43.60175" lon="6.57001">
        <ele>428.5</ele>
        <time>2019-11-26T15:44:30Z</time>
      </trkpt>
      <trkpt lat="43.60176" lon="6.56995">
        <ele>428.6</ele>
        <time>2019-11-26T15:44:33Z</time>
      </trkpt>
      <trkpt lat="43.60174" lon="6.56989">
        <ele>428</ele>
        <time>2019-11-26T15:44:35Z</time>
      </trkpt>
      <trkpt lat="43.60174" lon="6.5698">
        <ele>427.9</ele>
        <time>2019-11-26T15:44:38Z</time>
      </trkpt>
      <trkpt lat="43.60176" lon="6.56974">
        <ele>427.6</ele>
        <time>2019-11-26T15:44:41Z</time>
      </trkpt>
      <trkpt lat="43.60179" lon="6.56968">
        <ele>427.7</ele>
        <time>2019-11-26T15:44:46Z</time>
      </trkpt>
      <trkpt lat="43.60181" lon="6.56961">
        <ele>428</ele>
        <time>2019-11-26T15:44:50Z</time>
      </trkpt>
      <trkpt lat="43.60183" lon="6.56954">
        <ele>428.2</ele>
        <time>2019-11-26T15:44:55Z</time>
      </trkpt>
      <trkpt lat="43.60188" lon="6.56949">
        <ele>425.6</ele>
        <time>2019-11-26T15:44:58Z</time>
      </trkpt>
      <trkpt lat="43.60191" lon="6.56944">
        <ele>424.2</ele>
        <time>2019-11-26T15:45:01Z</time>
      </trkpt>
      <trkpt lat="43.60193" lon="6.56937">
        <ele>422.7</ele>
        <time>2019-11-26T15:45:04Z</time>
      </trkpt>
      <trkpt lat="43.60191" lon="6.56931">
        <ele>422.2</ele>
        <time>2019-11-26T15:45:08Z</time>
      </trkpt>
      <trkpt lat="43.60191" lon="6.56925">
        <ele>422.4</ele>
        <time>2019-11-26T15:45:13Z</time>
      </trkpt>
      <trkpt lat="43.60191" lon="6.56919">
        <ele>423.4</ele>
        <time>2019-11-26T15:45:19Z</time>
      </trkpt>
      <trkpt lat="43.6019" lon="6.56911">
        <ele>421.9</ele>
        <time>2019-11-26T15:45:35Z</time>
      </trkpt>
      <trkpt lat="43.60187" lon="6.56905">
        <ele>417.3</ele>
        <time>2019-11-26T15:47:11Z</time>
      </trkpt>
      <trkpt lat="43.60189" lon="6.56898">
        <ele>414.3</ele>
        <time>2019-11-26T15:47:14Z</time>
      </trkpt>
      <trkpt lat="43.60186" lon="6.56892">
        <ele>410</ele>
        <time>2019-11-26T15:47:21Z</time>
      </trkpt>
      <trkpt lat="43.60184" lon="6.56886">
        <ele>408.6</ele>
        <time>2019-11-26T15:47:33Z</time>
      </trkpt>
      <trkpt lat="43.60186" lon="6.56879">
        <ele>411.9</ele>
        <time>2019-11-26T15:47:42Z</time>
      </trkpt>
      <trkpt lat="43.60188" lon="6.56873">
        <ele>412.3</ele>
        <time>2019-11-26T15:47:44Z</time>
      </trkpt>
      <trkpt lat="43.6019" lon="6.56866">
        <ele>413.2</ele>
        <time>2019-11-26T15:47:53Z</time>
      </trkpt>
      <trkpt lat="43.60189" lon="6.5686">
        <ele>413.9</ele>
        <time>2019-11-26T15:48:07Z</time>
      </trkpt>
      <trkpt lat="43.60194" lon="6.56857">
        <ele>414.2</ele>
        <time>2019-11-26T15:48:12Z</time>
      </trkpt>
      <trkpt lat="43.60192" lon="6.5685">
        <ele>413</ele>
        <time>2019-11-26T15:48:18Z</time>
      </trkpt>
      <trkpt lat="43.6019" lon="6.56843">
        <ele>413.4</ele>
        <time>2019-11-26T15:48:22Z</time>
      </trkpt>
      <trkpt lat="43.60188" lon="6.56837">
        <ele>415.4</ele>
        <time>2019-11-26T15:48:40Z</time>
      </trkpt>
      <trkpt lat="43.60185" lon="6.5683">
        <ele>416</ele>
        <time>2019-11-26T15:48:48Z</time>
      </trkpt>
      <trkpt lat="43.60185" lon="6.56823">
        <ele>417.2</ele>
        <time>2019-11-26T15:48:58Z</time>
      </trkpt>
      <trkpt lat="43.60186" lon="6.56816">
        <ele>417</ele>
        <time>2019-11-26T15:49:03Z</time>
      </trkpt>
      <trkpt lat="43.60188" lon="6.5681">
        <ele>417.2</ele>
        <time>2019-11-26T15:49:10Z</time>
      </trkpt>
      <trkpt lat="43.6019" lon="6.56804">
        <ele>417.7</ele>
        <time>2019-11-26T15:49:15Z</time>
      </trkpt>
      <trkpt lat="43.60192" lon="6.56798">
        <ele>417.8</ele>
        <time>2019-11-26T15:49:19Z</time>
      </trkpt>
      <trkpt lat="43.60194" lon="6.56791">
        <ele>417</ele>
        <time>2019-11-26T15:49:23Z</time>
      </trkpt>
      <trkpt lat="43.60197" lon="6.56786">
        <ele>416.7</ele>
        <time>2019-11-26T15:49:26Z</time>
      </trkpt>
      <trkpt lat="43.60197" lon="6.5678">
        <ele>416.7</ele>
        <time>2019-11-26T15:49:30Z</time>
      </trkpt>
      <trkpt lat="43.60195" lon="6.56773">
        <ele>414.2</ele>
        <time>2019-11-26T15:49:35Z</time>
      </trkpt>
      <trkpt lat="43.60194" lon="6.56766">
        <ele>413.8</ele>
        <time>2019-11-26T15:49:41Z</time>
      </trkpt>
      <trkpt lat="43.60193" lon="6.56759">
        <ele>414.1</ele>
        <time>2019-11-26T15:49:47Z</time>
      </trkpt>
      <trkpt lat="43.60189" lon="6.56753">
        <ele>413.7</ele>
        <time>2019-11-26T15:49:59Z</time>
      </trkpt>
      <trkpt lat="43.60189" lon="6.56745">
        <ele>413.4</ele>
        <time>2019-11-26T15:50:02Z</time>
      </trkpt>
      <trkpt lat="43.60189" lon="6.56736">
        <ele>413.4</ele>
        <time>2019-11-26T15:50:05Z</time>
      </trkpt>
      <trkpt lat="43.60189" lon="6.5673">
        <ele>413.9</ele>
        <time>2019-11-26T15:50:11Z</time>
      </trkpt>
      <trkpt lat="43.60189" lon="6.56722">
        <ele>413.1</ele>
        <time>2019-11-26T15:50:15Z</time>
      </trkpt>
      <trkpt lat="43.60189" lon="6.56716">
        <ele>411</ele>
        <time>2019-11-26T15:50:18Z</time>
      </trkpt>
      <trkpt lat="43.60189" lon="6.56709">
        <ele>410.3</ele>
        <time>2019-11-26T15:50:22Z</time>
      </trkpt>
      <trkpt lat="43.6019" lon="6.56703">
        <ele>411.1</ele>
        <time>2019-11-26T15:50:27Z</time>
      </trkpt>
      <trkpt lat="43.60192" lon="6.56697">
        <ele>410.8</ele>
        <time>2019-11-26T15:50:33Z</time>
      </trkpt>
      <trkpt lat="43.60195" lon="6.56691">
        <ele>410.8</ele>
        <time>2019-11-26T15:50:38Z</time>
      </trkpt>
      <trkpt lat="43.60198" lon="6.56686">
        <ele>411.6</ele>
        <time>2019-11-26T15:50:41Z</time>
      </trkpt>
      <trkpt lat="43.60202" lon="6.56681">
        <ele>412.7</ele>
        <time>2019-11-26T15:50:45Z</time>
      </trkpt>
      <trkpt lat="43.60204" lon="6.56675">
        <ele>414.9</ele>
        <time>2019-11-26T15:50:51Z</time>
      </trkpt>
      <trkpt lat="43.60205" lon="6.56668">
        <ele>414.9</ele>
        <time>2019-11-26T15:50:56Z</time>
      </trkpt>
      <trkpt lat="43.60204" lon="6.56662">
        <ele>414.1</ele>
        <time>2019-11-26T15:51:00Z</time>
      </trkpt>
      <trkpt lat="43.60206" lon="6.56656">
        <ele>413.7</ele>
        <time>2019-11-26T15:51:04Z</time>
      </trkpt>
      <trkpt lat="43.60209" lon="6.56649">
        <ele>413.9</ele>
        <time>2019-11-26T15:51:09Z</time>
      </trkpt>
      <trkpt lat="43.60209" lon="6.56642">
        <ele>413.7</ele>
        <time>2019-11-26T15:51:13Z</time>
      </trkpt>
      <trkpt lat="43.60211" lon="6.56636">
        <ele>412.2</ele>
        <time>2019-11-26T15:51:17Z</time>
      </trkpt>
      <trkpt lat="43.6021" lon="6.56622">
        <ele>407.6</ele>
        <time>2019-11-26T15:51:32Z</time>
      </trkpt>
      <trkpt lat="43.6021" lon="6.56614">
        <ele>406.8</ele>
        <time>2019-11-26T15:51:37Z</time>
      </trkpt>
      <trkpt lat="43.60212" lon="6.56606">
        <ele>405.4</ele>
        <time>2019-11-26T15:51:52Z</time>
      </trkpt>
      <trkpt lat="43.60214" lon="6.566">
        <ele>405.8</ele>
        <time>2019-11-26T15:51:57Z</time>
      </trkpt>
      <trkpt lat="43.60218" lon="6.56596">
        <ele>406.6</ele>
        <time>2019-11-26T15:52:04Z</time>
      </trkpt>
      <trkpt lat="43.60218" lon="6.5659">
        <ele>408.2</ele>
        <time>2019-11-26T15:52:17Z</time>
      </trkpt>
      <trkpt lat="43.60218" lon="6.56582">
        <ele>409.6</ele>
        <time>2019-11-26T15:52:25Z</time>
      </trkpt>
      <trkpt lat="43.60217" lon="6.56576">
        <ele>409.8</ele>
        <time>2019-11-26T15:52:30Z</time>
      </trkpt>
      <trkpt lat="43.60216" lon="6.56569">
        <ele>410.3</ele>
        <time>2019-11-26T15:52:35Z</time>
      </trkpt>
      <trkpt lat="43.60215" lon="6.56563">
        <ele>409.9</ele>
        <time>2019-11-26T15:52:48Z</time>
      </trkpt>
      <trkpt lat="43.60213" lon="6.56557">
        <ele>409.8</ele>
        <time>2019-11-26T15:52:54Z</time>
      </trkpt>
      <trkpt lat="43.60211" lon="6.5655">
        <ele>409.6</ele>
        <time>2019-11-26T15:52:58Z</time>
      </trkpt>
      <trkpt lat="43.6021" lon="6.56542">
        <ele>409.8</ele>
        <time>2019-11-26T15:53:03Z</time>
      </trkpt>
      <trkpt lat="43.6021" lon="6.56536">
        <ele>410.3</ele>
        <time>2019-11-26T15:53:06Z</time>
      </trkpt>
      <trkpt lat="43.60211" lon="6.56529">
        <ele>411</ele>
        <time>2019-11-26T15:53:11Z</time>
      </trkpt>
      <trkpt lat="43.60209" lon="6.56523">
        <ele>411.5</ele>
        <time>2019-11-26T15:53:14Z</time>
      </trkpt>
      <trkpt lat="43.60206" lon="6.56518">
        <ele>410.5</ele>
        <time>2019-11-26T15:53:19Z</time>
      </trkpt>
      <trkpt lat="43.60204" lon="6.56512">
        <ele>408.8</ele>
        <time>2019-11-26T15:53:24Z</time>
      </trkpt>
      <trkpt lat="43.60202" lon="6.56505">
        <ele>407.9</ele>
        <time>2019-11-26T15:53:27Z</time>
      </trkpt>
      <trkpt lat="43.60202" lon="6.56498">
        <ele>406.8</ele>
        <time>2019-11-26T15:53:29Z</time>
      </trkpt>
      <trkpt lat="43.60203" lon="6.56491">
        <ele>405.5</ele>
        <time>2019-11-26T15:53:33Z</time>
      </trkpt>
      <trkpt lat="43.60205" lon="6.56485">
        <ele>402.8</ele>
        <time>2019-11-26T15:53:36Z</time>
      </trkpt>
      <trkpt lat="43.60204" lon="6.56478">
        <ele>400.9</ele>
        <time>2019-11-26T15:53:42Z</time>
      </trkpt>
      <trkpt lat="43.60201" lon="6.56472">
        <ele>400.3</ele>
        <time>2019-11-26T15:53:47Z</time>
      </trkpt>
      <trkpt lat="43.60199" lon="6.56466">
        <ele>400.9</ele>
        <time>2019-11-26T15:53:56Z</time>
      </trkpt>
      <trkpt lat="43.60198" lon="6.56458">
        <ele>400.8</ele>
        <time>2019-11-26T15:54:00Z</time>
      </trkpt>
      <trkpt lat="43.60196" lon="6.56453">
        <ele>401.3</ele>
        <time>2019-11-26T15:54:04Z</time>
      </trkpt>
      <trkpt lat="43.60193" lon="6.56447">
        <ele>401.3</ele>
        <time>2019-11-26T15:54:08Z</time>
      </trkpt>
      <trkpt lat="43.6019" lon="6.56442">
        <ele>402.2</ele>
        <time>2019-11-26T15:54:20Z</time>
      </trkpt>
      <trkpt lat="43.60191" lon="6.56435">
        <ele>400.7</ele>
        <time>2019-11-26T15:54:35Z</time>
      </trkpt>
      <trkpt lat="43.6019" lon="6.56428">
        <ele>402.7</ele>
        <time>2019-11-26T15:54:54Z</time>
      </trkpt>
      <trkpt lat="43.60174" lon="6.56297">
        <ele>397.1</ele>
      </trkpt>
      <trkpt lat="43.60157" lon="6.56257">
        <ele>399.6</ele>
      </trkpt>
    </trkseg>
  </trk>
</gpx>